Provisional Data: Long Run near Gaines, PA


Please select a monitoring station.
Please select start date.
Please select start date.

Toggle Unit: C/F Toggle Unit: C/F
Sample Time Temperature (C) Temperature (F) Specific Conductivity (mS/cm) pH   Turbidity (NTU+) DO (mg/L)
10/22/2021 12:00:00 AM 12.88 55.184 0.081 6.86 34 9.84
10/22/2021 12:15:00 AM 12.84 55.112 0.078 6.84 34.87 9.85
10/22/2021 12:30:00 AM 12.82 55.076 0.075 6.79 39.4 9.87
10/22/2021 12:45:00 AM 12.79 55.022 0.071 6.78 39.42 9.87
10/22/2021 1:00:00 AM 12.76 54.968 0.069 6.76 36.77 9.89
10/22/2021 1:15:00 AM 12.72 54.896 0.069 6.72 32.33 9.89
10/22/2021 1:30:00 AM 12.68 54.824 0.069 6.72 31.26 9.9
10/22/2021 1:45:00 AM 12.64 54.752 0.07 6.72 29.24 9.92
10/22/2021 2:00:00 AM 12.61 54.698 0.072 6.73 27.82 9.92
10/22/2021 2:15:00 AM 12.6 54.68 0.074 6.76 25.43 9.92
10/22/2021 2:30:00 AM 12.58 54.644 0.078 6.79 23.57 9.92
10/22/2021 2:45:00 AM 12.56 54.608 0.081 6.79 22.02 9.93
10/22/2021 3:00:00 AM 12.55 54.59 0.083 6.84 21.06 9.93
10/22/2021 3:15:00 AM 12.52 54.536 0.083 6.84 20.38 9.94
10/22/2021 3:30:00 AM 12.49 54.482 0.084 6.85 23.23 9.94
10/22/2021 3:45:00 AM 12.46 54.428 0.084 6.84 28.55 9.95
10/22/2021 4:00:00 AM 12.44 54.392 0.084 6.87 33.88 9.95
10/22/2021 4:15:00 AM 12.42 54.356 0.084 6.86 32.84 9.95
10/22/2021 4:30:00 AM 12.4 54.32 0.085 6.86 30.71 9.95
10/22/2021 4:45:00 AM 12.39 54.302 0.085 6.85 26.17 9.96
10/22/2021 5:00:00 AM 12.38 54.284 0.086 6.88 19.01 9.95
10/22/2021 5:15:00 AM 12.37 54.266 0.086 6.81 20.07 9.96
10/22/2021 5:30:00 AM 12.36 54.248 0.086 6.88 17.39 9.96
10/22/2021 5:45:00 AM 12.35 54.23 0.086 6.88 15.87 9.97
10/22/2021 6:00:00 AM 12.34 54.212 0.086 6.88 14.47 9.97
10/22/2021 6:15:00 AM 12.33 54.194 0.086 6.89 13.39 9.97
10/22/2021 6:30:00 AM 12.32 54.176 0.086 6.89 12.57 9.98
10/22/2021 6:45:00 AM 12.31 54.158 0.086 6.87 12.16 9.98
10/22/2021 7:00:00 AM 12.3 54.14 0.086 6.85 11.04 9.98
10/22/2021 7:15:00 AM 12.29 54.122 0.086 6.9 10.86 9.99
10/22/2021 7:30:00 AM 12.28 54.104 0.085 6.89 9.92 9.99
10/22/2021 7:45:00 AM 12.26 54.068 0.085 6.91 9.69 10.01
10/22/2021 8:00:00 AM 12.23 54.014 0.085 6.9 9.05 10.03
10/22/2021 8:15:00 AM 12.21 53.978 0.085 6.89 9.14 10.06
10/22/2021 8:30:00 AM 12.2 53.96 0.085 6.91 9.32 10.1
10/22/2021 8:45:00 AM 12.2 53.96 0.085 6.92 8.85 10.14
10/22/2021 9:00:00 AM 12.21 53.978 0.085 6.92 8.11 10.14
10/22/2021 9:15:00 AM 12.22 53.996 0.085 6.95 7.65 10.19
10/22/2021 9:30:00 AM 12.24 54.032 0.084 6.97 7.43 10.23
10/22/2021 9:45:00 AM 12.26 54.068 0.084 6.98 7.03 10.29
10/22/2021 10:00:00 AM 12.27 54.086 0.084 7.01 7.02 10.33
10/22/2021 10:15:00 AM 12.3 54.14 0.084 7.02 6.71 10.37
10/22/2021 10:30:00 AM 12.33 54.194 0.084 7.03 6.34 10.39
10/22/2021 10:45:00 AM 12.37 54.266 0.084 7.06 6.31 10.44
10/22/2021 11:00:00 AM 12.4 54.32 0.084 7.07 5.99 10.43
10/22/2021 11:15:00 AM 12.4 54.32 0.084 7.05 5.81 10.38
10/22/2021 11:30:00 AM 12.41 54.338 0.084 7.07 5.6 10.39
10/22/2021 11:45:00 AM 12.43 54.374 0.084 7.07 5.34 10.41
10/22/2021 12:00:00 PM 12.48 54.464 0.083 7.11 5.44 10.48
10/22/2021 12:15:00 PM 12.51 54.518 0.083 7.12 5.29 10.49
10/22/2021 12:30:00 PM 12.52 54.536 0.083 7.11 5.31 10.46
10/22/2021 12:45:00 PM 12.52 54.536 0.083 7.1 5.09 10.47
10/22/2021 1:00:00 PM 12.53 54.554 0.083 7.12 5.06 10.49
10/22/2021 1:15:00 PM 12.6 54.68 0.083 7.15 5.03 10.54
10/22/2021 1:30:00 PM 12.63 54.734 0.083 7.14 5.01 10.54
10/22/2021 1:45:00 PM 12.7 54.86 0.083 7.17 4.8 10.56
10/22/2021 2:00:00 PM 12.76 54.968 0.083 7.2 4.8 10.54
10/22/2021 2:15:00 PM 12.76 54.968 0.083 7.17 4.94 10.53
10/22/2021 2:30:00 PM 12.75 54.95 0.083 7.17 4.69 10.49
10/22/2021 2:45:00 PM 12.74 54.932 0.083 7.17 4.64 10.47
10/22/2021 3:00:00 PM 12.81 55.058 0.083 7.17 4.62 10.49
10/22/2021 3:15:00 PM 12.76 54.968 0.083 7.16 4.59 10.45
10/22/2021 3:30:00 PM 12.74 54.932 0.083 7.15 4.56 10.43
10/22/2021 3:45:00 PM 12.7 54.86 0.083 7.13 4.51 10.39
10/22/2021 4:00:00 PM 12.7 54.86 0.082 7.13 4.39 10.41
10/22/2021 4:15:00 PM 12.72 54.896 0.082 7.12 4.41 10.37
10/22/2021 4:30:00 PM 12.72 54.896 0.082 7.1 4.46 10.29
10/22/2021 4:45:00 PM 12.69 54.842 0.082 7.09 4.4 10.29
10/22/2021 5:00:00 PM 12.66 54.788 0.082 7.07 4.43 10.3
10/22/2021 5:15:00 PM 12.62 54.716 0.082 7.05 4.29 10.3
10/22/2021 5:30:00 PM 12.56 54.608 0.082 7.05 4.23 10.26
10/22/2021 5:45:00 PM 12.49 54.482 0.082 7.01 4.25 10.22
10/22/2021 6:00:00 PM 12.4 54.32 0.082 6.95 4.24 10.18
10/22/2021 6:15:00 PM 12.3 54.14 0.083 6.97 4.19 10.14
10/22/2021 6:30:00 PM 12.2 53.96 0.083 6.95 4.2 10.12
10/22/2021 6:45:00 PM 12.11 53.798 0.083 6.92 4.25 10.1
10/22/2021 7:00:00 PM 12.04 53.672 0.083 6.9 4.13 10.1
10/22/2021 7:15:00 PM 11.97 53.546 0.083 6.91 4.19 10.11
10/22/2021 7:30:00 PM 11.9 53.42 0.083 6.9 4.2 10.12
10/22/2021 7:45:00 PM 11.83 53.294 0.083 6.89 4.09 10.14
10/22/2021 8:00:00 PM 11.75 53.15 0.082 6.9 4.14 10.15
10/22/2021 8:15:00 PM 11.67 53.006 0.082 6.89 4.08 10.17
10/22/2021 8:30:00 PM 11.61 52.898 0.082 6.88 4 10.19
10/22/2021 8:45:00 PM 11.55 52.79 0.082 6.88 4 10.2
10/22/2021 9:00:00 PM 11.48 52.664 0.082 6.89 5.03 10.21
10/22/2021 9:15:00 PM 11.41 52.538 0.082 6.88 4.03 10.23
10/22/2021 9:30:00 PM 11.33 52.394 0.082 6.88 4.06 10.25
10/22/2021 9:45:00 PM 11.26 52.268 0.082 6.89 3.95 10.26
10/22/2021 10:00:00 PM 11.19 52.142 0.082 6.88 3.94 10.28
10/22/2021 10:15:00 PM 11.13 52.034 0.082 6.88 3.86 10.3
10/22/2021 10:30:00 PM 11.09 51.962 0.082 6.88 3.93 10.32
10/22/2021 10:45:00 PM 11.05 51.89 0.082 6.89 3.99 10.33
10/22/2021 11:00:00 PM 11.02 51.836 0.082 6.9 4 10.33
10/22/2021 11:15:00 PM 10.99 51.782 0.082 6.88 3.94 10.34
10/22/2021 11:30:00 PM 10.96 51.728 0.082 6.84 3.9 10.35
10/22/2021 11:45:00 PM 10.93 51.674 0.082 6.89 3.91 10.36
10/23/2021 12:00:00 AM 10.9 51.62 0.082 6.88 3.84 10.36
10/23/2021 12:15:00 AM 10.87 51.566 0.082 6.89 3.95 10.37
10/23/2021 12:30:00 AM 10.85 51.53 0.082 6.89 4.05 10.37
10/23/2021 12:45:00 AM 10.83 51.494 0.082 6.89 3.92 10.38
10/23/2021 1:00:00 AM 10.81 51.458 0.081 6.89 3.78 10.38
10/23/2021 1:15:00 AM 10.78 51.404 0.081 6.86 4 10.39
10/23/2021 1:30:00 AM 10.76 51.368 0.081 6.89 3.88 10.39
10/23/2021 1:45:00 AM 10.73 51.314 0.081 6.89 3.86 10.4
10/23/2021 2:00:00 AM 10.7 51.26 0.081 6.89 3.92 10.4
10/23/2021 2:15:00 AM 10.68 51.224 0.081 6.88 4.05 10.41
10/23/2021 2:30:00 AM 10.65 51.17 0.081 6.87 3.89 10.42
10/23/2021 2:45:00 AM 10.64 51.152 0.081 6.88 3.88 10.42
10/23/2021 3:00:00 AM 10.62 51.116 0.081 6.86 3.84 10.42
10/23/2021 3:15:00 AM 10.61 51.098 0.081 6.88 3.8 10.42
10/23/2021 3:30:00 AM 10.6 51.08 0.081 6.88 3.78 10.43
10/23/2021 3:45:00 AM 10.59 51.062 0.081 6.87 3.75 10.43
10/23/2021 4:00:00 AM 10.58 51.044 0.081 6.88 3.88 10.44
10/23/2021 4:15:00 AM 10.57 51.026 0.081 6.88 3.84 10.43
10/23/2021 4:30:00 AM 10.56 51.008 0.081 6.85 3.79 10.44
10/23/2021 4:45:00 AM 10.55 50.99 0.081 6.88 3.72 10.44
10/23/2021 5:00:00 AM 10.54 50.972 0.08 6.79 3.79 10.44
10/23/2021 5:15:00 AM 10.53 50.954 0.08 6.86 3.8 10.45
10/23/2021 5:30:00 AM 10.53 50.954 0.08 6.87 3.67 10.45
10/23/2021 5:45:00 AM 10.52 50.936 0.08 6.87 3.8 10.45
10/23/2021 6:00:00 AM 10.51 50.918 0.08 6.87 3.71 10.45
10/23/2021 6:15:00 AM 10.48 50.864 0.08 6.86 3.8 10.46
10/23/2021 6:30:00 AM 10.47 50.846 0.08 6.87 3.83 10.47
10/23/2021 6:45:00 AM 10.45 50.81 0.08 6.83 3.79 10.47
10/23/2021 7:00:00 AM 10.43 50.774 0.08 6.87 3.72 10.48
10/23/2021 7:15:00 AM 10.42 50.756 0.08 6.87 3.83 10.48
10/23/2021 7:30:00 AM 10.41 50.738 0.08 6.87 3.77 10.48
10/23/2021 7:45:00 AM 10.4 50.72 0.08 6.87 3.68 10.51
10/23/2021 8:00:00 AM 10.4 50.72 0.08 6.88 3.7 10.51
10/23/2021 8:15:00 AM 10.39 50.702 0.08 6.89 3.55 10.54
10/23/2021 8:30:00 AM 10.39 50.702 0.08 6.88 3.6 10.56
10/23/2021 8:45:00 AM 10.39 50.702 0.08 6.9 3.45 10.59
10/23/2021 9:00:00 AM 10.39 50.702 0.08 6.88 3.47 10.63
10/23/2021 9:15:00 AM 10.4 50.72 0.079 6.92 3.5 10.7
10/23/2021 9:30:00 AM 10.41 50.738 0.079 6.94 3.34 10.76
10/23/2021 9:45:00 AM 10.44 50.792 0.079 6.96 3.44 10.82
10/23/2021 10:00:00 AM 10.46 50.828 0.079 6.99 3.31 10.86
10/23/2021 10:15:00 AM 10.48 50.864 0.079 7.01 3.4 10.88
10/23/2021 10:30:00 AM 10.51 50.918 0.079 7.02 3.32 10.92
10/23/2021 10:45:00 AM 10.54 50.972 0.079 7.05 3.27 10.96
10/23/2021 11:00:00 AM 10.57 51.026 0.078 7.06 3.31 10.96
10/23/2021 11:15:00 AM 10.6 51.08 0.078 7.06 3.28 10.96
10/23/2021 11:30:00 AM 10.63 51.134 0.078 7.07 3.31 10.96
10/23/2021 11:45:00 AM 10.67 51.206 0.078 7.07 3.24 10.96
10/23/2021 12:00:00 PM 10.74 51.332 0.078 7.1 3.29 11.01
10/23/2021 12:15:00 PM 10.78 51.404 0.078 7.1 3.3 10.99
10/23/2021 12:30:00 PM 10.82 51.476 0.078 7.13 3.27 10.99
10/23/2021 12:45:00 PM 10.88 51.584 0.078 7.11 3.31 11.01
10/23/2021 1:00:00 PM 10.93 51.674 0.078 7.09 3.34 11.01
10/23/2021 1:15:00 PM 10.97 51.746 0.078 7.16 3.29 10.94
10/23/2021 1:30:00 PM 10.99 51.782 0.078 7.14 3.27 10.92
10/23/2021 1:45:00 PM 11.05 51.89 0.078 7.08 3.19 10.96
10/23/2021 2:00:00 PM 11.11 51.998 0.078 7.15 3.24 10.98
10/23/2021 2:15:00 PM 11.15 52.07 0.078 7.17 3.23 10.97
10/23/2021 2:30:00 PM 11.18 52.124 0.078 7.18 3.31 10.94
10/23/2021 2:45:00 PM 11.22 52.196 0.078 7.17 3.27 10.94
10/23/2021 3:00:00 PM 11.23 52.214 0.078 7.16 3.27 10.91
10/23/2021 3:15:00 PM 11.24 52.232 0.078 7.17 3.26 10.9
10/23/2021 3:30:00 PM 11.25 52.25 0.078 7.15 3.3 10.87
10/23/2021 3:45:00 PM 11.27 52.286 0.078 7.14 3.31 10.86
10/23/2021 4:00:00 PM 11.28 52.304 0.078 7.14 3.33 10.86
10/23/2021 4:15:00 PM 11.29 52.322 0.078 7.15 3.3 10.83
10/23/2021 4:30:00 PM 11.28 52.304 0.078 7.12 3.25 10.76
10/23/2021 4:45:00 PM 11.29 52.322 0.078 7.1 3.23 10.75
10/23/2021 5:00:00 PM 11.28 52.304 0.078 7.07 3.26 10.72
10/23/2021 5:15:00 PM 11.25 52.25 0.078 7.08 3.23 10.7
10/23/2021 5:30:00 PM 11.22 52.196 0.078 7.03 3.28 10.65
10/23/2021 5:45:00 PM 11.19 52.142 0.078 7.02 3.31 10.6
10/23/2021 6:00:00 PM 11.16 52.088 0.078 6.99 3.27 10.55
10/23/2021 6:15:00 PM 11.12 52.016 0.078 6.96 3.23 10.48
10/23/2021 6:30:00 PM 11.09 51.962 0.078 6.94 3.29 10.43
10/23/2021 6:45:00 PM 11.05 51.89 0.078 6.93 3.29 10.4
10/23/2021 7:00:00 PM 11.03 51.854 0.078 6.91 3.41 10.38
10/23/2021 7:15:00 PM 11 51.8 0.078 6.9 3.36 10.38
10/23/2021 7:30:00 PM 10.98 51.764 0.078 6.91 3.37 10.38
10/23/2021 7:45:00 PM 10.95 51.71 0.078 6.89 3.34 10.38
10/23/2021 8:00:00 PM 10.93 51.674 0.079 6.89 3.37 10.38
10/23/2021 8:15:00 PM 10.9 51.62 0.079 6.89 3.34 10.39
10/23/2021 8:30:00 PM 10.88 51.584 0.079 6.89 3.39 10.39
10/23/2021 8:45:00 PM 10.85 51.53 0.079 6.9 3.4 10.4
10/23/2021 9:00:00 PM 10.83 51.494 0.079 6.87 3.43 10.4
10/23/2021 9:15:00 PM 10.81 51.458 0.079 6.88 3.32 10.4
10/23/2021 9:30:00 PM 10.79 51.422 0.079 6.79 3.43 10.41
10/23/2021 9:45:00 PM 10.78 51.404 0.079 6.89 3.38 10.42
10/23/2021 10:00:00 PM 10.76 51.368 0.079 6.88 3.38 10.42
10/23/2021 10:15:00 PM 10.73 51.314 0.079 6.88 3.29 10.42
10/23/2021 10:30:00 PM 10.71 51.278 0.079 6.88 3.36 10.43
10/23/2021 10:45:00 PM 10.69 51.242 0.079 6.87 3.45 10.43
10/23/2021 11:00:00 PM 10.67 51.206 0.079 6.88 3.39 10.44
10/23/2021 11:15:00 PM 10.65 51.17 0.079 6.87 3.35 10.45
10/23/2021 11:30:00 PM 10.64 51.152 0.079 6.86 3.32 10.45
10/23/2021 11:45:00 PM 10.62 51.116 0.078 6.88 3.32 10.45
10/24/2021 12:00:00 AM 10.61 51.098 0.078 6.88 3.32 10.46
10/24/2021 12:15:00 AM 10.59 51.062 0.078 6.87 3.39 10.46
10/24/2021 12:30:00 AM 10.56 51.008 0.078 6.88 3.35 10.47
10/24/2021 12:45:00 AM 10.52 50.936 0.078 6.86 3.32 10.48
10/24/2021 1:00:00 AM 10.48 50.864 0.078 6.86 3.36 10.48
10/24/2021 1:15:00 AM 10.44 50.792 0.078 6.8 3.3 10.5
10/24/2021 1:30:00 AM 10.39 50.702 0.078 6.84 3.34 10.51
10/24/2021 1:45:00 AM 10.37 50.666 0.078 6.85 3.43 10.52
10/24/2021 2:00:00 AM 10.34 50.612 0.078 6.85 3.42 10.52
10/24/2021 2:15:00 AM 10.32 50.576 0.078 6.86 3.35 10.53
10/24/2021 2:30:00 AM 10.31 50.558 0.078 6.84 3.38 10.54
10/24/2021 2:45:00 AM 10.29 50.522 0.078 6.86 3.34 10.55
10/24/2021 3:00:00 AM 10.28 50.504 0.078 6.85 3.3 10.55
10/24/2021 3:15:00 AM 10.27 50.486 0.078 6.81 3.41 10.55
10/24/2021 3:30:00 AM 10.26 50.468 0.078 6.87 3.32 10.55
10/24/2021 3:45:00 AM 10.24 50.432 0.078 6.82 3.39 10.56
10/24/2021 4:00:00 AM 10.23 50.414 0.078 6.86 3.34 10.56
10/24/2021 4:15:00 AM 10.22 50.396 0.078 6.87 3.29 10.57
10/24/2021 4:30:00 AM 10.21 50.378 0.078 6.87 3.34 10.57
10/24/2021 4:45:00 AM 10.2 50.36 0.078 6.87 3.3 10.57
10/24/2021 5:00:00 AM 10.19 50.342 0.078 6.87 3.4 10.58
10/24/2021 5:15:00 AM 10.18 50.324 0.078 6.85 3.31 10.58
10/24/2021 5:30:00 AM 10.17 50.306 0.078 6.87 3.48 10.58
10/24/2021 5:45:00 AM 10.17 50.306 0.078 6.86 3.35 10.59
10/24/2021 6:00:00 AM 10.16 50.288 0.078 6.87 3.3 10.59
10/24/2021 6:15:00 AM 10.14 50.252 0.078 6.84 3.34 10.6
10/24/2021 6:30:00 AM 10.13 50.234 0.078 6.86 3.36 10.6
10/24/2021 6:45:00 AM 10.12 50.216 0.078 6.86 3.26 10.6
10/24/2021 7:00:00 AM 10.11 50.198 0.078 6.85 3.43 10.6
10/24/2021 7:15:00 AM 10.1 50.18 0.078 6.86 3.35 10.6
10/24/2021 7:30:00 AM 10.09 50.162 0.078 6.86 3.36 10.61
10/24/2021 7:45:00 AM 10.08 50.144 0.078 6.86 3.33 10.62
10/24/2021 8:00:00 AM 10.07 50.126 0.078 6.85 3.3 10.65
10/24/2021 8:15:00 AM 10.05 50.09 0.078 6.88 3.24 10.7
10/24/2021 8:30:00 AM 10.04 50.072 0.078 6.88 3.2 10.75
10/24/2021 8:45:00 AM 10.04 50.072 0.078 6.9 3.19 10.83
10/24/2021 9:00:00 AM 10.03 50.054 0.078 6.92 3.3 10.89
10/24/2021 9:15:00 AM 10.05 50.09 0.077 6.89 3.15 10.99
10/24/2021 9:30:00 AM 10.08 50.144 0.077 6.99 3.09 11.08
10/24/2021 9:45:00 AM 10.12 50.216 0.077 7.02 3.15 11.13
10/24/2021 10:00:00 AM 10.18 50.324 0.077 7.04 3.13 11.17
10/24/2021 10:15:00 AM 10.23 50.414 0.077 7.07 3.08 11.19
10/24/2021 10:30:00 AM 10.29 50.522 0.077 7.11 3.06 11.2
10/24/2021 10:45:00 AM 10.33 50.594 0.077 7.08 3.03 11.16
10/24/2021 11:00:00 AM 10.38 50.684 0.077 7.1 3.13 11.19
10/24/2021 11:15:00 AM 10.45 50.81 0.077 7.15 3.04 11.22
10/24/2021 11:30:00 AM 10.51 50.918 0.077 7.14 3.08 11.21
10/24/2021 11:45:00 AM 10.58 51.044 0.076 7.17 3.06 11.22
10/24/2021 12:00:00 PM 10.63 51.134 0.076 7.17 3.05 11.2
10/24/2021 12:15:00 PM 10.68 51.224 0.076 7.15 3.05 11.14
10/24/2021 12:30:00 PM 10.7 51.26 0.076 7.13 3.11 11.08
10/24/2021 12:45:00 PM 10.72 51.296 0.076 7.13 3.01 11.05
10/24/2021 1:00:00 PM 10.74 51.332 0.077 7.11 3.05 11.01
10/24/2021 1:15:00 PM 10.76 51.368 0.077 7.1 2.99 10.99
10/24/2021 1:30:00 PM 10.79 51.422 0.076 7.09 2.97 11.03
10/24/2021 1:45:00 PM 10.84 51.512 0.076 7.14 3 11.03
10/24/2021 2:00:00 PM 10.89 51.602 0.076 7.12 3.14 11.06
10/24/2021 2:15:00 PM 10.93 51.674 0.076 7.15 2.96 11.04
10/24/2021 2:30:00 PM 10.96 51.728 0.076 7.14 3.05 10.97
10/24/2021 2:45:00 PM 10.97 51.746 0.076 7.13 3.01 10.94
10/24/2021 3:00:00 PM 10.99 51.782 0.076 7.12 3.08 10.91
10/24/2021 3:15:00 PM 11 51.8 0.076 7.1 3.02 10.89
10/24/2021 3:30:00 PM 11.01 51.818 0.076 7.06 3.03 10.83
10/24/2021 3:45:00 PM 11.02 51.836 0.076 7.06 3.05 10.76
10/24/2021 4:00:00 PM 11.02 51.836 0.077 7.03 3.04 10.7
10/24/2021 4:15:00 PM 11.02 51.836 0.077 7.02 3.02 10.66
10/24/2021 4:30:00 PM 11.02 51.836 0.077 6.99 3.03 10.62
10/24/2021 4:45:00 PM 11.01 51.818 0.077 6.96 3.06 10.59
10/24/2021 5:00:00 PM 11.01 51.818 0.077 6.96 3.01 10.56
10/24/2021 5:15:00 PM 11 51.8 0.077 6.96 3.02 10.54
10/24/2021 5:30:00 PM 11 51.8 0.077 6.94 3.03 10.51
10/24/2021 5:45:00 PM 10.99 51.782 0.077 6.94 3.05 10.49
10/24/2021 6:00:00 PM 10.98 51.764 0.077 6.92 3.06 10.46
10/24/2021 6:15:00 PM 10.97 51.746 0.077 6.91 3.09 10.43
10/24/2021 6:30:00 PM 10.95 51.71 0.077 6.91 3.14 10.42
10/24/2021 6:45:00 PM 10.94 51.692 0.077 6.89 3.21 10.4
10/24/2021 7:00:00 PM 10.93 51.674 0.077 6.89 3.2 10.4
10/24/2021 7:15:00 PM 10.92 51.656 0.077 6.89 3.12 10.39
10/24/2021 7:30:00 PM 10.91 51.638 0.077 6.87 3.17 10.4
10/24/2021 7:45:00 PM 10.9 51.62 0.077 6.87 3.12 10.4
10/24/2021 8:00:00 PM 10.9 51.62 0.077 6.88 3.22 10.4
10/24/2021 8:15:00 PM 10.89 51.602 0.077 6.87 3.15 10.4
10/24/2021 8:30:00 PM 10.88 51.584 0.077 6.87 3.15 10.39
10/24/2021 8:45:00 PM 10.87 51.566 0.077 6.86 3.15 10.4
10/24/2021 9:00:00 PM 10.86 51.548 0.077 6.87 3.21 10.4
10/24/2021 9:15:00 PM 10.85 51.53 0.077 6.87 3.18 10.4
10/24/2021 9:30:00 PM 10.84 51.512 0.077 6.86 3.27 10.4
10/24/2021 9:45:00 PM 10.84 51.512 0.077 6.86 3.18 10.4
10/24/2021 10:00:00 PM 10.83 51.494 0.077 6.85 3.24 10.4
10/24/2021 10:15:00 PM 10.82 51.476 0.076 6.84 3.24 10.4
10/24/2021 10:30:00 PM 10.81 51.458 0.076 6.85 3.28 10.4
10/24/2021 10:45:00 PM 10.81 51.458 0.076 6.84 3.32 10.4
10/24/2021 11:00:00 PM 10.8 51.44 0.076 6.85 3.47 10.4
10/24/2021 11:15:00 PM 10.8 51.44 0.076 6.83 3.47 10.4
10/24/2021 11:30:00 PM 10.79 51.422 0.076 6.85 3.46 10.4
10/24/2021 11:45:00 PM 10.79 51.422 0.076 6.85 3.56 10.4
10/25/2021 12:00:00 AM 10.79 51.422 0.076 6.83 3.67 10.4
10/25/2021 12:15:00 AM 10.78 51.404 0.076 6.84 3.8 10.4
10/25/2021 12:30:00 AM 10.78 51.404 0.076 6.85 3.77 10.4
10/25/2021 12:45:00 AM 10.78 51.404 0.076 6.84 3.77 10.4
10/25/2021 1:00:00 AM 10.78 51.404 0.077 6.85 3.81 10.4
10/25/2021 1:15:00 AM 10.78 51.404 0.077 6.84 4.12 10.4
10/25/2021 1:30:00 AM 10.78 51.404 0.077 6.84 4.36 10.4
10/25/2021 1:45:00 AM 10.78 51.404 0.077 6.84 4.58 10.4
10/25/2021 2:00:00 AM 10.78 51.404 0.077 6.85 4.78 10.4
10/25/2021 2:15:00 AM 10.78 51.404 0.077 6.83 4.82 10.4
10/25/2021 2:30:00 AM 10.78 51.404 0.077 6.82 5.21 10.4
10/25/2021 2:45:00 AM 10.79 51.422 0.078 6.82 5.5 10.4
10/25/2021 3:00:00 AM 10.79 51.422 0.078 6.76 5.73 10.39
10/25/2021 3:15:00 AM 10.8 51.44 0.079 6.84 5.95 10.39
10/25/2021 3:30:00 AM 10.81 51.458 0.08 6.84 8.06 10.39
10/25/2021 3:45:00 AM 10.82 51.476 0.081 6.87 6.83 10.39
10/25/2021 4:00:00 AM 10.82 51.476 0.082 6.88 7.33 10.39
10/25/2021 4:15:00 AM 10.83 51.494 0.083 6.89 7.37 10.39
10/25/2021 4:30:00 AM 10.83 51.494 0.083 6.88 7.49 10.39
10/25/2021 4:45:00 AM 10.83 51.494 0.084 6.89 7.51 10.39
10/25/2021 5:00:00 AM 10.83 51.494 0.084 6.89 8.11 10.39
10/25/2021 5:15:00 AM 10.83 51.494 0.085 6.89 8.2 10.39
10/25/2021 5:30:00 AM 10.83 51.494 0.085 6.9 8.83 10.39
10/25/2021 5:45:00 AM 10.83 51.494 0.086 6.9 9.24 10.39
10/25/2021 6:00:00 AM 10.83 51.494 0.087 6.82 9.24 10.39
10/25/2021 6:15:00 AM 10.81 51.458 0.088 6.9 9.4 10.39
10/25/2021 6:30:00 AM 10.8 51.44 0.089 6.9 9.44 10.39
10/25/2021 6:45:00 AM 10.79 51.422 0.089 6.84 9.04 10.39
10/25/2021 7:00:00 AM 10.77 51.386 0.09 6.91 9.08 10.4
10/25/2021 7:15:00 AM 10.75 51.35 0.09 6.91 8.8 10.4
10/25/2021 7:30:00 AM 10.74 51.332 0.09 6.89 8.57 10.4
10/25/2021 7:45:00 AM 10.73 51.314 0.09 6.91 8.41 10.41
10/25/2021 8:00:00 AM 10.74 51.332 0.089 6.92 8.07 10.43
10/25/2021 8:15:00 AM 10.75 51.35 0.089 6.9 8.03 10.45
10/25/2021 8:30:00 AM 10.76 51.368 0.089 6.92 7.8 10.47
10/25/2021 8:45:00 AM 10.77 51.386 0.088 6.93 7.34 10.51
10/25/2021 9:00:00 AM 10.78 51.404 0.088 6.95 7.26 10.53
10/25/2021 9:15:00 AM 10.79 51.422 0.088 6.96 7.28 10.57
10/25/2021 9:30:00 AM 10.81 51.458 0.087 6.96 7.11 10.62
10/25/2021 9:45:00 AM 10.84 51.512 0.087 6.98 6.79 10.64
10/25/2021 10:00:00 AM 10.88 51.584 0.086 6.99 6.45 10.66
10/25/2021 10:15:00 AM 10.95 51.71 0.086 7.01 6.18 10.7
10/25/2021 10:30:00 AM 11.04 51.872 0.086 7.04 6.03 10.73
10/25/2021 10:45:00 AM 11.14 52.052 0.085 7.05 5.98 10.75
10/25/2021 11:00:00 AM 11.27 52.286 0.085 7.08 5.86 10.76
10/25/2021 11:15:00 AM 11.41 52.538 0.085 7.1 5.57 10.76
10/25/2021 11:30:00 AM 11.56 52.808 0.084 7.11 5.35 10.75
10/25/2021 11:45:00 AM 11.72 53.096 0.084 7.14 5.11 10.75
10/25/2021 12:00:00 PM 11.84 53.312 0.084 7.14 5.26 10.73
10/25/2021 12:15:00 PM 11.98 53.564 0.084 7.18 5.2 10.74
10/25/2021 12:30:00 PM 12.12 53.816 0.084 7.2 5.15 10.72
10/25/2021 12:45:00 PM 12.29 54.122 0.083 7.21 4.95 10.68
10/25/2021 1:00:00 PM 12.42 54.356 0.083 7.21 5.03 10.66
10/25/2021 1:15:00 PM 12.55 54.59 0.083 7.23 4.76 10.62
10/25/2021 1:30:00 PM 12.66 54.788 0.083 7.23 4.63 10.59
10/25/2021 1:45:00 PM 12.72 54.896 0.083 7.23 4.64 10.56
10/25/2021 2:00:00 PM 12.73 54.914 0.083 7.22 4.41 10.57
10/25/2021 2:15:00 PM 12.74 54.932 0.083 7.22 4.43 10.55
10/25/2021 2:30:00 PM 12.75 54.95 0.083 7.2 4.33 10.52
10/25/2021 2:45:00 PM 12.76 54.968 0.082 7.22 4.48 10.52
10/25/2021 3:00:00 PM 12.81 55.058 0.082 7.22 4.37 10.53
10/25/2021 3:15:00 PM 12.86 55.148 0.082 7.21 4.27 10.52
10/25/2021 3:30:00 PM 12.88 55.184 0.082 7.17 4.21 10.5
10/25/2021 3:45:00 PM 12.89 55.202 0.082 7.23 4.3 10.48
10/25/2021 4:00:00 PM 12.9 55.22 0.082 7.2 4.19 10.42
10/25/2021 4:15:00 PM 12.89 55.202 0.082 7.16 4.04 10.36
10/25/2021 4:30:00 PM 12.87 55.166 0.082 7.12 4.15 10.3
10/25/2021 4:45:00 PM 12.85 55.13 0.082 7.08 4.05 10.23
10/25/2021 5:00:00 PM 12.82 55.076 0.082 7.05 4.03 10.16
10/25/2021 5:15:00 PM 12.8 55.04 0.082 7.02 3.99 10.14
10/25/2021 5:30:00 PM 12.78 55.004 0.082 7.02 4.01 10.15
10/25/2021 5:45:00 PM 12.74 54.932 0.082 7 3.91 10.08
10/25/2021 6:00:00 PM 12.7 54.86 0.082 6.99 4.03 10.03
10/25/2021 6:15:00 PM 12.67 54.806 0.082 6.94 3.96 9.98
10/25/2021 6:30:00 PM 12.63 54.734 0.082 6.91 3.96 9.94
10/25/2021 6:45:00 PM 12.59 54.662 0.082 6.91 3.89 9.93
10/25/2021 7:00:00 PM 12.56 54.608 0.082 6.84 3.96 9.92
10/25/2021 7:15:00 PM 12.53 54.554 0.082 6.89 4 9.92
10/25/2021 7:30:00 PM 12.5 54.5 0.082 6.85 3.94 9.92
10/25/2021 7:45:00 PM 12.48 54.464 0.082 6.88 4 9.92
10/25/2021 8:00:00 PM 12.45 54.41 0.082 6.88 3.98 9.93
10/25/2021 8:15:00 PM 12.42 54.356 0.082 6.88 3.96 9.93
10/25/2021 8:30:00 PM 12.4 54.32 0.082 6.87 3.95 9.93
10/25/2021 8:45:00 PM 12.37 54.266 0.082 6.86 3.84 9.94
10/25/2021 9:00:00 PM 12.35 54.23 0.082 6.87 3.83 9.94
10/25/2021 9:15:00 PM 12.32 54.176 0.082 6.86 4.97 9.95
10/25/2021 9:30:00 PM 12.3 54.14 0.082 6.86 3.8 9.95
10/25/2021 9:45:00 PM 12.28 54.104 0.082 6.85 3.83 9.95
10/25/2021 10:00:00 PM 12.25 54.05 0.082 6.85 3.82 9.96
10/25/2021 10:15:00 PM 12.23 54.014 0.082 6.76 3.87 9.96
10/25/2021 10:30:00 PM 12.21 53.978 0.082 6.84 3.75 9.96
10/25/2021 10:45:00 PM 12.19 53.942 0.082 6.83 3.73 9.97
10/25/2021 11:00:00 PM 12.17 53.906 0.082 6.85 3.7 9.97
10/25/2021 11:15:00 PM 12.15 53.87 0.082 6.85 3.74 9.97
10/25/2021 11:30:00 PM 12.14 53.852 0.082 6.85 3.75 9.97
10/25/2021 11:45:00 PM 12.13 53.834 0.082 6.85 3.7 9.98
10/26/2021 12:00:00 AM 12.12 53.816 0.082 6.86 3.72 9.97
10/26/2021 12:15:00 AM 12.11 53.798 0.082 6.85 3.7 9.98
10/26/2021 12:30:00 AM 12.1 53.78 0.082 6.84 3.73 9.98
10/26/2021 12:45:00 AM 12.1 53.78 0.081 6.87 3.88 9.99
10/26/2021 1:00:00 AM 12.1 53.78 0.08 6.86 3.99 9.98
10/26/2021 1:15:00 AM 12.09 53.762 0.08 6.85 4.02 9.98
10/26/2021 1:30:00 AM 12.08 53.744 0.08 6.83 4.31 9.97
10/26/2021 1:45:00 AM 12.07 53.726 0.08 6.83 4.62 9.96
10/26/2021 2:00:00 AM 12.06 53.708 0.08 6.81 4.85 9.96
10/26/2021 2:15:00 AM 12.05 53.69 0.079 6.82 5.38 9.97
10/26/2021 2:30:00 AM 12.04 53.672 0.075 6.78 7.39 9.97
10/26/2021 2:45:00 AM 12.03 53.654 0.079 6.83 6.69 9.98
10/26/2021 3:00:00 AM 12.02 53.636 0.079 6.81 7.76 9.98
10/26/2021 3:15:00 AM 12.02 53.636 0.078 6.75 8.27 9.98
10/26/2021 3:30:00 AM 12 53.6 0.077 6.8 10.06 9.98
10/26/2021 3:45:00 AM 11.98 53.564 0.077 6.77 16.77 10.01
10/26/2021 4:00:00 AM 11.97 53.546 0.08 6.79 29.38 10.02
10/26/2021 4:15:00 AM 11.97 53.546 0.086 6.83 40.67 10.03
10/26/2021 4:30:00 AM 11.98 53.564 0.092 6.87 47 10.03
10/26/2021 4:45:00 AM 11.99 53.582 0.095 6.91 53.34 10.02
10/26/2021 5:00:00 AM 12.01 53.618 0.096 6.91 58.01 10.02
10/26/2021 5:15:00 AM 12.03 53.654 0.095 6.91 61.23 10.01
10/26/2021 5:30:00 AM 12.04 53.672 0.095 6.92 60.87 10
10/26/2021 5:45:00 AM 12.05 53.69 0.094 6.91 55.9 10
10/26/2021 6:00:00 AM 12.05 53.69 0.092 6.91 49.72 10
10/26/2021 6:15:00 AM 12.06 53.708 0.091 6.9 44.75 9.99
10/26/2021 6:30:00 AM 12.05 53.69 0.089 6.89 40.94 9.99
10/26/2021 6:45:00 AM 12.05 53.69 0.088 6.87 38.92 9.99
10/26/2021 7:00:00 AM 12.05 53.69 0.087 6.89 32.35 9.99
10/26/2021 7:15:00 AM 12.05 53.69 0.086 6.87 28.46 9.99
10/26/2021 7:30:00 AM 12.05 53.69 0.086 6.87 25.18 9.99
10/26/2021 7:45:00 AM 12.05 53.69 0.085 6.86 24.54 9.98
10/26/2021 8:00:00 AM 12.05 53.69 0.085 6.8 21.99 9.99
10/26/2021 8:15:00 AM 12.05 53.69 0.085 6.89 19.94 9.99
10/26/2021 8:30:00 AM 12.05 53.69 0.084 6.87 18.14 10.01
10/26/2021 8:45:00 AM 12.04 53.672 0.084 6.89 16.84 10.01
10/26/2021 9:00:00 AM 12.03 53.654 0.084 6.88 15.75 10.03
10/26/2021 9:15:00 AM 12.02 53.636 0.084 6.83 14.72 10.04
10/26/2021 9:30:00 AM 12.01 53.618 0.083 6.91 14.25 10.05
10/26/2021 9:45:00 AM 11.99 53.582 0.083 6.9 13.46 10.06
10/26/2021 10:00:00 AM 11.97 53.546 0.083 6.85 12.13 10.08
10/26/2021 10:15:00 AM 11.95 53.51 0.083 6.91 12 10.1
10/26/2021 10:30:00 AM 11.93 53.474 0.083 6.91 11.71 10.11
10/26/2021 10:45:00 AM 11.9 53.42 0.083 6.87 11.57 10.13
10/26/2021 11:00:00 AM 11.86 53.348 0.084 6.93 13.3 10.14
10/26/2021 11:15:00 AM 11.82 53.276 0.084 6.92 13.26 10.16
10/26/2021 11:30:00 AM 11.78 53.204 0.085 6.92 13.8 10.17
10/26/2021 11:45:00 AM 11.75 53.15 0.086 6.87 14.66 10.2
10/26/2021 12:00:00 PM 11.72 53.096 0.086 6.94 15.5 10.22
10/26/2021 12:15:00 PM 11.68 53.024 0.086 6.94 16.04 10.24
10/26/2021 12:30:00 PM 11.65 52.97 0.087 6.95 17.91 10.23
10/26/2021 12:45:00 PM 11.62 52.916 0.087 6.94 17.88 10.24
10/26/2021 1:00:00 PM 11.59 52.862 0.086 6.95 18.06 10.25
10/26/2021 1:15:00 PM 11.56 52.808 0.086 6.95 18.11 10.25
10/26/2021 1:30:00 PM 11.53 52.754 0.086 6.88 17.63 10.26
10/26/2021 1:45:00 PM 11.5 52.7 0.085 6.94 16.87 10.27
10/26/2021 2:00:00 PM 11.46 52.628 0.085 6.89 17.51 10.27
10/26/2021 2:15:00 PM 11.44 52.592 0.084 6.91 16.5 10.28
10/26/2021 2:30:00 PM 11.4 52.52 0.083 6.91 15.7 10.29
10/26/2021 2:45:00 PM 11.35 52.43 0.083 6.89 15.53 10.29
10/26/2021 3:00:00 PM 11.31 52.358 0.082 6.91 15.75 10.3
10/26/2021 3:15:00 PM 11.26 52.268 0.082 6.9 15.88 10.31
10/26/2021 3:30:00 PM 11.22 52.196 0.082 6.89 16.21 10.32
10/26/2021 3:45:00 PM 11.18 52.124 0.081 6.85 17.92 10.32
10/26/2021 4:00:00 PM 11.13 52.034 0.081 6.83 19.06 10.31
10/26/2021 4:15:00 PM 11.09 51.962 0.082 6.86 21.62 10.32
10/26/2021 4:30:00 PM 11.05 51.89 0.082 6.86 27.97 10.31
10/26/2021 4:45:00 PM 11 51.8 0.082 6.85 33.5 10.32
10/26/2021 5:00:00 PM 10.95 51.71 0.082 6.8 39.83 10.32
10/26/2021 5:15:00 PM 10.9 51.62 0.082 6.85 45.76 10.33
10/26/2021 5:30:00 PM 10.85 51.53 0.082 6.82 51.02 10.35
10/26/2021 5:45:00 PM 10.81 51.458 0.079 6.78 59 10.35
10/26/2021 6:00:00 PM 10.77 51.386 0.082 6.83 65.53 10.37
10/26/2021 6:15:00 PM 10.72 51.296 0.082 6.82 77.95 10.37
10/26/2021 6:30:00 PM 10.68 51.224 0.082 6.82 87.57 10.38
10/26/2021 6:45:00 PM 10.64 51.152 0.052 6.8 91.84 10.4
10/26/2021 7:00:00 PM 10.6 51.08 0.081 6.78 96.37 10.41
10/26/2021 7:15:00 PM 10.57 51.026 0.08 6.82 102.3 10.43
10/26/2021 7:30:00 PM 10.54 50.972 0.072 6.74 103.86 10.44
10/26/2021 7:45:00 PM 10.51 50.918 0.079 6.73 102.05 10.45
10/26/2021 8:00:00 PM 10.49 50.882 0.063 6.75 98.71 10.45
10/26/2021 8:15:00 PM 10.47 50.846 0.043 6.75 88.84 10.46
10/26/2021 8:30:00 PM 10.46 50.828 0.076 6.77 83.78 10.46
10/26/2021 8:45:00 PM 10.45 50.81 0.067 6.73 76.35 10.46
10/26/2021 9:00:00 PM 10.45 50.81 0.071 6.7 67.27 10.46
10/26/2021 9:15:00 PM 10.44 50.792 0.056 6.68 61.03 10.46
10/26/2021 9:30:00 PM 10.44 50.792 0.053 6.67 54.55 10.47
10/26/2021 9:45:00 PM 10.44 50.792 0.073 6.71 50.24 10.47
10/26/2021 10:00:00 PM 10.45 50.81 0.072 6.69 45.07 10.46
10/26/2021 10:15:00 PM 10.46 50.828 0.073 6.72 40.58 10.46
10/26/2021 10:30:00 PM 10.46 50.828 0.073 6.7 37.13 10.47
10/26/2021 10:45:00 PM 10.47 50.846 0.048 6.72 36.74 10.47
10/26/2021 11:00:00 PM 10.48 50.864 0.074 6.73 33.89 10.46
10/26/2021 11:15:00 PM 10.5 50.9 0.071 6.7 31.29 10.46
10/26/2021 11:30:00 PM 10.51 50.918 0.074 6.7 30.8 10.46
10/26/2021 11:45:00 PM 10.52 50.936 0.071 6.7 29.07 10.46
10/27/2021 12:00:00 AM 10.54 50.972 0.063 6.7 28.51 10.45
10/27/2021 12:15:00 AM 10.55 50.99 0.057 6.71 26.13 10.45
10/27/2021 12:30:00 AM 10.57 51.026 0.046 6.69 25.9 10.45
10/27/2021 12:45:00 AM 10.59 51.062 0.058 6.68 24.87 10.44
10/27/2021 1:00:00 AM 10.6 51.08 0.056 6.7 24.14 10.44
10/27/2021 1:15:00 AM 10.62 51.116 0.056 6.7 22.56 10.44
10/27/2021 1:30:00 AM 10.64 51.152 0.059 6.7 22.76 10.43
10/27/2021 1:45:00 AM 10.66 51.188 0.058 6.68 22.68 10.43
10/27/2021 2:00:00 AM 10.68 51.224 0.068 6.7 21.58 10.43
10/27/2021 2:15:00 AM 10.7 51.26 0.066 6.7 21.34 10.42
10/27/2021 2:30:00 AM 10.72 51.296 0.057 6.69 21.12 10.42
10/27/2021 2:45:00 AM 10.73 51.314 0.049 6.69 20.62 10.42
10/27/2021 3:00:00 AM 10.76 51.368 0.041 6.72 20.19 10.41
10/27/2021 3:15:00 AM 10.77 51.386 0.057 6.72 24.56 10.41
10/27/2021 3:30:00 AM 10.79 51.422 0.052 6.7 20.06 10.41
10/27/2021 3:45:00 AM 10.8 51.44 0.072 6.74 19.25 10.4
10/27/2021 4:00:00 AM 10.82 51.476 0.061 6.7 19.96 10.4
10/27/2021 4:15:00 AM 10.83 51.494 0.072 6.76 18.65 10.4
10/27/2021 4:30:00 AM 10.85 51.53 0.072 6.76 19.14 10.39
10/27/2021 4:45:00 AM 10.86 51.548 0.072 6.69 17.49 10.39
10/27/2021 5:00:00 AM 10.87 51.566 0.072 6.71 17.88 10.39
10/27/2021 5:15:00 AM 10.89 51.602 0.072 6.72 17.05 10.39
10/27/2021 5:30:00 AM 10.9 51.62 0.07 6.7 17.08 10.39
10/27/2021 5:45:00 AM 10.9 51.62 0.071 6.75 17.09 10.39
10/27/2021 6:00:00 AM 10.91 51.638 0.072 6.76 16.48 10.39
10/27/2021 6:15:00 AM 10.91 51.638 0.047 6.69 15.34 10.39
10/27/2021 6:30:00 AM 10.91 51.638 0.071 6.75 15.19 10.39
10/27/2021 6:45:00 AM 10.92 51.656 0.066 6.68 16.06 10.39
10/27/2021 7:00:00 AM 10.92 51.656 0.071 6.68 15.92 10.39
10/27/2021 7:15:00 AM 10.92 51.656 0.071 6.75 15.85 10.39
10/27/2021 7:30:00 AM 10.92 51.656 0.071 6.74 14.69 10.39
10/27/2021 7:45:00 AM 10.92 51.656 0.071 6.68 13.89 10.39
10/27/2021 8:00:00 AM 10.92 51.656 0.071 6.74 13.49 10.4
10/27/2021 8:15:00 AM 10.91 51.638 0.071 6.73 13.1 10.41
10/27/2021 8:30:00 AM 10.92 51.656 0.071 6.75 12.88 10.41
10/27/2021 8:45:00 AM 10.92 51.656 0.07 6.71 12.62 10.42
10/27/2021 9:00:00 AM 10.92 51.656 0.07 6.74 11.76 10.44
10/27/2021 9:15:00 AM 10.93 51.674 0.07 6.76 12.4 10.45
10/27/2021 9:30:00 AM 10.94 51.692 0.07 6.7 12.1 10.47
10/27/2021 9:45:00 AM 10.95 51.71 0.07 6.77 11.86 10.48
10/27/2021 10:00:00 AM 10.97 51.746 0.07 6.72 11.22 10.5
10/27/2021 10:15:00 AM 11.01 51.818 0.07 6.78 10.9 10.52
10/27/2021 10:30:00 AM 11.04 51.872 0.069 6.76 10.83 10.52
10/27/2021 10:45:00 AM 11.1 51.98 0.065 6.75 10.91 10.54
10/27/2021 11:00:00 AM 11.18 52.124 0.069 6.8 10.59 10.54
10/27/2021 11:15:00 AM 11.25 52.25 0.069 6.79 12.71 10.53
10/27/2021 11:30:00 AM 11.35 52.43 0.069 6.78 11.46 10.52
10/27/2021 11:45:00 AM 11.44 52.592 0.069 6.76 10.6 10.5
10/27/2021 12:00:00 PM 11.51 52.718 0.069 6.81 10.27 10.49
10/27/2021 12:15:00 PM 11.58 52.844 0.069 6.84 9.81 10.48
10/27/2021 12:30:00 PM 11.65 52.97 0.069 6.81 9.71 10.46
10/27/2021 12:45:00 PM 11.72 53.096 0.069 6.77 9.57 10.45
10/27/2021 1:00:00 PM 11.79 53.222 0.069 6.83 9.34 10.44
10/27/2021 1:15:00 PM 11.86 53.348 0.069 6.78 9.37 10.42
10/27/2021 1:30:00 PM 11.92 53.456 0.069 6.79 9.44 10.4
10/27/2021 1:45:00 PM 11.97 53.546 0.068 6.83 9.29 10.39
10/27/2021 2:00:00 PM 12 53.6 0.068 6.85 9.48 10.38
10/27/2021 2:15:00 PM 12.02 53.636 0.068 6.77 9.39 10.36
10/27/2021 2:30:00 PM 12.03 53.654 0.068 6.84 9.27 10.35
10/27/2021 2:45:00 PM 12.04 53.672 0.068 6.79 9.15 10.34
10/27/2021 3:00:00 PM 12.03 53.654 0.068 6.81 11.18 10.33
10/27/2021 3:15:00 PM 12.02 53.636 0.068 6.82 9.67 10.32
10/27/2021 3:30:00 PM 12 53.6 0.068 6.79 9.38 10.3
10/27/2021 3:45:00 PM 11.96 53.528 0.068 6.78 9.37 10.29
10/27/2021 4:00:00 PM 11.92 53.456 0.068 6.78 9.14 10.28
10/27/2021 4:15:00 PM 11.87 53.366 0.068 6.76 9.39 10.27
10/27/2021 4:30:00 PM 11.81 53.258 0.068 6.77 8.85 10.27
10/27/2021 4:45:00 PM 11.76 53.168 0.068 6.75 8.97 10.27
10/27/2021 5:00:00 PM 11.71 53.078 0.068 6.76 8.66 10.27
10/27/2021 5:15:00 PM 11.66 52.988 0.068 6.75 8.91 10.28
10/27/2021 5:30:00 PM 11.6 52.88 0.068 6.72 8.61 10.28
10/27/2021 5:45:00 PM 11.54 52.772 0.068 6.73 8.77 10.29
10/27/2021 6:00:00 PM 11.48 52.664 0.068 6.72 8.54 10.3
10/27/2021 6:15:00 PM 11.43 52.574 0.068 6.7 8.65 10.3
10/27/2021 6:30:00 PM 11.37 52.466 0.068 6.67 8.46 10.31
10/27/2021 6:45:00 PM 11.31 52.358 0.067 6.66 8.34 10.31
10/27/2021 7:00:00 PM 11.25 52.25 0.067 6.71 8.55 10.33
10/27/2021 7:15:00 PM 11.19 52.142 0.067 6.63 8.45 10.34
10/27/2021 7:30:00 PM 11.13 52.034 0.067 6.7 8.54 10.35
10/27/2021 7:45:00 PM 11.08 51.944 0.067 6.68 8.84 10.37
10/27/2021 8:00:00 PM 11.02 51.836 0.067 6.72 8.68 10.38
10/27/2021 8:15:00 PM 10.97 51.746 0.067 6.7 8.09 10.39
10/27/2021 8:30:00 PM 10.91 51.638 0.067 6.7 8.14 10.41
10/27/2021 8:45:00 PM 10.86 51.548 0.067 6.63 8.19 10.42
10/27/2021 9:00:00 PM 10.8 51.44 0.067 6.71 8.62 10.44
10/27/2021 9:15:00 PM 10.75 51.35 0.067 6.67 8.37 10.45
10/27/2021 9:30:00 PM 10.7 51.26 0.067 6.67 8.22 10.46
10/27/2021 9:45:00 PM 10.65 51.17 0.067 6.66 8.34 10.47
10/27/2021 10:00:00 PM 10.61 51.098 0.067 6.71 8.4 10.49
10/27/2021 10:15:00 PM 10.56 51.008 0.067 6.72 8.23 10.5
10/27/2021 10:30:00 PM 10.51 50.918 0.067 6.71 8.38 10.51
10/27/2021 10:45:00 PM 10.47 50.846 0.067 6.72 8.01 10.52
10/27/2021 11:00:00 PM 10.42 50.756 0.067 6.7 7.82 10.53
10/27/2021 11:15:00 PM 10.38 50.684 0.067 6.67 7.99 10.54
10/27/2021 11:30:00 PM 10.34 50.612 0.067 6.7 8.02 10.55
10/27/2021 11:45:00 PM 10.3 50.54 0.067 6.7 7.88 10.56
10/28/2021 12:00:00 AM 10.26 50.468 0.067 6.72 7.82 10.57
10/28/2021 12:15:00 AM 10.22 50.396 0.067 6.63 8.02 10.58
10/28/2021 12:30:00 AM 10.18 50.324 0.067 6.66 7.99 10.59
10/28/2021 12:45:00 AM 10.14 50.252 0.067 6.72 7.98 10.6
10/28/2021 1:00:00 AM 10.1 50.18 0.067 6.65 7.56 10.61
10/28/2021 1:15:00 AM 10.06 50.108 0.067 6.7 7.68 10.62
10/28/2021 1:30:00 AM 10.02 50.036 0.067 6.65 7.65 10.63
10/28/2021 1:45:00 AM 9.99 49.982 0.067 6.67 7.66 10.64
10/28/2021 2:00:00 AM 9.95 49.91 0.066 6.67 7.41 10.65
10/28/2021 2:15:00 AM 9.91 49.838 0.066 6.72 7.4 10.66
10/28/2021 2:30:00 AM 9.87 49.766 0.066 6.71 7.58 10.67
10/28/2021 2:45:00 AM 9.84 49.712 0.066 6.67 7.43 10.68
10/28/2021 3:00:00 AM 9.8 49.64 0.066 6.69 7.43 10.69
10/28/2021 3:15:00 AM 9.76 49.568 0.066 6.72 7.32 10.69
10/28/2021 3:30:00 AM 9.73 49.514 0.066 6.64 7.29 10.71
10/28/2021 3:45:00 AM 9.69 49.442 0.066 6.72 7.43 10.71
10/28/2021 4:00:00 AM 9.66 49.388 0.066 6.7 7.15 10.72
10/28/2021 4:15:00 AM 9.62 49.316 0.066 6.71 7.15 10.73
10/28/2021 4:30:00 AM 9.59 49.262 0.066 6.72 7.13 10.73
10/28/2021 4:45:00 AM 9.56 49.208 0.066 6.69 7.24 10.74
10/28/2021 5:00:00 AM 9.53 49.154 0.066 6.65 7.06 10.75
10/28/2021 5:15:00 AM 9.51 49.118 0.066 6.7 7.07 10.76
10/28/2021 5:30:00 AM 9.5 49.1 0.066 6.68 6.93 10.76
10/28/2021 5:45:00 AM 9.48 49.064 0.066 6.66 7 10.77
10/28/2021 6:00:00 AM 9.46 49.028 0.066 6.69 6.99 10.78
10/28/2021 6:15:00 AM 9.44 48.992 0.066 6.68 6.86 10.79
10/28/2021 6:30:00 AM 9.42 48.956 0.066 6.7 7.02 10.79
10/28/2021 6:45:00 AM 9.4 48.92 0.066 6.72 7.1 10.79
10/28/2021 7:00:00 AM 9.39 48.902 0.066 6.71 7.08 10.8
10/28/2021 7:15:00 AM 9.37 48.866 0.066 6.69 6.82 10.8
10/28/2021 7:30:00 AM 9.36 48.848 0.066 6.69 6.93 10.81
10/28/2021 7:45:00 AM 9.34 48.812 0.066 6.71 6.81 10.81
10/28/2021 8:00:00 AM 9.33 48.794 0.066 6.73 6.84 10.83
10/28/2021 8:15:00 AM 9.31 48.758 0.066 6.68 6.64 10.85
10/28/2021 8:30:00 AM 9.3 48.74 0.066 6.71 6.65 10.87
10/28/2021 8:45:00 AM 9.3 48.74 0.066 6.69 6.55 10.89
10/28/2021 9:00:00 AM 9.3 48.74 0.066 6.75 6.48 10.91
10/28/2021 9:15:00 AM 9.31 48.758 0.066 6.75 6.12 10.94
10/28/2021 9:30:00 AM 9.32 48.776 0.066 6.7 6.21 10.96
10/28/2021 9:45:00 AM 9.34 48.812 0.066 6.72 5.98 10.97
10/28/2021 10:00:00 AM 9.36 48.848 0.066 6.78 6 10.99
10/28/2021 10:15:00 AM 9.4 48.92 0.066 6.73 5.9 11.01
10/28/2021 10:30:00 AM 9.45 49.01 0.066 6.79 5.84 11.01
10/28/2021 10:45:00 AM 9.51 49.118 0.066 6.76 5.89 11.02
10/28/2021 11:00:00 AM 9.59 49.262 0.066 6.76 5.89 11
10/28/2021 11:15:00 AM 9.69 49.442 0.066 6.78 5.96 10.98
10/28/2021 11:30:00 AM 9.83 49.694 0.066 6.83 5.88 10.95
10/28/2021 11:45:00 AM 9.98 49.964 0.066 6.84 5.79 10.93
10/28/2021 12:00:00 PM 10.11 50.198 0.066 6.83 5.75 10.9
10/28/2021 12:15:00 PM 10.25 50.45 0.066 6.81 5.67 10.87
10/28/2021 12:30:00 PM 10.37 50.666 0.066 6.85 5.66 10.84
10/28/2021 12:45:00 PM 10.5 50.9 0.066 6.86 5.59 10.81
10/28/2021 1:00:00 PM 10.62 51.116 0.066 6.82 5.62 10.78
10/28/2021 1:15:00 PM 10.75 51.35 0.066 6.86 5.44 10.75
10/28/2021 1:30:00 PM 10.85 51.53 0.066 6.86 5.56 10.71
10/28/2021 1:45:00 PM 10.95 51.71 0.066 6.88 5.38 10.69
10/28/2021 2:00:00 PM 11.06 51.908 0.066 6.86 5.36 10.66
10/28/2021 2:15:00 PM 11.16 52.088 0.066 6.81 5.46 10.63
10/28/2021 2:30:00 PM 11.23 52.214 0.066 6.87 5.61 10.61
10/28/2021 2:45:00 PM 11.28 52.304 0.066 6.84 5.57 10.58
10/28/2021 3:00:00 PM 11.33 52.394 0.066 6.89 5.51 10.56
10/28/2021 3:15:00 PM 11.37 52.466 0.066 6.83 5.57 10.53
10/28/2021 3:30:00 PM 11.39 52.502 0.066 6.88 5.79 10.51
10/28/2021 3:45:00 PM 11.41 52.538 0.066 6.8 5.64 10.51
10/28/2021 4:00:00 PM 11.43 52.574 0.066 6.83 5.81 10.5
10/28/2021 4:15:00 PM 11.45 52.61 0.066 6.86 5.65 10.48
10/28/2021 4:30:00 PM 11.46 52.628 0.066 6.85 5.93 10.47
10/28/2021 4:45:00 PM 11.47 52.646 0.066 6.79 5.87 10.46
10/28/2021 5:00:00 PM 11.47 52.646 0.066 6.84 5.78 10.45
10/28/2021 5:15:00 PM 11.47 52.646 0.066 6.81 5.75 10.43
10/28/2021 5:30:00 PM 11.45 52.61 0.066 6.82 5.81 10.4
10/28/2021 5:45:00 PM 11.42 52.556 0.066 6.8 5.8 10.36
10/28/2021 6:00:00 PM 11.38 52.484 0.066 6.77 5.76 10.34
10/28/2021 6:15:00 PM 11.34 52.412 0.066 6.79 5.8 10.31
10/28/2021 6:30:00 PM 11.3 52.34 0.066 6.69 5.79 10.3
10/28/2021 6:45:00 PM 11.25 52.25 0.066 6.74 5.79 10.3
10/28/2021 7:00:00 PM 11.2 52.16 0.066 6.74 5.86 10.31
10/28/2021 7:15:00 PM 11.15 52.07 0.066 6.72 5.82 10.32
10/28/2021 7:30:00 PM 11.11 51.998 0.066 6.72 5.91 10.32
10/28/2021 7:45:00 PM 11.06 51.908 0.066 6.72 5.93 10.33
10/28/2021 8:00:00 PM 11.01 51.818 0.066 6.7 6.18 10.34
10/28/2021 8:15:00 PM 10.96 51.728 0.066 6.69 5.89 10.35
10/28/2021 8:30:00 PM 10.92 51.656 0.066 6.73 6.1 10.37
10/28/2021 8:45:00 PM 10.88 51.584 0.066 6.69 5.89 10.37
10/28/2021 9:00:00 PM 10.85 51.53 0.066 6.69 5.86 10.39
10/28/2021 9:15:00 PM 10.83 51.494 0.067 6.74 6.09 10.39
10/28/2021 9:30:00 PM 10.81 51.458 0.067 6.69 5.9 10.4
10/28/2021 9:45:00 PM 10.8 51.44 0.067 6.72 6.1 10.4
10/28/2021 10:00:00 PM 10.78 51.404 0.067 6.73 6.13 10.4
10/28/2021 10:15:00 PM 10.77 51.386 0.067 6.74 6.11 10.4
10/28/2021 10:30:00 PM 10.76 51.368 0.067 6.75 5.93 10.41
10/28/2021 10:45:00 PM 10.76 51.368 0.067 6.69 5.72 10.41
10/28/2021 11:00:00 PM 10.75 51.35 0.067 6.72 5.93 10.41
10/28/2021 11:15:00 PM 10.75 51.35 0.067 6.74 5.77 10.41
10/28/2021 11:30:00 PM 10.75 51.35 0.067 6.72 5.78 10.41
10/28/2021 11:45:00 PM 10.76 51.368 0.067 6.75 5.86 10.41
10/29/2021 12:00:00 AM 10.76 51.368 0.067 6.75 5.68 10.41
10/29/2021 12:15:00 AM 10.77 51.386 0.067 6.73 5.7 10.4
10/29/2021 12:30:00 AM 10.77 51.386 0.067 6.76 6.03 10.4
10/29/2021 12:45:00 AM 10.78 51.404 0.067 6.77 5.66 10.4
10/29/2021 1:00:00 AM 10.79 51.422 0.067 6.69 5.7 10.39
10/29/2021 1:15:00 AM 10.79 51.422 0.067 6.75 5.69 10.39
10/29/2021 1:30:00 AM 10.8 51.44 0.067 6.75 5.71 10.39
10/29/2021 1:45:00 AM 10.8 51.44 0.067 6.71 5.8 10.39
10/29/2021 2:00:00 AM 10.8 51.44 0.067 6.75 5.73 10.39
10/29/2021 2:15:00 AM 10.8 51.44 0.067 6.75 5.95 10.39
10/29/2021 2:30:00 AM 10.8 51.44 0.067 6.77 5.74 10.39
10/29/2021 2:45:00 AM 10.8 51.44 0.067 6.76 5.59 10.39
10/29/2021 3:00:00 AM 10.8 51.44 0.067 6.77 5.93 10.38
10/29/2021 3:15:00 AM 10.8 51.44 0.067 6.69 5.64 10.38
10/29/2021 3:30:00 AM 10.8 51.44 0.067 6.76 5.67 10.39
10/29/2021 3:45:00 AM 10.79 51.422 0.067 6.77 5.63 10.38
10/29/2021 4:00:00 AM 10.79 51.422 0.067 6.7 5.51 10.38
10/29/2021 4:15:00 AM 10.79 51.422 0.067 6.77 5.61 10.38
10/29/2021 4:30:00 AM 10.79 51.422 0.067 6.71 5.68 10.38
10/29/2021 4:45:00 AM 10.79 51.422 0.067 6.78 5.64 10.38
10/29/2021 5:00:00 AM 10.79 51.422 0.067 6.76 5.61 10.38
10/29/2021 5:15:00 AM 10.78 51.404 0.067 6.79 5.82 10.38
10/29/2021 5:30:00 AM 10.78 51.404 0.067 6.77 5.5 10.38
10/29/2021 5:45:00 AM 10.78 51.404 0.067 6.79 5.76 10.38
10/29/2021 6:00:00 AM 10.77 51.386 0.067 6.74 5.62 10.38
10/29/2021 6:15:00 AM 10.76 51.368 0.067 6.78 5.67 10.38
10/29/2021 6:30:00 AM 10.75 51.35 0.067 6.74 5.7 10.38
10/29/2021 6:45:00 AM 10.74 51.332 0.067 6.77 5.61 10.39
10/29/2021 7:00:00 AM 10.73 51.314 0.067 6.75 5.56 10.39
10/29/2021 7:15:00 AM 10.72 51.296 0.067 6.76 5.69 10.39
10/29/2021 7:30:00 AM 10.7 51.26 0.057 6.72 5.58 10.39
10/29/2021 7:45:00 AM 10.68 51.224 0.067 6.72 5.34 10.4
10/29/2021 8:00:00 AM 10.67 51.206 0.067 6.73 5.59 10.41
10/29/2021 8:15:00 AM 10.66 51.188 0.067 6.78 5.38 10.42
10/29/2021 8:30:00 AM 10.65 51.17 0.067 6.71 5.52 10.42
10/29/2021 8:45:00 AM 10.64 51.152 0.067 6.78 5.21 10.44
10/29/2021 9:00:00 AM 10.64 51.152 0.067 6.78 5.18 10.46
10/29/2021 9:15:00 AM 10.64 51.152 0.067 6.78 5.25 10.48
10/29/2021 9:30:00 AM 10.64 51.152 0.067 6.81 5.17 10.49
10/29/2021 9:45:00 AM 10.65 51.17 0.067 6.75 4.93 10.52
10/29/2021 10:00:00 AM 10.67 51.206 0.067 6.81 5.05 10.57
10/29/2021 10:15:00 AM 10.69 51.242 0.067 6.78 4.99 10.61
10/29/2021 10:30:00 AM 10.73 51.314 0.067 6.81 4.97 10.64
10/29/2021 10:45:00 AM 10.75 51.35 0.067 6.86 5.03 10.63
10/29/2021 11:00:00 AM 10.78 51.404 0.067 6.86 5.11 10.64
10/29/2021 11:15:00 AM 10.8 51.44 0.067 6.89 4.89 10.63
10/29/2021 11:30:00 AM 10.81 51.458 0.067 6.89 4.9 10.63
10/29/2021 11:45:00 AM 10.83 51.494 0.067 6.88 4.84 10.63
10/29/2021 12:00:00 PM 10.86 51.548 0.067 6.89 4.66 10.65
10/29/2021 12:15:00 PM 10.87 51.566 0.067 6.84 4.77 10.61
10/29/2021 12:30:00 PM 10.87 51.566 0.067 6.89 4.85 10.59
10/29/2021 12:45:00 PM 10.87 51.566 0.067 6.87 4.76 10.57
10/29/2021 1:00:00 PM 10.87 51.566 0.067 6.87 4.71 10.55
10/29/2021 1:15:00 PM 10.87 51.566 0.067 6.87 4.64 10.53
10/29/2021 1:30:00 PM 10.87 51.566 0.067 6.89 4.87 10.52
10/29/2021 1:45:00 PM 10.91 51.638 0.067 6.85 4.78 10.58
10/29/2021 2:00:00 PM 10.93 51.674 0.067 6.89 4.74 10.57
10/29/2021 2:15:00 PM 10.92 51.656 0.067 6.87 4.59 10.52
10/29/2021 2:30:00 PM 10.9 51.62 0.067 6.87 4.67 10.48
10/29/2021 2:45:00 PM 10.87 51.566 0.067 6.85 4.73 10.48
10/29/2021 3:00:00 PM 10.89 51.602 0.067 6.87 4.74 10.55
10/29/2021 3:15:00 PM 10.87 51.566 0.067 6.8 4.82 10.5
10/29/2021 3:30:00 PM 10.85 51.53 0.067 6.85 4.79 10.5
10/29/2021 3:45:00 PM 10.84 51.512 0.067 6.85 4.74 10.5
10/29/2021 4:00:00 PM 10.82 51.476 0.067 6.79 4.88 10.47
10/29/2021 4:15:00 PM 10.78 51.404 0.067 6.83 4.92 10.45
10/29/2021 4:30:00 PM 10.74 51.332 0.066 6.81 5.07 10.45
10/29/2021 4:45:00 PM 10.69 51.242 0.066 6.79 5.18 10.43
10/29/2021 5:00:00 PM 10.65 51.17 0.066 6.76 5.59 10.43
10/29/2021 5:15:00 PM 10.62 51.116 0.066 6.73 6.15 10.42
10/29/2021 5:30:00 PM 10.58 51.044 0.065 6.75 7.34 10.43
10/29/2021 5:45:00 PM 10.55 50.99 0.065 6.75 9.01 10.43
10/29/2021 6:00:00 PM 10.52 50.936 0.065 6.66 10.5 10.44
10/29/2021 6:15:00 PM 10.49 50.882 0.065 6.7 11.48 10.44
10/29/2021 6:30:00 PM 10.46 50.828 0.065 6.66 13.41 10.44
10/29/2021 6:45:00 PM 10.43 50.774 0.064 6.69 16.32 10.45
10/29/2021 7:00:00 PM 10.4 50.72 0.064 6.59 22.47 10.46
10/29/2021 7:15:00 PM 10.37 50.666 0.065 6.6 35.54 10.47
10/29/2021 7:30:00 PM 10.35 50.63 0.066 6.65 51.68 10.49
10/29/2021 7:45:00 PM 10.32 50.576 0.07 6.66 61.36 10.51
10/29/2021 8:00:00 PM 10.28 50.504 0.072 6.69 69.38 10.52
10/29/2021 8:15:00 PM 10.24 50.432 0.054 6.72 78.73 10.53
10/29/2021 8:30:00 PM 10.2 50.36 0.055 6.72 88.32 10.54
10/29/2021 8:45:00 PM 10.18 50.324 0.073 6.72 95.06 10.54
10/29/2021 9:00:00 PM 10.16 50.288 0.071 6.71 82.49 10.55
10/29/2021 9:15:00 PM 10.15 50.27 0.042 6.72 75.37 10.55
10/29/2021 9:30:00 PM 10.14 50.252 0.069 6.68 65.01 10.55
10/29/2021 9:45:00 PM 10.13 50.234 0.052 6.69 59.81 10.55
10/29/2021 10:00:00 PM 10.12 50.216 0.069 6.67 53.35 10.55
10/29/2021 10:15:00 PM 10.11 50.198 0.064 6.67 48.07 10.55
10/29/2021 10:30:00 PM 10.11 50.198 0.066 6.68 45.02 10.55
10/29/2021 10:45:00 PM 10.11 50.198 0.064 6.66 39.72 10.55
10/29/2021 11:00:00 PM 10.1 50.18 0.069 6.68 36.62 10.55
10/29/2021 11:15:00 PM 10.1 50.18 0.043 6.66 33.61 10.55
10/29/2021 11:30:00 PM 10.09 50.162 0.058 6.69 31.19 10.55
10/29/2021 11:45:00 PM 10.09 50.162 0.066 6.69 28.39 10.54
10/30/2021 12:00:00 AM 10.09 50.162 0.049 6.68 26.55 10.54
10/30/2021 12:15:00 AM 10.09 50.162 0.06 6.69 24.96 10.54
10/30/2021 12:30:00 AM 10.08 50.144 0.067 6.68 37.13 10.54
10/30/2021 12:45:00 AM 10.08 50.144 0.05 6.67 26.47 10.53
10/30/2021 1:00:00 AM 10.08 50.144 0.06 6.69 22.86 10.53
10/30/2021 1:15:00 AM 10.08 50.144 0.064 6.69 23.23 10.53
10/30/2021 1:30:00 AM 10.07 50.126 0.068 6.69 633.31 10.53
10/30/2021 1:45:00 AM 10.07 50.126 0.068 6.69 23.95 10.53
10/30/2021 2:00:00 AM 10.06 50.108 0.067 6.68 515.2 10.53
10/30/2021 2:15:00 AM 10.06 50.108 0.049 6.68 40.97 10.53
10/30/2021 2:30:00 AM 10.06 50.108 0.069 6.68 301.96 10.52
10/30/2021 2:45:00 AM 10.05 50.09 0.069 6.69 210.74 10.52
10/30/2021 3:00:00 AM 10.05 50.09 0.054 6.7 581.73 10.53
10/30/2021 3:15:00 AM 10.04 50.072 0.07 6.69 399.93 10.52
10/30/2021 3:30:00 AM 10.04 50.072 0.07 6.69 20.85 10.52
10/30/2021 3:45:00 AM 10.03 50.054 0.078 6.69 17.24 10.52
10/30/2021 4:00:00 AM 10.03 50.054 0.069 6.69 25.51 10.52
10/30/2021 4:15:00 AM 10.03 50.054 0.069 6.69 223.62 10.52
10/30/2021 4:30:00 AM 10.02 50.036 0.069 6.69 649.85 10.52
10/30/2021 4:45:00 AM 10.02 50.036 0.069 6.67 27.61 10.52
10/30/2021 5:00:00 AM 10.02 50.036 0.069 6.65 323.04 10.52
10/30/2021 5:15:00 AM 10.02 50.036 0.069 6.65 323.43 10.52
10/30/2021 5:30:00 AM 10.01 50.018 0.069 6.65 71.64 10.52
10/30/2021 5:45:00 AM 10.01 50.018 0.069 6.7 281.12 10.52
10/30/2021 6:00:00 AM 10.01 50.018 0.064 6.68 246.64 10.52
10/30/2021 6:15:00 AM 10.01 50.018 0.068 6.67 32.06 10.52
10/30/2021 6:30:00 AM 10.01 50.018 0.069 6.68 34.59 10.52
10/30/2021 6:45:00 AM 10.01 50.018 0.069 6.65 178.92 10.53
10/30/2021 7:00:00 AM 10.01 50.018 0.058 6.67 32.95 10.52
10/30/2021 7:15:00 AM 10.01 50.018 0.054 6.67 13.68 10.52
10/30/2021 7:30:00 AM 10.01 50.018 0.048 6.65 23.24 10.52
10/30/2021 7:45:00 AM 10.01 50.018 0.048 6.67 103.24 10.52
10/30/2021 8:00:00 AM 10.02 50.036 0.07 6.7 10.85 10.53
10/30/2021 8:15:00 AM 10.03 50.054 0.07 6.71 11.14 10.53
10/30/2021 8:30:00 AM 10.04 50.072 0.036 6.7 15.6 10.55
10/30/2021 8:45:00 AM 10.05 50.09 0.07 6.74 11.36 10.55
10/30/2021 9:00:00 AM 10.07 50.126 0.053 6.7 11.91 10.56
10/30/2021 9:15:00 AM 10.08 50.144 0.068 6.73 44.05 10.56
10/30/2021 9:30:00 AM 10.11 50.198 0.069 6.73 427.37 10.58
10/30/2021 9:45:00 AM 10.14 50.252 0.068 6.72 96.81 10.6
10/30/2021 10:00:00 AM 10.17 50.306 0.069 6.73 43.64 10.6
10/30/2021 10:15:00 AM 10.19 50.342 0.065 6.74 191.01 10.6
10/30/2021 10:30:00 AM 10.22 50.396 0.069 6.77 12.27 10.59
10/30/2021 10:45:00 AM 10.25 50.45 0.068 6.75 16.23 10.6
10/30/2021 11:00:00 AM 10.29 50.522 0.069 6.75 14.64 10.61
10/30/2021 11:15:00 AM 10.32 50.576 0.069 6.79 12.11 10.61
10/30/2021 11:30:00 AM 10.35 50.63 0.069 6.75 16.52 10.6
10/30/2021 11:45:00 AM 10.38 50.684 0.064 6.76 9.31 10.6
10/30/2021 12:00:00 PM 10.4 50.72 0.066 6.76 13.07 10.58
10/30/2021 12:15:00 PM 10.43 50.774 0.066 6.74 9.82 10.57
10/30/2021 12:30:00 PM 10.45 50.81 0.066 6.74 12.37 10.56
10/30/2021 12:45:00 PM 10.49 50.882 0.068 6.8 14.78 10.58
10/30/2021 1:00:00 PM 10.52 50.936 0.069 6.79 14.51 10.57
10/30/2021 1:15:00 PM 10.54 50.972 0.068 6.79 323.82 10.54
10/30/2021 1:30:00 PM 10.57 51.026 0.069 6.77 8.87 10.55
10/30/2021 1:45:00 PM 10.61 51.098 0.068 6.82 12.47 10.55
10/30/2021 2:00:00 PM 10.64 51.152 0.068 6.8 64.37 10.54
10/30/2021 2:15:00 PM 10.66 51.188 0.068 6.81 8.65 10.5
10/30/2021 2:30:00 PM 10.67 51.206 0.068 6.8 49.49 10.5
10/30/2021 2:45:00 PM 10.7 51.26 0.068 6.82 30.77 10.51
10/30/2021 3:00:00 PM 10.74 51.332 0.068 6.8 8.06 10.52
10/30/2021 3:15:00 PM 10.78 51.404 0.068 6.82 7.97 10.53
10/30/2021 3:30:00 PM 10.81 51.458 0.068 6.83 14.88 10.51
10/30/2021 3:45:00 PM 10.84 51.512 0.068 6.81 21.92 10.51
10/30/2021 4:00:00 PM 10.88 51.584 0.068 6.81 29.3 10.5
10/30/2021 4:15:00 PM 10.89 51.602 0.068 6.81 8.75 10.47
10/30/2021 4:30:00 PM 10.89 51.602 0.068 6.76 8.43 10.43
10/30/2021 4:45:00 PM 10.9 51.62 0.068 6.78 8.27 10.41
10/30/2021 5:00:00 PM 10.9 51.62 0.068 6.75 16.59 10.39
10/30/2021 5:15:00 PM 10.9 51.62 0.068 6.77 9.45 10.37
10/30/2021 5:30:00 PM 10.9 51.62 0.068 6.74 8.19 10.36
10/30/2021 5:45:00 PM 10.9 51.62 0.069 6.76 8.02 10.35
10/30/2021 6:00:00 PM 10.9 51.62 0.069 6.73 7.7 10.33
10/30/2021 6:15:00 PM 10.89 51.602 0.069 6.73 7.87 10.33
10/30/2021 6:30:00 PM 10.89 51.602 0.069 6.74 8.89 10.32
10/30/2021 6:45:00 PM 10.89 51.602 0.069 6.71 8.06 10.32
10/30/2021 7:00:00 PM 10.89 51.602 0.069 6.73 8.3 10.32
10/30/2021 7:15:00 PM 10.88 51.584 0.069 6.69 17.39 10.31
10/30/2021 7:30:00 PM 10.88 51.584 0.069 6.74 8.61 10.32
10/30/2021 7:45:00 PM 10.87 51.566 0.069 6.71 9.61 10.31
10/30/2021 8:00:00 PM 10.87 51.566 0.068 6.72 11.12 10.32
10/30/2021 8:15:00 PM 10.87 51.566 0.032 6.66 8.71 10.31
10/30/2021 8:30:00 PM 10.86 51.548 0.068 6.71 8.48 10.32
10/30/2021 8:45:00 PM 10.86 51.548 0.068 6.73 7.97 10.32
10/30/2021 9:00:00 PM 10.86 51.548 0.068 6.7 7.99 10.32
10/30/2021 9:15:00 PM 10.85 51.53 0.068 6.72 8.08 10.32
10/30/2021 9:30:00 PM 10.85 51.53 0.068 6.72 8.37 10.32
10/30/2021 9:45:00 PM 10.85 51.53 0.068 6.67 8.48 10.32
10/30/2021 10:00:00 PM 10.84 51.512 0.068 6.7 8.05 10.32
10/30/2021 10:15:00 PM 10.84 51.512 0.065 6.66 7.68 10.32
10/30/2021 10:30:00 PM 10.83 51.494 0.068 6.63 7.46 10.32
10/30/2021 10:45:00 PM 10.83 51.494 0.068 6.72 8.27 10.32
10/30/2021 11:00:00 PM 10.83 51.494 0.068 6.72 8.03 10.32
10/30/2021 11:15:00 PM 10.83 51.494 0.068 6.67 8.11 10.32
10/30/2021 11:30:00 PM 10.82 51.476 0.068 6.66 8.15 10.32
10/30/2021 11:45:00 PM 10.82 51.476 0.068 6.72 9.14 10.32
10/31/2021 12:00:00 AM 10.82 51.476 0.068 6.72 8.63 10.32
10/31/2021 12:15:00 AM 10.82 51.476 0.068 6.71 7.52 10.32
10/31/2021 12:30:00 AM 10.82 51.476 0.068 6.65 7.63 10.32
10/31/2021 12:45:00 AM 10.81 51.458 0.068 6.68 7.69 10.32
10/31/2021 1:00:00 AM 10.81 51.458 0.067 6.66 7.59 10.31
10/31/2021 1:15:00 AM 10.81 51.458 0.067 6.7 7.38 10.31
10/31/2021 1:30:00 AM 10.81 51.458 0.067 6.64 8.86 10.31
10/31/2021 1:45:00 AM 10.8 51.44 0.067 6.68 18.14 10.32
10/31/2021 2:00:00 AM 10.8 51.44 0.067 6.69 7.47 10.31
10/31/2021 2:15:00 AM 10.79 51.422 0.037 6.63 7.43 10.31
10/31/2021 2:30:00 AM 10.79 51.422 0.066 6.68 7.44 10.31
10/31/2021 2:45:00 AM 10.79 51.422 0.067 6.7 8.05 10.31
10/31/2021 3:00:00 AM 10.78 51.404 0.066 6.64 7.81 10.31
10/31/2021 3:15:00 AM 10.78 51.404 0.067 6.69 8.22 10.32
10/31/2021 3:30:00 AM 10.78 51.404 0.066 6.68 8.13 10.32
10/31/2021 3:45:00 AM 10.77 51.386 0.066 6.66 8.32 10.32
10/31/2021 4:00:00 AM 10.77 51.386 0.066 6.67 8.52 10.32
10/31/2021 4:15:00 AM 10.76 51.368 0.066 6.63 8.94 10.32
10/31/2021 4:30:00 AM 10.75 51.35 0.067 6.63 8.82 10.32
10/31/2021 4:45:00 AM 10.74 51.332 0.067 6.62 9.3 10.32
10/31/2021 5:00:00 AM 10.73 51.314 0.064 6.62 7.86 10.33
10/31/2021 5:15:00 AM 10.73 51.314 0.066 6.61 8.24 10.33
10/31/2021 5:30:00 AM 10.73 51.314 0.067 6.66 7.68 10.32
10/31/2021 5:45:00 AM 10.73 51.314 0.067 6.68 8.31 10.33
10/31/2021 6:00:00 AM 10.73 51.314 0.067 6.62 8.3 10.33
10/31/2021 6:15:00 AM 10.72 51.296 0.067 6.67 7.92 10.33
10/31/2021 6:30:00 AM 10.72 51.296 0.067 6.64 7.85 10.33
10/31/2021 6:45:00 AM 10.72 51.296 0.067 6.69 7.96 10.33
10/31/2021 7:00:00 AM 10.72 51.296 0.067 6.61 11.13 10.34
10/31/2021 7:15:00 AM 10.71 51.278 0.067 6.68 7.91 10.34
10/31/2021 7:30:00 AM 10.71 51.278 0.067 6.68 7.47 10.34
10/31/2021 7:45:00 AM 10.7 51.26 0.067 6.67 8.08 10.34
10/31/2021 8:00:00 AM 10.7 51.26 0.067 6.69 10.48 10.35
10/31/2021 8:15:00 AM 10.7 51.26 0.066 6.67 9.46 10.35
10/31/2021 8:30:00 AM 10.7 51.26 0.066 6.68 7.17 10.36
10/31/2021 8:45:00 AM 10.71 51.278 0.066 6.68 7.17 10.38
10/31/2021 9:00:00 AM 10.72 51.296 0.066 6.68 7.62 10.4
10/31/2021 9:15:00 AM 10.73 51.314 0.066 6.69 7.04 10.42
10/31/2021 9:30:00 AM 10.75 51.35 0.063 6.66 6.75 10.45
10/31/2021 9:45:00 AM 10.78 51.404 0.063 6.68 6.65 10.48
10/31/2021 10:00:00 AM 10.81 51.458 0.049 6.72 7.31 10.48
10/31/2021 10:15:00 AM 10.84 51.512 0.049 6.74 6.64 10.49
10/31/2021 10:30:00 AM 10.85 51.53 0.052 6.72 6.91 10.47
10/31/2021 10:45:00 AM 10.86 51.548 0.055 6.72 6.77 10.46
10/31/2021 11:00:00 AM 10.87 51.566 0.066 6.71 7.48 10.47
10/31/2021 11:15:00 AM 10.9 51.62 0.066 6.73 9.22 10.48
10/31/2021 11:30:00 AM 10.94 51.692 0.066 6.75 6.94 10.51
10/31/2021 11:45:00 AM 10.98 51.764 0.066 6.77 6.74 10.52
10/31/2021 12:00:00 PM 11 51.8 0.066 6.75 6.61 10.5
10/31/2021 12:15:00 PM 11.03 51.854 0.066 6.75 7.57 10.51
10/31/2021 12:30:00 PM 11.06 51.908 0.066 6.75 6.86 10.51
10/31/2021 12:45:00 PM 11.08 51.944 0.066 6.79 7.1 10.51
10/31/2021 1:00:00 PM 11.11 51.998 0.066 6.77 6.73 10.51
10/31/2021 1:15:00 PM 11.15 52.07 0.066 6.81 6.68 10.52
10/31/2021 1:30:00 PM 11.22 52.196 0.066 6.79 6.53 10.52
10/31/2021 1:45:00 PM 11.25 52.25 0.066 6.81 7.59 10.5
10/31/2021 2:00:00 PM 11.29 52.322 0.066 6.83 7.41 10.5
10/31/2021 2:15:00 PM 11.32 52.376 0.066 6.81 7.36 10.48
10/31/2021 2:30:00 PM 11.35 52.43 0.066 6.81 7.41 10.48
10/31/2021 2:45:00 PM 11.36 52.448 0.066 6.81 7.52 10.49
10/31/2021 3:00:00 PM 11.36 52.448 0.066 6.8 6.8 10.46
10/31/2021 3:15:00 PM 11.33 52.394 0.066 6.79 6.67 10.43
10/31/2021 3:30:00 PM 11.31 52.358 0.064 6.75 6.63 10.43
10/31/2021 3:45:00 PM 11.3 52.34 0.062 6.76 6.31 10.43
10/31/2021 4:00:00 PM 11.29 52.322 0.066 6.78 8.23 10.43
10/31/2021 4:15:00 PM 11.28 52.304 0.066 6.77 7.4 10.43
10/31/2021 4:30:00 PM 11.28 52.304 0.066 6.78 7.77 10.45
10/31/2021 4:45:00 PM 11.28 52.304 0.042 6.76 6.27 10.44
10/31/2021 5:00:00 PM 11.26 52.268 0.066 6.78 6.77 10.41
10/31/2021 5:15:00 PM 11.23 52.214 0.066 6.75 7.86 10.39
10/31/2021 5:30:00 PM 11.21 52.178 0.066 6.74 7.07 10.36
10/31/2021 5:45:00 PM 11.18 52.124 0.066 6.73 7.74 10.35
10/31/2021 6:00:00 PM 11.14 52.052 0.066 6.69 7.28 10.34
10/31/2021 6:15:00 PM 11.08 51.944 0.066 6.67 6.46 10.34
10/31/2021 6:30:00 PM 11.03 51.854 0.066 6.72 6.43 10.33
10/31/2021 6:45:00 PM 10.98 51.764 0.066 6.66 6.71 10.34
10/31/2021 7:00:00 PM 10.92 51.656 0.066 6.7 7.38 10.35
10/31/2021 7:15:00 PM 10.87 51.566 0.066 6.67 6.69 10.36
10/31/2021 7:30:00 PM 10.81 51.458 0.066 6.67 6.71 10.37
10/31/2021 7:45:00 PM 10.76 51.368 0.066 6.69 6.87 10.38
10/31/2021 8:00:00 PM 10.71 51.278 0.066 6.64 6.57 10.39
10/31/2021 8:15:00 PM 10.65 51.17 0.066 6.69 6.51 10.41
10/31/2021 8:30:00 PM 10.6 51.08 0.066 6.66 6.44 10.43
10/31/2021 8:45:00 PM 10.55 50.99 0.066 6.67 7.1 10.44
10/31/2021 9:00:00 PM 10.51 50.918 0.066 6.67 6.53 10.46
10/31/2021 9:15:00 PM 10.48 50.864 0.066 6.67 6.37 10.46
10/31/2021 9:30:00 PM 10.45 50.81 0.066 6.66 6.41 10.47
10/31/2021 9:45:00 PM 10.41 50.738 0.066 6.68 6.27 10.49
10/31/2021 10:00:00 PM 10.37 50.666 0.066 6.68 6.21 10.5
10/31/2021 10:15:00 PM 10.34 50.612 0.066 6.66 6.1 10.5
10/31/2021 10:30:00 PM 10.33 50.594 0.066 6.67 5.98 10.51
10/31/2021 10:45:00 PM 10.32 50.576 0.066 6.65 6.43 10.52
10/31/2021 11:00:00 PM 10.32 50.576 0.066 6.69 6.13 10.52
10/31/2021 11:15:00 PM 10.32 50.576 0.066 6.69 6 10.52
10/31/2021 11:30:00 PM 10.32 50.576 0.066 6.69 6.44 10.52
10/31/2021 11:45:00 PM 10.33 50.594 0.066 6.68 6.19 10.52
11/1/2021 12:00:00 AM 10.33 50.594 0.066 6.69 5.94 10.52
11/1/2021 12:15:00 AM 10.34 50.612 0.066 6.7 6.11 10.52
11/1/2021 12:30:00 AM 10.34 50.612 0.066 6.69 5.81 10.52
11/1/2021 12:45:00 AM 10.35 50.63 0.066 6.69 5.86 10.51
11/1/2021 1:00:00 AM 10.35 50.63 0.066 6.66 6.01 10.52
11/1/2021 1:15:00 AM 10.35 50.63 0.066 6.7 6.24 10.51
11/1/2021 1:30:00 AM 10.36 50.648 0.066 6.69 6.17 10.51
11/1/2021 1:45:00 AM 10.36 50.648 0.066 6.7 6.18 10.51
11/1/2021 2:00:00 AM 10.37 50.666 0.066 6.71 5.92 10.51
11/1/2021 2:15:00 AM 10.38 50.684 0.066 6.66 6.03 10.51
11/1/2021 2:30:00 AM 10.38 50.684 0.066 6.68 6.08 10.51
11/1/2021 2:45:00 AM 10.39 50.702 0.066 6.7 6.28 10.51
11/1/2021 3:00:00 AM 10.39 50.702 0.066 6.67 5.83 10.52
11/1/2021 3:15:00 AM 10.39 50.702 0.064 6.64 5.83 10.52
11/1/2021 3:30:00 AM 10.38 50.684 0.065 6.65 5.67 10.52
11/1/2021 3:45:00 AM 10.37 50.666 0.066 6.69 5.97 10.53
11/1/2021 4:00:00 AM 10.36 50.648 0.066 6.68 5.95 10.53
11/1/2021 4:15:00 AM 10.34 50.612 0.066 6.69 5.92 10.54
11/1/2021 4:30:00 AM 10.31 50.558 0.066 6.68 6.28 10.55
11/1/2021 4:45:00 AM 10.3 50.54 0.066 6.72 6.08 10.56
11/1/2021 5:00:00 AM 10.28 50.504 0.066 6.68 6.57 10.56
11/1/2021 5:15:00 AM 10.26 50.468 0.066 6.71 8.08 10.57
11/1/2021 5:30:00 AM 10.23 50.414 0.066 6.71 5.99 10.58
11/1/2021 5:45:00 AM 10.21 50.378 0.066 6.67 6.03 10.59
11/1/2021 6:00:00 AM 10.18 50.324 0.066 6.69 6.01 10.6
11/1/2021 6:15:00 AM 10.16 50.288 0.066 6.69 5.82 10.61
11/1/2021 6:30:00 AM 10.14 50.252 0.066 6.68 5.82 10.62
11/1/2021 6:45:00 AM 10.1 50.18 0.066 6.7 5.78 10.62
11/1/2021 7:00:00 AM 10.06 50.108 0.066 6.68 5.79 10.64
11/1/2021 7:15:00 AM 10.01 50.018 0.066 6.68 5.87 10.65
11/1/2021 7:30:00 AM 9.96 49.928 0.066 6.71 5.93 10.67
11/1/2021 7:45:00 AM 9.91 49.838 0.066 6.71 5.67 10.69
11/1/2021 8:00:00 AM 9.86 49.748 0.066 6.7 5.79 10.71
11/1/2021 8:15:00 AM 9.81 49.658 0.066 6.7 5.6 10.74
11/1/2021 8:30:00 AM 9.77 49.586 0.066 6.7 5.58 10.77
11/1/2021 8:45:00 AM 9.73 49.514 0.066 6.71 5.75 10.81
11/1/2021 9:00:00 AM 9.69 49.442 0.066 6.71 5.86 10.84
11/1/2021 9:15:00 AM 9.66 49.388 0.066 6.74 5.49 10.86
11/1/2021 9:30:00 AM 9.66 49.388 0.066 6.74 5.54 10.92
11/1/2021 9:45:00 AM 9.68 49.424 0.066 6.74 5.44 10.95
11/1/2021 10:00:00 AM 9.69 49.442 0.066 6.77 5.49 10.97
11/1/2021 10:15:00 AM 9.71 49.478 0.066 6.76 5.34 10.99
11/1/2021 10:30:00 AM 9.77 49.586 0.066 6.82 5.28 11.02
11/1/2021 10:45:00 AM 9.82 49.676 0.066 6.81 5.33 11.01
11/1/2021 11:00:00 AM 9.85 49.73 0.066 6.85 5.33 11.01
11/1/2021 11:15:00 AM 9.86 49.748 0.066 6.84 5.29 11.02
11/1/2021 11:30:00 AM 9.87 49.766 0.066 6.82 5.16 11.02
11/1/2021 11:45:00 AM 9.93 49.874 0.066 6.86 5.31 11.01
11/1/2021 12:00:00 PM 9.99 49.982 0.066 6.84 5.15 11
11/1/2021 12:15:00 PM 10.06 50.108 0.066 6.85 5.11 10.98
11/1/2021 12:30:00 PM 10.11 50.198 0.066 6.86 5.2 10.98
11/1/2021 12:45:00 PM 10.18 50.324 0.066 6.87 5.35 10.98
11/1/2021 1:00:00 PM 10.4 50.72 0.066 6.89 5.17 10.95
11/1/2021 1:15:00 PM 10.54 50.972 0.066 6.91 5.14 10.91
11/1/2021 1:30:00 PM 10.51 50.918 0.066 6.88 5.19 10.87
11/1/2021 1:45:00 PM 10.51 50.918 0.066 6.85 5.19 10.88
11/1/2021 2:00:00 PM 10.54 50.972 0.066 6.86 5.14 10.89
11/1/2021 2:15:00 PM 10.6 51.08 0.066 6.87 5.15 10.88
11/1/2021 2:30:00 PM 10.61 51.098 0.066 6.83 5.12 10.88
11/1/2021 2:45:00 PM 10.6 51.08 0.066 6.87 5.03 10.87
11/1/2021 3:00:00 PM 10.58 51.044 0.066 6.84 5.4 10.85
11/1/2021 3:15:00 PM 10.49 50.882 0.066 6.84 5.65 10.83
11/1/2021 3:30:00 PM 10.45 50.81 0.066 6.84 5.11 10.83
11/1/2021 3:45:00 PM 10.42 50.756 0.066 6.83 5.27 10.85
11/1/2021 4:00:00 PM 10.38 50.684 0.066 6.83 5.13 10.84
11/1/2021 4:15:00 PM 10.33 50.594 0.066 6.83 5.15 10.82
11/1/2021 4:30:00 PM 10.29 50.522 0.066 6.82 5.12 10.8
11/1/2021 4:45:00 PM 10.26 50.468 0.066 6.79 5.16 10.79
11/1/2021 5:00:00 PM 10.23 50.414 0.066 6.75 5.13 10.78
11/1/2021 5:15:00 PM 10.2 50.36 0.066 6.78 5.13 10.77
11/1/2021 5:30:00 PM 10.14 50.252 0.066 6.77 5.08 10.76
11/1/2021 5:45:00 PM 10.08 50.144 0.066 6.73 5.25 10.76
11/1/2021 6:00:00 PM 10.02 50.036 0.066 6.7 5.18 10.75
11/1/2021 6:15:00 PM 9.96 49.928 0.067 6.75 5.22 10.74
11/1/2021 6:30:00 PM 9.91 49.838 0.067 6.72 5.26 10.74
11/1/2021 6:45:00 PM 9.84 49.712 0.067 6.74 5.26 10.75
11/1/2021 7:00:00 PM 9.77 49.586 0.067 6.73 5.27 10.76
11/1/2021 7:15:00 PM 9.7 49.46 0.067 6.69 5.36 10.77
11/1/2021 7:30:00 PM 9.64 49.352 0.067 6.71 5.42 10.79
11/1/2021 7:45:00 PM 9.57 49.226 0.067 6.7 5.31 10.8
11/1/2021 8:00:00 PM 9.52 49.136 0.067 6.7 5.34 10.82
11/1/2021 8:15:00 PM 9.47 49.046 0.067 6.7 5.48 10.83
11/1/2021 8:30:00 PM 9.43 48.974 0.067 6.71 5.53 10.85
11/1/2021 8:45:00 PM 9.38 48.884 0.067 6.72 5.39 10.86
11/1/2021 9:00:00 PM 9.33 48.794 0.067 6.69 5.44 10.87
11/1/2021 9:15:00 PM 9.28 48.704 0.067 6.7 5.58 10.88
11/1/2021 9:30:00 PM 9.23 48.614 0.067 6.69 5.32 10.89
11/1/2021 9:45:00 PM 9.18 48.524 0.067 6.7 5.3 10.92
11/1/2021 10:00:00 PM 9.13 48.434 0.067 6.71 5.35 10.93
11/1/2021 10:15:00 PM 9.07 48.326 0.067 6.68 5.38 10.94
11/1/2021 10:30:00 PM 9.02 48.236 0.067 6.69 5.48 10.95
11/1/2021 10:45:00 PM 8.97 48.146 0.067 6.69 5.35 10.97
11/1/2021 11:00:00 PM 8.93 48.074 0.067 6.69 5.37 10.98
11/1/2021 11:15:00 PM 8.9 48.02 0.067 6.69 5.35 10.98
11/1/2021 11:30:00 PM 8.87 47.966 0.067 6.7 5.36 11
11/1/2021 11:45:00 PM 8.84 47.912 0.067 6.7 5.29 11.01
11/2/2021 12:00:00 AM 8.82 47.876 0.067 6.69 5.4 11.01
11/2/2021 12:15:00 AM 8.8 47.84 0.067 6.69 5.55 11.01
11/2/2021 12:30:00 AM 8.78 47.804 0.067 6.71 5.51 11.02
11/2/2021 12:45:00 AM 8.77 47.786 0.067 6.68 5.52 11.03
11/2/2021 1:00:00 AM 8.75 47.75 0.067 6.71 5.37 11.03
11/2/2021 1:15:00 AM 8.73 47.714 0.067 6.64 5.41 11.03
11/2/2021 1:30:00 AM 8.71 47.678 0.067 6.68 5.45 11.04
11/2/2021 1:45:00 AM 8.68 47.624 0.067 6.7 5.3 11.04
11/2/2021 2:00:00 AM 8.67 47.606 0.067 6.71 5.48 11.05
11/2/2021 2:15:00 AM 8.65 47.57 0.067 6.7 5.59 11.05
11/2/2021 2:30:00 AM 8.63 47.534 0.067 6.68 5.43 11.06
11/2/2021 2:45:00 AM 8.6 47.48 0.067 6.67 5.36 11.06
11/2/2021 3:00:00 AM 8.58 47.444 0.067 6.7 5.37 11.07
11/2/2021 3:15:00 AM 8.56 47.408 0.067 6.69 5.34 11.08
11/2/2021 3:30:00 AM 8.55 47.39 0.067 6.7 5.25 11.08
11/2/2021 3:45:00 AM 8.54 47.372 0.067 6.67 5.35 11.08
11/2/2021 4:00:00 AM 8.54 47.372 0.067 6.7 5.19 11.08
11/2/2021 4:15:00 AM 8.53 47.354 0.067 6.68 5.29 11.09
11/2/2021 4:30:00 AM 8.51 47.318 0.067 6.71 5.14 11.09
11/2/2021 4:45:00 AM 8.5 47.3 0.067 6.7 5.25 11.1
11/2/2021 5:00:00 AM 8.48 47.264 0.067 6.66 5.16 11.1
11/2/2021 5:15:00 AM 8.46 47.228 0.067 6.67 5.23 11.11
11/2/2021 5:30:00 AM 8.44 47.192 0.067 6.69 5.32 11.11
11/2/2021 5:45:00 AM 8.44 47.192 0.067 6.7 5.34 11.12
11/2/2021 6:00:00 AM 8.43 47.174 0.067 6.69 5.45 11.12
11/2/2021 6:15:00 AM 8.42 47.156 0.067 6.7 5.45 11.12
11/2/2021 6:30:00 AM 8.4 47.12 0.067 6.67 5.42 11.13
11/2/2021 6:45:00 AM 8.38 47.084 0.067 6.69 5.45 11.13
11/2/2021 7:00:00 AM 8.37 47.066 0.067 6.69 5.39 11.13
11/2/2021 7:15:00 AM 8.34 47.012 0.067 6.68 5.39 11.14
11/2/2021 7:30:00 AM 8.31 46.958 0.067 6.69 5.34 11.15
11/2/2021 7:45:00 AM 8.28 46.904 0.067 6.7 5.35 11.16
11/2/2021 8:00:00 AM 8.25 46.85 0.067 6.67 5.31 11.18
11/2/2021 8:15:00 AM 8.23 46.814 0.067 6.7 5.16 11.21
11/2/2021 8:30:00 AM 8.23 46.814 0.067 6.72 5.32 11.25
11/2/2021 8:45:00 AM 8.21 46.778 0.067 6.73 5.25 11.27
11/2/2021 9:00:00 AM 8.2 46.76 0.067 6.72 5.22 11.3
11/2/2021 9:15:00 AM 8.19 46.742 0.067 6.74 5.11 11.32
11/2/2021 9:30:00 AM 8.21 46.778 0.067 6.75 5.13 11.37
11/2/2021 9:45:00 AM 8.23 46.814 0.067 6.75 4.95 11.4
11/2/2021 10:00:00 AM 8.26 46.868 0.067 6.78 4.96 11.42
11/2/2021 10:15:00 AM 8.31 46.958 0.067 6.8 4.99 11.44
11/2/2021 10:30:00 AM 8.36 47.048 0.067 6.8 4.95 11.44
11/2/2021 10:45:00 AM 8.42 47.156 0.066 6.82 4.9 11.44
11/2/2021 11:00:00 AM 8.46 47.228 0.066 6.82 4.87 11.41
11/2/2021 11:15:00 AM 8.5 47.3 0.066 6.81 4.87 11.42
11/2/2021 11:30:00 AM 8.55 47.39 0.066 6.84 4.89 11.41
11/2/2021 11:45:00 AM 8.69 47.642 0.066 6.84 5.06 11.41
11/2/2021 12:00:00 PM 8.8 47.84 0.066 6.85 4.79 11.39
11/2/2021 12:15:00 PM 8.92 48.056 0.066 6.88 4.81 11.38
11/2/2021 12:30:00 PM 9 48.2 0.066 6.89 4.81 11.34
11/2/2021 12:45:00 PM 9.12 48.416 0.066 6.88 4.84 11.32
11/2/2021 1:00:00 PM 9.32 48.776 0.066 6.9 4.76 11.27
11/2/2021 1:15:00 PM 9.4 48.92 0.066 6.91 4.76 11.26
11/2/2021 1:30:00 PM 9.44 48.992 0.066 6.89 4.72 11.22
11/2/2021 1:45:00 PM 9.39 48.902 0.066 6.86 4.7 11.22
11/2/2021 2:00:00 PM 9.4 48.92 0.066 6.87 4.76 11.21
11/2/2021 2:15:00 PM 9.32 48.776 0.066 6.86 4.79 11.19
11/2/2021 2:30:00 PM 9.26 48.668 0.066 6.84 4.8 11.2
11/2/2021 2:45:00 PM 9.22 48.596 0.067 6.78 4.76 11.18
11/2/2021 3:00:00 PM 9.22 48.596 0.066 6.83 4.88 11.19
11/2/2021 3:15:00 PM 9.22 48.596 0.066 6.85 4.74 11.18
11/2/2021 3:30:00 PM 9.26 48.668 0.066 6.86 4.79 11.2
11/2/2021 3:45:00 PM 9.3 48.74 0.066 6.87 4.79 11.19
11/2/2021 4:00:00 PM 9.32 48.776 0.066 6.87 4.87 11.19
11/2/2021 4:15:00 PM 9.32 48.776 0.067 6.86 4.84 11.16
11/2/2021 4:30:00 PM 9.3 48.74 0.067 6.84 4.74 11.13
11/2/2021 4:45:00 PM 9.29 48.722 0.067 6.85 4.83 11.11
11/2/2021 5:00:00 PM 9.27 48.686 0.067 6.83 4.75 11.08
11/2/2021 5:15:00 PM 9.24 48.632 0.067 6.79 4.82 11.05
11/2/2021 5:30:00 PM 9.21 48.578 0.067 6.79 4.83 11.02
11/2/2021 5:45:00 PM 9.18 48.524 0.067 6.8 4.74 11
11/2/2021 6:00:00 PM 9.15 48.47 0.067 6.78 4.9 10.98
11/2/2021 6:15:00 PM 9.1 48.38 0.067 6.76 4.91 10.98
11/2/2021 6:30:00 PM 9.06 48.308 0.067 6.76 4.87 10.97
11/2/2021 6:45:00 PM 9.02 48.236 0.067 6.76 4.9 10.97
11/2/2021 7:00:00 PM 8.99 48.182 0.067 6.76 4.94 10.98
11/2/2021 7:15:00 PM 8.95 48.11 0.067 6.75 4.96 10.99
11/2/2021 7:30:00 PM 8.91 48.038 0.067 6.74 4.97 11
11/2/2021 7:45:00 PM 8.87 47.966 0.067 6.73 4.98 11.01
11/2/2021 8:00:00 PM 8.83 47.894 0.067 6.75 4.93 11.02
11/2/2021 8:15:00 PM 8.8 47.84 0.067 6.73 5.09 11.03
11/2/2021 8:30:00 PM 8.76 47.768 0.067 6.73 4.91 11.04
11/2/2021 8:45:00 PM 8.72 47.696 0.067 6.72 4.92 11.05
11/2/2021 9:00:00 PM 8.68 47.624 0.067 6.74 4.98 11.06
11/2/2021 9:15:00 PM 8.64 47.552 0.067 6.73 4.94 11.07
11/2/2021 9:30:00 PM 8.61 47.498 0.067 6.73 4.94 11.07
11/2/2021 9:45:00 PM 8.58 47.444 0.067 6.73 4.92 11.09
11/2/2021 10:00:00 PM 8.55 47.39 0.067 6.73 4.92 11.1
11/2/2021 10:15:00 PM 8.5 47.3 0.067 6.71 4.88 11.11
11/2/2021 10:30:00 PM 8.44 47.192 0.067 6.73 4.85 11.12
11/2/2021 10:45:00 PM 8.41 47.138 0.068 6.69 4.86 11.13
11/2/2021 11:00:00 PM 8.37 47.066 0.068 6.73 4.87 11.14
11/2/2021 11:15:00 PM 8.32 46.976 0.068 6.67 4.93 11.15
11/2/2021 11:30:00 PM 8.28 46.904 0.068 6.74 4.83 11.16
11/2/2021 11:45:00 PM 8.25 46.85 0.068 6.7 4.84 11.17
11/3/2021 12:00:00 AM 8.21 46.778 0.068 6.74 4.91 11.18
11/3/2021 12:15:00 AM 8.18 46.724 0.068 6.69 4.87 11.19
11/3/2021 12:30:00 AM 8.15 46.67 0.068 6.73 4.82 11.2
11/3/2021 12:45:00 AM 8.13 46.634 0.068 6.72 4.73 11.21
11/3/2021 1:00:00 AM 8.1 46.58 0.068 6.72 4.75 11.22
11/3/2021 1:15:00 AM 8.09 46.562 0.068 6.71 4.75 11.22
11/3/2021 1:30:00 AM 8.07 46.526 0.068 6.74 4.72 11.23
11/3/2021 1:45:00 AM 8.05 46.49 0.068 6.69 4.77 11.23
11/3/2021 2:00:00 AM 8.04 46.472 0.068 6.73 4.73 11.23
11/3/2021 2:15:00 AM 8.02 46.436 0.068 6.72 4.76 11.24
11/3/2021 2:30:00 AM 8 46.4 0.068 6.72 4.91 11.24
11/3/2021 2:45:00 AM 7.99 46.382 0.068 6.72 4.87 11.25
11/3/2021 3:00:00 AM 7.98 46.364 0.068 6.73 4.91 11.25
11/3/2021 3:15:00 AM 7.97 46.346 0.068 6.72 4.78 11.26
11/3/2021 3:30:00 AM 7.97 46.346 0.068 6.74 4.77 11.26
11/3/2021 3:45:00 AM 7.96 46.328 0.068 6.73 4.85 11.26
11/3/2021 4:00:00 AM 7.96 46.328 0.068 6.74 4.7 11.27
11/3/2021 4:15:00 AM 7.96 46.328 0.068 6.71 4.85 11.25
11/3/2021 4:30:00 AM 7.96 46.328 0.068 6.74 4.82 11.26
11/3/2021 4:45:00 AM 7.96 46.328 0.068 6.73 4.75 11.26
11/3/2021 5:00:00 AM 7.96 46.328 0.068 6.72 4.77 11.26
11/3/2021 5:15:00 AM 7.96 46.328 0.068 6.71 4.86 11.25
11/3/2021 5:30:00 AM 7.95 46.31 0.068 6.74 4.84 11.26
11/3/2021 5:45:00 AM 7.94 46.292 0.068 6.72 4.7 11.26
11/3/2021 6:00:00 AM 7.94 46.292 0.068 6.73 4.73 11.26
11/3/2021 6:15:00 AM 7.93 46.274 0.068 6.7 4.76 11.27
11/3/2021 6:30:00 AM 7.93 46.274 0.068 6.74 4.78 11.27
11/3/2021 6:45:00 AM 7.92 46.256 0.068 6.72 4.73 11.27
11/3/2021 7:00:00 AM 7.9 46.22 0.068 6.74 4.74 11.27
11/3/2021 7:15:00 AM 7.89 46.202 0.068 6.73 4.88 11.27
11/3/2021 7:30:00 AM 7.87 46.166 0.068 6.74 4.75 11.28
11/3/2021 7:45:00 AM 7.84 46.112 0.068 6.74 4.7 11.3
11/3/2021 8:00:00 AM 7.8 46.04 0.068 6.75 4.76 11.32
11/3/2021 8:15:00 AM 7.78 46.004 0.068 6.73 4.72 11.35
11/3/2021 8:30:00 AM 7.76 45.968 0.068 6.68 4.81 11.41
11/3/2021 8:45:00 AM 7.75 45.95 0.068 6.77 4.9 11.44
11/3/2021 9:00:00 AM 7.75 45.95 0.068 6.78 4.67 11.48
11/3/2021 9:15:00 AM 7.77 45.986 0.068 6.8 5.87 11.54
11/3/2021 9:30:00 AM 7.81 46.058 0.068 6.82 4.69 11.57
11/3/2021 9:45:00 AM 7.86 46.148 0.068 6.84 4.62 11.6
11/3/2021 10:00:00 AM 7.9 46.22 0.068 6.81 4.99 11.61
11/3/2021 10:15:00 AM 7.93 46.274 0.068 6.87 4.59 11.62
11/3/2021 10:30:00 AM 7.96 46.328 0.068 6.86 4.54 11.61
11/3/2021 10:45:00 AM 7.97 46.346 0.068 6.86 4.51 11.61
11/3/2021 11:00:00 AM 8.05 46.49 0.068 6.84 4.53 11.62
11/3/2021 11:15:00 AM 8.13 46.634 0.068 6.9 4.59 11.61
11/3/2021 11:30:00 AM 8.14 46.652 0.068 6.9 4.49 11.59
11/3/2021 11:45:00 AM 8.23 46.814 0.068 6.85 4.64 11.6
11/3/2021 12:00:00 PM 8.32 46.976 0.068 6.92 4.62 11.59
11/3/2021 12:15:00 PM 8.47 47.246 0.068 6.93 4.58 11.58
11/3/2021 12:30:00 PM 8.63 47.534 0.068 6.95 4.55 11.53
11/3/2021 12:45:00 PM 8.68 47.624 0.068 6.95 4.78 11.51
11/3/2021 1:00:00 PM 8.73 47.714 0.068 6.93 4.54 11.49
11/3/2021 1:15:00 PM 8.77 47.786 0.068 6.92 4.55 11.48
11/3/2021 1:30:00 PM 8.8 47.84 0.068 6.94 4.56 11.47
11/3/2021 1:45:00 PM 8.8 47.84 0.068 6.87 4.49 11.43
11/3/2021 2:00:00 PM 8.9 48.02 0.068 6.93 4.53 11.41
11/3/2021 2:15:00 PM 8.93 48.074 0.068 6.92 4.63 11.37
11/3/2021 2:30:00 PM 8.87 47.966 0.068 6.9 4.54 11.35
11/3/2021 2:45:00 PM 8.88 47.984 0.068 6.91 4.52 11.35
11/3/2021 3:00:00 PM 8.95 48.11 0.068 6.88 4.65 11.38
11/3/2021 3:15:00 PM 9.04 48.272 0.068 6.93 4.51 11.39
11/3/2021 3:30:00 PM 9.07 48.326 0.068 6.9 4.54 11.37
11/3/2021 3:45:00 PM 9 48.2 0.068 6.91 4.56 11.3
11/3/2021 4:00:00 PM 8.94 48.092 0.068 6.89 4.56 11.27
11/3/2021 4:15:00 PM 8.93 48.074 0.068 6.87 4.61 11.3
11/3/2021 4:30:00 PM 8.91 48.038 0.068 6.87 4.6 11.3
11/3/2021 4:45:00 PM 8.86 47.948 0.068 6.83 4.63 11.29
11/3/2021 5:00:00 PM 8.81 47.858 0.068 6.87 4.55 11.27
11/3/2021 5:15:00 PM 8.78 47.804 0.068 6.86 4.62 11.26
11/3/2021 5:30:00 PM 8.74 47.732 0.068 6.84 4.56 11.23
11/3/2021 5:45:00 PM 8.68 47.624 0.068 6.82 4.63 11.21
11/3/2021 6:00:00 PM 8.63 47.534 0.069 6.81 4.65 11.19
11/3/2021 6:15:00 PM 8.59 47.462 0.069 6.81 4.62 11.17
11/3/2021 6:30:00 PM 8.53 47.354 0.069 6.78 4.65 11.16
11/3/2021 6:45:00 PM 8.47 47.246 0.069 6.76 4.74 11.16
11/3/2021 7:00:00 PM 8.44 47.192 0.069 6.78 4.87 11.16
11/3/2021 7:15:00 PM 8.42 47.156 0.069 6.78 4.72 11.17
11/3/2021 7:30:00 PM 8.39 47.102 0.069 6.76 4.84 11.18
11/3/2021 7:45:00 PM 8.36 47.048 0.069 6.77 4.85 11.19
11/3/2021 8:00:00 PM 8.33 46.994 0.069 6.77 4.82 11.19
11/3/2021 8:15:00 PM 8.29 46.922 0.069 6.76 4.87 11.2
11/3/2021 8:30:00 PM 8.26 46.868 0.069 6.77 4.95 11.21
11/3/2021 8:45:00 PM 8.23 46.814 0.069 6.78 4.86 11.22
11/3/2021 9:00:00 PM 8.21 46.778 0.069 6.77 4.75 11.22
11/3/2021 9:15:00 PM 8.18 46.724 0.069 6.78 4.81 11.23
11/3/2021 9:30:00 PM 8.15 46.67 0.069 6.77 4.7 11.24
11/3/2021 9:45:00 PM 8.13 46.634 0.069 6.77 4.76 11.25
11/3/2021 10:00:00 PM 8.1 46.58 0.069 6.76 4.78 11.25
11/3/2021 10:15:00 PM 8.07 46.526 0.069 6.76 4.71 11.26
11/3/2021 10:30:00 PM 8.03 46.454 0.069 6.77 4.71 11.27
11/3/2021 10:45:00 PM 7.99 46.382 0.069 6.76 4.76 11.28
11/3/2021 11:00:00 PM 7.94 46.292 0.069 6.72 4.72 11.3
11/3/2021 11:15:00 PM 7.89 46.202 0.069 6.76 4.76 11.31
11/3/2021 11:30:00 PM 7.83 46.094 0.069 6.74 4.71 11.32
11/3/2021 11:45:00 PM 7.78 46.004 0.069 6.74 4.67 11.33
11/4/2021 12:00:00 AM 7.73 45.914 0.069 6.76 4.8 11.35
11/4/2021 12:15:00 AM 7.68 45.824 0.07 6.76 4.69 11.37
11/4/2021 12:30:00 AM 7.63 45.734 0.07 6.75 4.71 11.38
11/4/2021 12:45:00 AM 7.58 45.644 0.07 6.75 4.72 11.4
11/4/2021 1:00:00 AM 7.54 45.572 0.07 6.74 4.74 11.4
11/4/2021 1:15:00 AM 7.49 45.482 0.07 6.75 4.57 11.42
11/4/2021 1:30:00 AM 7.45 45.41 0.07 6.76 4.67 11.43
11/4/2021 1:45:00 AM 7.41 45.338 0.07 6.75 4.7 11.44
11/4/2021 2:00:00 AM 7.37 45.266 0.07 6.77 4.68 11.45
11/4/2021 2:15:00 AM 7.33 45.194 0.07 6.76 4.66 11.47
11/4/2021 2:30:00 AM 7.29 45.122 0.07 6.75 4.64 11.48
11/4/2021 2:45:00 AM 7.25 45.05 0.07 6.73 4.65 11.49
11/4/2021 3:00:00 AM 7.21 44.978 0.07 6.73 4.67 11.5
11/4/2021 3:15:00 AM 7.19 44.942 0.07 6.74 4.66 11.51
11/4/2021 3:30:00 AM 7.16 44.888 0.07 6.77 4.61 11.52
11/4/2021 3:45:00 AM 7.14 44.852 0.07 6.72 4.62 11.52
11/4/2021 4:00:00 AM 7.11 44.798 0.07 6.75 4.64 11.53
11/4/2021 4:15:00 AM 7.08 44.744 0.07 6.75 4.67 11.54
11/4/2021 4:30:00 AM 7.06 44.708 0.07 6.74 4.55 11.55
11/4/2021 4:45:00 AM 7.04 44.672 0.07 6.74 4.65 11.55
11/4/2021 5:00:00 AM 7.03 44.654 0.07 6.75 4.55 11.56
11/4/2021 5:15:00 AM 7.01 44.618 0.07 6.76 4.63 11.57
11/4/2021 5:30:00 AM 7 44.6 0.07 6.75 4.67 11.57
11/4/2021 5:45:00 AM 7 44.6 0.07 6.76 4.76 11.57
11/4/2021 6:00:00 AM 6.99 44.582 0.07 6.75 4.61 11.57
11/4/2021 6:15:00 AM 6.98 44.564 0.07 6.76 4.55 11.58
11/4/2021 6:30:00 AM 6.97 44.546 0.07 6.74 4.57 11.58
11/4/2021 6:45:00 AM 6.96 44.528 0.07 6.74 4.56 11.58
11/4/2021 7:00:00 AM 6.95 44.51 0.07 6.77 4.52 11.58
11/4/2021 7:15:00 AM 6.94 44.492 0.07 6.74 4.61 11.58
11/4/2021 7:30:00 AM 6.94 44.492 0.07 6.75 4.49 11.59
11/4/2021 7:45:00 AM 6.93 44.474 0.07 6.74 4.54 11.59
11/4/2021 8:00:00 AM 6.93 44.474 0.07 6.76 4.55 11.61
11/4/2021 8:15:00 AM 6.93 44.474 0.07 6.76 4.55 11.62
11/4/2021 8:30:00 AM 6.94 44.492 0.07 6.77 4.44 11.66
11/4/2021 8:45:00 AM 6.95 44.51 0.07 6.77 4.58 11.68
11/4/2021 9:00:00 AM 6.94 44.492 0.07 6.78 4.42 11.71
11/4/2021 9:15:00 AM 6.93 44.474 0.07 6.78 4.45 11.75
11/4/2021 9:30:00 AM 6.93 44.474 0.07 6.8 4.46 11.78
11/4/2021 9:45:00 AM 6.93 44.474 0.07 6.82 4.38 11.82
11/4/2021 10:00:00 AM 6.97 44.546 0.07 6.82 4.43 11.84
11/4/2021 10:15:00 AM 7.02 44.636 0.07 6.85 4.43 11.86
11/4/2021 10:30:00 AM 7.09 44.762 0.07 6.87 4.38 11.87
11/4/2021 10:45:00 AM 7.19 44.942 0.07 6.88 4.38 11.86
11/4/2021 11:00:00 AM 7.29 45.122 0.07 6.87 4.33 11.86
11/4/2021 11:15:00 AM 7.41 45.338 0.07 6.86 4.39 11.84
11/4/2021 11:30:00 AM 7.56 45.608 0.07 6.91 4.3 11.83
11/4/2021 11:45:00 AM 7.77 45.986 0.07 6.95 4.4 11.82
11/4/2021 12:00:00 PM 7.85 46.13 0.07 6.88 4.35 11.78
11/4/2021 12:15:00 PM 7.81 46.058 0.07 6.93 4.31 11.74
11/4/2021 12:30:00 PM 7.81 46.058 0.07 6.93 4.3 11.73
11/4/2021 12:45:00 PM 7.86 46.148 0.07 6.93 4.31 11.71
11/4/2021 1:00:00 PM 7.86 46.148 0.07 6.89 4.39 11.7
11/4/2021 1:15:00 PM 7.9 46.22 0.07 6.92 4.35 11.73
11/4/2021 1:30:00 PM 7.97 46.346 0.07 6.95 4.37 11.7
11/4/2021 1:45:00 PM 7.99 46.382 0.07 6.93 4.31 11.69
11/4/2021 2:00:00 PM 8 46.4 0.07 6.94 4.33 11.66
11/4/2021 2:15:00 PM 8 46.4 0.07 6.92 4.32 11.64
11/4/2021 2:30:00 PM 8 46.4 0.07 6.93 4.34 11.66
11/4/2021 2:45:00 PM 8.01 46.418 0.07 6.94 4.36 11.67
11/4/2021 3:00:00 PM 8.02 46.436 0.07 6.93 4.29 11.66
11/4/2021 3:15:00 PM 8.02 46.436 0.07 6.92 4.29 11.66
11/4/2021 3:30:00 PM 8.03 46.454 0.07 6.95 4.28 11.66
11/4/2021 3:45:00 PM 8.04 46.472 0.07 6.94 4.32 11.66
11/4/2021 4:00:00 PM 8.07 46.526 0.07 6.95 4.28 11.65
11/4/2021 4:15:00 PM 8.09 46.562 0.07 6.89 4.31 11.64
11/4/2021 4:30:00 PM 8.1 46.58 0.07 6.91 4.3 11.61
11/4/2021 4:45:00 PM 8.1 46.58 0.07 6.93 4.29 11.56
11/4/2021 5:00:00 PM 8.1 46.58 0.07 6.91 4.32 11.53
11/4/2021 5:15:00 PM 8.09 46.562 0.07 6.91 4.31 11.5
11/4/2021 5:30:00 PM 8.07 46.526 0.07 6.86 4.3 11.47
11/4/2021 5:45:00 PM 8.06 46.508 0.07 6.86 4.36 11.43
11/4/2021 6:00:00 PM 8.04 46.472 0.07 6.85 4.32 11.37
11/4/2021 6:15:00 PM 8 46.4 0.07 6.84 4.32 11.34
11/4/2021 6:30:00 PM 7.96 46.328 0.07 6.82 4.38 11.32
11/4/2021 6:45:00 PM 7.92 46.256 0.071 6.8 4.4 11.32
11/4/2021 7:00:00 PM 7.87 46.166 0.071 6.79 4.37 11.32
11/4/2021 7:15:00 PM 7.82 46.076 0.071 6.79 4.47 11.32
11/4/2021 7:30:00 PM 7.76 45.968 0.071 6.71 4.48 11.33
11/4/2021 7:45:00 PM 7.7 45.86 0.071 6.78 4.48 11.35
11/4/2021 8:00:00 PM 7.64 45.752 0.071 6.78 4.47 11.36
11/4/2021 8:15:00 PM 7.58 45.644 0.071 6.78 4.51 11.37
11/4/2021 8:30:00 PM 7.52 45.536 0.071 6.76 4.48 11.39
11/4/2021 8:45:00 PM 7.46 45.428 0.071 6.74 4.44 11.41
11/4/2021 9:00:00 PM 7.4 45.32 0.071 6.77 4.47 11.42
11/4/2021 9:15:00 PM 7.35 45.23 0.071 6.77 4.5 11.44
11/4/2021 9:30:00 PM 7.29 45.122 0.071 6.76 4.49 11.46
11/4/2021 9:45:00 PM 7.23 45.014 0.071 6.76 4.45 11.47
11/4/2021 10:00:00 PM 7.18 44.924 0.071 6.76 4.53 11.49
11/4/2021 10:15:00 PM 7.13 44.834 0.071 6.76 4.49 11.5
11/4/2021 10:30:00 PM 7.07 44.726 0.071 6.75 4.51 11.52
11/4/2021 10:45:00 PM 7.02 44.636 0.071 6.77 4.43 11.53
11/4/2021 11:00:00 PM 6.97 44.546 0.071 6.73 4.41 11.55
11/4/2021 11:15:00 PM 6.93 44.474 0.071 6.77 4.48 11.57
11/4/2021 11:30:00 PM 6.88 44.384 0.071 6.74 4.39 11.58
11/4/2021 11:45:00 PM 6.84 44.312 0.071 6.77 4.37 11.59
11/5/2021 12:00:00 AM 6.79 44.222 0.071 6.77 4.46 11.61
11/5/2021 12:15:00 AM 6.75 44.15 0.071 6.73 4.46 11.62
11/5/2021 12:30:00 AM 6.71 44.078 0.071 6.74 4.43 11.63
11/5/2021 12:45:00 AM 6.67 44.006 0.071 6.77 4.42 11.65
11/5/2021 1:00:00 AM 6.63 43.934 0.071 6.75 4.42 11.65
11/5/2021 1:15:00 AM 6.59 43.862 0.071 6.75 4.36 11.67
11/5/2021 1:30:00 AM 6.55 43.79 0.071 6.77 4.4 11.68
11/5/2021 1:45:00 AM 6.51 43.718 0.071 6.75 4.38 11.69
11/5/2021 2:00:00 AM 6.47 43.646 0.071 6.75 4.36 11.7
11/5/2021 2:15:00 AM 6.43 43.574 0.071 6.73 4.32 11.72
11/5/2021 2:30:00 AM 6.39 43.502 0.072 6.75 4.5 11.73
11/5/2021 2:45:00 AM 6.36 43.448 0.072 6.76 4.41 11.73
11/5/2021 3:00:00 AM 6.32 43.376 0.072 6.74 4.41 11.75
11/5/2021 3:15:00 AM 6.29 43.322 0.072 6.77 4.49 11.76
11/5/2021 3:30:00 AM 6.25 43.25 0.072 6.75 4.39 11.77
11/5/2021 3:45:00 AM 6.21 43.178 0.072 6.73 4.36 11.79
11/5/2021 4:00:00 AM 6.18 43.124 0.072 6.75 4.42 11.79
11/5/2021 4:15:00 AM 6.14 43.052 0.072 6.76 4.41 11.8
11/5/2021 4:30:00 AM 6.11 42.998 0.072 6.73 4.38 11.82
11/5/2021 4:45:00 AM 6.07 42.926 0.072 6.7 4.37 11.83
11/5/2021 5:00:00 AM 6.04 42.872 0.072 6.77 4.37 11.84
11/5/2021 5:15:00 AM 6 42.8 0.072 6.75 4.33 11.85
11/5/2021 5:30:00 AM 5.97 42.746 0.072 6.77 4.34 11.86
11/5/2021 5:45:00 AM 5.94 42.692 0.072 6.75 4.38 11.88
11/5/2021 6:00:00 AM 5.9 42.62 0.072 6.76 4.33 11.88
11/5/2021 6:15:00 AM 5.87 42.566 0.072 6.74 4.32 11.9
11/5/2021 6:30:00 AM 5.83 42.494 0.072 6.75 4.3 11.91
11/5/2021 6:45:00 AM 5.8 42.44 0.072 6.69 4.3 11.92
11/5/2021 7:00:00 AM 5.77 42.386 0.072 6.74 4.29 11.93
11/5/2021 7:15:00 AM 5.73 42.314 0.072 6.75 4.25 11.95
11/5/2021 7:30:00 AM 5.7 42.26 0.072 6.74 4.31 11.96
11/5/2021 7:45:00 AM 5.67 42.206 0.072 6.75 4.29 11.98
11/5/2021 8:00:00 AM 5.64 42.152 0.072 6.77 4.29 12
11/5/2021 8:15:00 AM 5.61 42.098 0.072 6.77 4.24 12.04
11/5/2021 8:30:00 AM 5.59 42.062 0.072 6.75 4.29 12.08
11/5/2021 8:45:00 AM 5.57 42.026 0.072 6.77 4.24 12.13
11/5/2021 9:00:00 AM 5.56 42.008 0.072 6.8 4.22 12.17
11/5/2021 9:15:00 AM 5.55 41.99 0.072 6.8 4.24 12.21
11/5/2021 9:30:00 AM 5.55 41.99 0.072 6.78 4.22 12.25
11/5/2021 9:45:00 AM 5.57 42.026 0.072 6.81 4.22 12.28
11/5/2021 10:00:00 AM 5.6 42.08 0.072 6.82 4.17 12.31
11/5/2021 10:15:00 AM 5.67 42.206 0.072 6.85 4.17 12.32
11/5/2021 10:30:00 AM 5.75 42.35 0.072 6.82 4.19 12.32
11/5/2021 10:45:00 AM 5.87 42.566 0.072 6.89 4.22 12.31
11/5/2021 11:00:00 AM 6 42.8 0.071 6.9 4.18 12.31
11/5/2021 11:15:00 AM 6.17 43.106 0.071 6.92 4.16 12.29
11/5/2021 11:30:00 AM 6.36 43.448 0.071 6.92 4.14 12.27
11/5/2021 11:45:00 AM 6.53 43.754 0.071 6.91 4.14 12.22
11/5/2021 12:00:00 PM 6.64 43.952 0.071 6.95 4.12 12.19
11/5/2021 12:15:00 PM 6.68 44.024 0.071 6.93 4.13 12.15
11/5/2021 12:30:00 PM 6.73 44.114 0.071 6.95 4.12 12.14
11/5/2021 12:45:00 PM 6.74 44.132 0.071 6.95 4.06 12.12
11/5/2021 1:00:00 PM 6.94 44.492 0.071 6.95 4.08 12.11
11/5/2021 1:15:00 PM 7.16 44.888 0.071 6.99 4.13 12.04
11/5/2021 1:30:00 PM 7.23 45.014 0.071 6.97 4.09 11.98
11/5/2021 1:45:00 PM 7.26 45.068 0.071 6.97 4.12 11.98
11/5/2021 2:00:00 PM 7.41 45.338 0.071 6.98 4.1 11.95
11/5/2021 2:15:00 PM 7.55 45.59 0.071 6.92 4.11 11.9
11/5/2021 2:30:00 PM 7.61 45.698 0.071 6.99 4.14 11.86
11/5/2021 2:45:00 PM 7.68 45.824 0.071 6.98 4.14 11.84
11/5/2021 3:00:00 PM 7.7 45.86 0.071 6.95 4.13 11.81
11/5/2021 3:15:00 PM 7.69 45.842 0.071 6.95 4.15 11.77
11/5/2021 3:30:00 PM 7.66 45.788 0.071 6.95 4.15 11.76
11/5/2021 3:45:00 PM 7.62 45.716 0.071 6.92 4.18 11.75
11/5/2021 4:00:00 PM 7.55 45.59 0.071 6.92 4.15 11.72
11/5/2021 4:15:00 PM 7.49 45.482 0.072 6.9 4.24 11.69
11/5/2021 4:30:00 PM 7.46 45.428 0.072 6.88 4.18 11.68
11/5/2021 4:45:00 PM 7.45 45.41 0.072 6.88 4.2 11.67
11/5/2021 5:00:00 PM 7.42 45.356 0.072 6.87 4.12 11.65
11/5/2021 5:15:00 PM 7.4 45.32 0.072 6.87 4.22 11.64
11/5/2021 5:30:00 PM 7.38 45.284 0.072 6.85 4.17 11.62
11/5/2021 5:45:00 PM 7.35 45.23 0.072 6.86 4.27 11.6
11/5/2021 6:00:00 PM 7.31 45.158 0.072 6.83 4.17 11.59
11/5/2021 6:15:00 PM 7.25 45.05 0.072 6.82 4.36 11.57
11/5/2021 6:30:00 PM 7.17 44.906 0.072 6.77 4.2 11.57
11/5/2021 6:45:00 PM 7.1 44.78 0.072 6.8 4.26 11.57
11/5/2021 7:00:00 PM 7.03 44.654 0.072 6.79 4.29 11.59
11/5/2021 7:15:00 PM 6.97 44.546 0.072 6.79 4.3 11.6
11/5/2021 7:30:00 PM 6.91 44.438 0.072 6.79 4.29 11.61
11/5/2021 7:45:00 PM 6.85 44.33 0.073 6.76 4.29 11.63
11/5/2021 8:00:00 PM 6.8 44.24 0.073 6.78 4.3 11.64
11/5/2021 8:15:00 PM 6.75 44.15 0.073 6.77 4.3 11.65
11/5/2021 8:30:00 PM 6.71 44.078 0.073 6.77 4.32 11.67
11/5/2021 8:45:00 PM 6.66 43.988 0.073 6.74 4.28 11.68
11/5/2021 9:00:00 PM 6.62 43.916 0.073 6.76 4.25 11.69
11/5/2021 9:15:00 PM 6.58 43.844 0.073 6.77 4.36 11.7
11/5/2021 9:30:00 PM 6.53 43.754 0.073 6.78 4.36 11.71
11/5/2021 9:45:00 PM 6.49 43.682 0.073 6.75 4.33 11.73
11/5/2021 10:00:00 PM 6.44 43.592 0.073 6.77 4.46 11.74
11/5/2021 10:15:00 PM 6.39 43.502 0.073 6.77 4.33 11.76
11/5/2021 10:30:00 PM 6.34 43.412 0.073 6.76 4.32 11.77
11/5/2021 10:45:00 PM 6.29 43.322 0.073 6.77 4.33 11.79
11/5/2021 11:00:00 PM 6.25 43.25 0.073 6.69 4.26 11.8
11/5/2021 11:15:00 PM 6.2 43.16 0.073 6.76 4.25 11.82
11/5/2021 11:30:00 PM 6.16 43.088 0.073 6.76 4.34 11.83
11/5/2021 11:45:00 PM 6.11 42.998 0.073 6.77 4.29 11.84
11/6/2021 12:00:00 AM 6.07 42.926 0.073 6.78 4.22 11.86
11/6/2021 12:15:00 AM 6.03 42.854 0.073 6.72 4.26 11.87
11/6/2021 12:30:00 AM 5.99 42.782 0.073 6.77 4.29 11.88
11/6/2021 12:45:00 AM 5.94 42.692 0.073 6.77 4.35 11.9
11/6/2021 1:00:00 AM 5.9 42.62 0.073 6.76 4.38 11.91
11/6/2021 1:15:00 AM 5.86 42.548 0.073 6.78 4.3 11.92
11/6/2021 1:30:00 AM 5.82 42.476 0.073 6.76 4.32 11.94
11/6/2021 1:45:00 AM 5.79 42.422 0.073 6.77 4.29 11.95
11/6/2021 2:00:00 AM 5.75 42.35 0.073 6.77 4.3 11.96
11/6/2021 2:15:00 AM 5.71 42.278 0.073 6.76 4.29 11.97
11/6/2021 2:30:00 AM 5.67 42.206 0.073 6.77 4.28 11.98
11/6/2021 2:45:00 AM 5.64 42.152 0.073 6.76 4.3 11.99
11/6/2021 3:00:00 AM 5.6 42.08 0.073 6.71 4.27 12
11/6/2021 3:15:00 AM 5.57 42.026 0.073 6.77 4.22 12.01
11/6/2021 3:30:00 AM 5.53 41.954 0.073 6.7 4.24 12.02
11/6/2021 3:45:00 AM 5.5 41.9 0.073 6.77 4.27 12.04
11/6/2021 4:00:00 AM 5.46 41.828 0.073 6.77 4.19 12.04
11/6/2021 4:15:00 AM 5.43 41.774 0.073 6.75 4.35 12.06
11/6/2021 4:30:00 AM 5.39 41.702 0.073 6.76 4.28 12.06
11/6/2021 4:45:00 AM 5.36 41.648 0.074 6.76 4.3 12.09
11/6/2021 5:00:00 AM 5.33 41.594 0.074 6.76 4.28 12.09
11/6/2021 5:15:00 AM 5.29 41.522 0.074 6.77 4.24 12.11
11/6/2021 5:30:00 AM 5.26 41.468 0.074 6.75 4.21 12.13
11/6/2021 5:45:00 AM 5.23 41.414 0.074 6.74 4.19 12.12
11/6/2021 6:00:00 AM 5.2 41.36 0.074 6.75 4.24 12.13
11/6/2021 6:15:00 AM 5.17 41.306 0.074 6.68 4.2 12.14
11/6/2021 6:30:00 AM 5.13 41.234 0.074 6.77 4.23 12.17
11/6/2021 6:45:00 AM 5.1 41.18 0.074 6.76 4.22 12.17
11/6/2021 7:00:00 AM 5.07 41.126 0.074 6.74 4.22 12.18
11/6/2021 7:15:00 AM 5.04 41.072 0.074 6.76 4.24 12.2
11/6/2021 7:30:00 AM 5.01 41.018 0.074 6.73 4.26 12.19
11/6/2021 7:45:00 AM 4.98 40.964 0.074 6.76 4.25 12.21
11/6/2021 8:00:00 AM 4.96 40.928 0.074 6.75 4.21 12.24
11/6/2021 8:15:00 AM 4.93 40.874 0.074 6.77 4.22 12.27
11/6/2021 8:30:00 AM 4.91 40.838 0.074 6.73 4.18 12.31
11/6/2021 8:45:00 AM 4.89 40.802 0.074 6.8 4.18 12.35
11/6/2021 9:00:00 AM 4.89 40.802 0.074 6.77 4.11 12.4
11/6/2021 9:15:00 AM 4.88 40.784 0.074 6.81 4.06 12.44
11/6/2021 9:30:00 AM 4.88 40.784 0.074 6.83 4.12 12.47
11/6/2021 9:45:00 AM 4.89 40.802 0.074 6.77 4.09 12.5
11/6/2021 10:00:00 AM 4.92 40.856 0.073 6.83 4.11 12.53
11/6/2021 10:15:00 AM 4.99 40.982 0.073 6.85 4.08 12.54
11/6/2021 10:30:00 AM 5.08 41.144 0.073 6.87 4.07 12.54
11/6/2021 10:45:00 AM 5.19 41.342 0.073 6.87 4.06 12.54
11/6/2021 11:00:00 AM 5.33 41.594 0.073 6.9 4.06 12.53
11/6/2021 11:15:00 AM 5.47 41.846 0.073 6.91 4.02 12.51
11/6/2021 11:30:00 AM 5.64 42.152 0.073 6.91 4.06 12.46
11/6/2021 11:45:00 AM 5.83 42.494 0.073 6.94 4.01 12.42
11/6/2021 12:00:00 PM 6.03 42.854 0.073 6.95 4.03 12.37
11/6/2021 12:15:00 PM 6.23 43.214 0.073 6.95 3.98 12.31
11/6/2021 12:30:00 PM 6.42 43.556 0.073 6.96 4.01 12.25
11/6/2021 12:45:00 PM 6.61 43.898 0.073 6.97 3.95 12.2
11/6/2021 1:00:00 PM 6.79 44.222 0.073 6.99 3.99 12.14
11/6/2021 1:15:00 PM 6.95 44.51 0.073 6.96 3.98 12.09
11/6/2021 1:30:00 PM 7.09 44.762 0.073 6.98 3.96 12.04
11/6/2021 1:45:00 PM 7.21 44.978 0.073 6.94 3.97 11.99
11/6/2021 2:00:00 PM 7.33 45.194 0.073 6.98 3.99 11.95
11/6/2021 2:15:00 PM 7.43 45.374 0.073 6.99 3.98 11.9
11/6/2021 2:30:00 PM 7.51 45.518 0.073 6.97 4 11.87
11/6/2021 2:45:00 PM 7.56 45.608 0.073 6.97 3.98 11.83
11/6/2021 3:00:00 PM 7.57 45.626 0.073 6.99 3.99 11.81
11/6/2021 3:15:00 PM 7.55 45.59 0.073 6.96 4.05 11.79
11/6/2021 3:30:00 PM 7.52 45.536 0.073 6.95 4.01 11.77
11/6/2021 3:45:00 PM 7.47 45.446 0.073 6.94 4.04 11.75
11/6/2021 4:00:00 PM 7.41 45.338 0.073 6.93 4.04 11.73
11/6/2021 4:15:00 PM 7.34 45.212 0.073 6.82 4.05 11.71
11/6/2021 4:30:00 PM 7.29 45.122 0.073 6.91 4.04 11.7
11/6/2021 4:45:00 PM 7.26 45.068 0.073 6.9 4.01 11.69
11/6/2021 5:00:00 PM 7.22 44.996 0.073 6.88 4.05 11.68
11/6/2021 5:15:00 PM 7.18 44.924 0.073 6.88 4.04 11.68
11/6/2021 5:30:00 PM 7.15 44.87 0.073 6.86 4.04 11.66
11/6/2021 5:45:00 PM 7.12 44.816 0.073 6.86 4.05 11.64
11/6/2021 6:00:00 PM 7.08 44.744 0.073 6.77 4.12 11.62
11/6/2021 6:15:00 PM 7.03 44.654 0.074 6.84 4.16 11.6
11/6/2021 6:30:00 PM 6.97 44.546 0.074 6.83 4.16 11.59
11/6/2021 6:45:00 PM 6.9 44.42 0.074 6.82 4.2 11.59
11/6/2021 7:00:00 PM 6.84 44.312 0.074 6.77 4.17 11.6
11/6/2021 7:15:00 PM 6.77 44.186 0.074 6.79 4.23 11.61
11/6/2021 7:30:00 PM 6.71 44.078 0.074 6.79 4.21 11.63
11/6/2021 7:45:00 PM 6.66 43.988 0.074 6.75 4.77 11.64
11/6/2021 8:00:00 PM 6.6 43.88 0.074 6.78 4.18 11.65
11/6/2021 8:15:00 PM 6.55 43.79 0.074 6.78 4.21 11.67
11/6/2021 8:30:00 PM 6.5 43.7 0.074 6.78 4.26 11.67
11/6/2021 8:45:00 PM 6.45 43.61 0.074 6.79 4.34 11.69
11/6/2021 9:00:00 PM 6.4 43.52 0.074 6.78 4.16 11.71
11/6/2021 9:15:00 PM 6.35 43.43 0.074 6.79 4.2 11.72
11/6/2021 9:30:00 PM 6.31 43.358 0.074 6.78 4.18 11.73
11/6/2021 9:45:00 PM 6.26 43.268 0.075 6.78 4.26 11.74
11/6/2021 10:00:00 PM 6.22 43.196 0.075 6.78 4.19 11.76
11/6/2021 10:15:00 PM 6.17 43.106 0.075 6.78 4.21 11.77
11/6/2021 10:30:00 PM 6.13 43.034 0.075 6.78 4.21 11.78
11/6/2021 10:45:00 PM 6.08 42.944 0.075 6.78 4.19 11.8
11/6/2021 11:00:00 PM 6.03 42.854 0.075 6.76 4.15 11.81
11/6/2021 11:15:00 PM 5.99 42.782 0.075 6.78 4.21 11.83
11/6/2021 11:30:00 PM 5.94 42.692 0.075 6.78 4.11 11.84
11/6/2021 11:45:00 PM 5.9 42.62 0.075 6.78 4.18 11.85
11/7/2021 12:00:00 AM 5.85 42.53 0.075 6.78 4.2 11.87
11/7/2021 12:15:00 AM 5.81 42.458 0.075 6.78 4.22 11.88
11/7/2021 12:30:00 AM 5.77 42.386 0.075 6.77 4.2 11.89
11/7/2021 12:45:00 AM 5.73 42.314 0.075 6.78 4.22 11.9
11/7/2021 1:00:00 AM 5.69 42.242 0.075 6.77 4.21 11.92
11/7/2021 1:15:00 AM 5.65 42.17 0.075 6.78 4.17 11.94
11/7/2021 1:30:00 AM 5.61 42.098 0.075 6.77 4.18 11.94
11/7/2021 1:45:00 AM 5.57 42.026 0.075 6.77 4.12 11.95
11/7/2021 2:00:00 AM 5.53 41.954 0.075 6.73 4.11 11.97
11/7/2021 2:15:00 AM 5.5 41.9 0.075 6.79 4.12 11.98
11/7/2021 2:30:00 AM 5.46 41.828 0.075 6.79 4.13 11.99
11/7/2021 2:45:00 AM 5.43 41.774 0.075 6.74 4.15 12
11/7/2021 3:00:00 AM 5.39 41.702 0.075 6.78 4.16 12.01
11/7/2021 3:15:00 AM 5.36 41.648 0.075 6.77 4.08 12.02
11/7/2021 3:30:00 AM 5.32 41.576 0.075 6.78 4.13 12.04
11/7/2021 3:45:00 AM 5.29 41.522 0.075 6.76 4.13 12.04
11/7/2021 4:00:00 AM 5.26 41.468 0.075 6.76 4.17 12.05
11/7/2021 4:15:00 AM 5.23 41.414 0.075 6.78 4.19 12.05
11/7/2021 4:30:00 AM 5.19 41.342 0.075 6.76 4.18 12.06
11/7/2021 4:45:00 AM 5.16 41.288 0.075 6.77 4.16 12.07
11/7/2021 5:00:00 AM 5.13 41.234 0.075 6.77 4.16 12.09
11/7/2021 5:15:00 AM 5.1 41.18 0.075 6.78 4.13 12.1
11/7/2021 5:30:00 AM 5.07 41.126 0.075 6.77 4.12 12.11
11/7/2021 5:45:00 AM 5.04 41.072 0.075 6.76 4.05 12.11
11/7/2021 6:00:00 AM 5.01 41.018 0.075 6.77 4.11 12.13
11/7/2021 6:15:00 AM 4.99 40.982 0.075 6.78 4.14 12.13
11/7/2021 6:30:00 AM 4.96 40.928 0.075 6.72 4.1 12.15
11/7/2021 6:45:00 AM 4.93 40.874 0.075 6.75 4.09 12.15
11/7/2021 7:00:00 AM 4.9 40.82 0.075 6.78 4.07 12.17
11/7/2021 7:15:00 AM 4.87 40.766 0.075 6.77 4.08 12.18
11/7/2021 7:30:00 AM 4.84 40.712 0.075 6.77 4.13 12.18
11/7/2021 7:45:00 AM 4.81 40.658 0.075 6.77 4.15 12.19
11/7/2021 8:00:00 AM 4.79 40.622 0.075 6.77 4.14 12.22
11/7/2021 8:15:00 AM 4.77 40.586 0.075 6.78 4.06 12.25
11/7/2021 8:30:00 AM 4.75 40.55 0.075 6.77 4.05 12.3
11/7/2021 8:45:00 AM 4.74 40.532 0.075 6.79 4.07 12.34
11/7/2021 9:00:00 AM 4.73 40.514 0.075 6.81 4.05 12.39
11/7/2021 9:15:00 AM 4.73 40.514 0.075 6.82 4.03 12.43
11/7/2021 9:30:00 AM 4.74 40.532 0.075 6.79 4.08 12.47
11/7/2021 9:45:00 AM 4.76 40.568 0.075 6.84 4.06 12.5
11/7/2021 10:00:00 AM 4.79 40.622 0.075 6.84 4 12.52
11/7/2021 10:15:00 AM 4.86 40.748 0.075 6.87 4.01 12.54
11/7/2021 10:30:00 AM 4.95 40.91 0.075 6.87 4.02 12.55
11/7/2021 10:45:00 AM 5.07 41.126 0.075 6.86 4.01 12.54
11/7/2021 11:00:00 AM 5.21 41.378 0.075 6.92 3.96 12.52
11/7/2021 11:15:00 AM 5.36 41.648 0.075 6.92 3.99 12.5
11/7/2021 11:30:00 AM 5.54 41.972 0.075 6.95 4.03 12.46
11/7/2021 11:45:00 AM 5.72 42.296 0.074 6.96 3.99 12.42
11/7/2021 12:00:00 PM 5.93 42.674 0.074 6.96 3.95 12.37
11/7/2021 12:15:00 PM 6.13 43.034 0.074 6.97 3.98 12.31
11/7/2021 12:30:00 PM 6.34 43.412 0.074 6.98 3.97 12.26
11/7/2021 12:45:00 PM 6.55 43.79 0.074 6.99 3.92 12.2
11/7/2021 1:00:00 PM 6.75 44.15 0.074 7 3.99 12.14
11/7/2021 1:15:00 PM 6.93 44.474 0.074 6.95 3.92 12.08
11/7/2021 1:30:00 PM 7.1 44.78 0.074 6.94 3.92 12.03
11/7/2021 1:45:00 PM 7.25 45.05 0.074 7.02 3.94 11.97
11/7/2021 2:00:00 PM 7.38 45.284 0.074 7.02 3.91 11.92
11/7/2021 2:15:00 PM 7.5 45.5 0.074 7.01 3.91 11.88
11/7/2021 2:30:00 PM 7.59 45.662 0.074 7.01 3.92 11.84
11/7/2021 2:45:00 PM 7.66 45.788 0.074 7.01 3.91 11.79
11/7/2021 3:00:00 PM 7.69 45.842 0.074 6.99 3.99 11.77
11/7/2021 3:15:00 PM 7.69 45.842 0.074 6.99 3.93 11.73
11/7/2021 3:30:00 PM 7.68 45.824 0.074 6.96 3.99 11.72
11/7/2021 3:45:00 PM 7.64 45.752 0.074 6.97 3.95 11.69
11/7/2021 4:00:00 PM 7.58 45.644 0.074 6.95 3.98 11.67
11/7/2021 4:15:00 PM 7.52 45.536 0.075 6.93 4 11.64
11/7/2021 4:30:00 PM 7.47 45.446 0.075 6.93 4.01 11.63
11/7/2021 4:45:00 PM 7.44 45.392 0.075 6.92 3.97 11.62
11/7/2021 5:00:00 PM 7.42 45.356 0.075 6.9 3.95 11.6
11/7/2021 5:15:00 PM 7.39 45.302 0.075 6.88 4.01 11.59
11/7/2021 5:30:00 PM 7.36 45.248 0.075 6.88 3.98 11.57
11/7/2021 5:45:00 PM 7.33 45.194 0.075 6.88 4.03 11.55
11/7/2021 6:00:00 PM 7.31 45.158 0.075 6.85 4.06 11.52
11/7/2021 6:15:00 PM 7.28 45.104 0.075 6.86 4.04 11.49
11/7/2021 6:30:00 PM 7.24 45.032 0.075 6.83 4.03 11.46
11/7/2021 6:45:00 PM 7.19 44.942 0.075 6.84 4.07 11.46
11/7/2021 7:00:00 PM 7.14 44.852 0.075 6.82 4.02 11.46
11/7/2021 7:15:00 PM 7.08 44.744 0.076 6.82 4.13 11.47
11/7/2021 7:30:00 PM 7.02 44.636 0.076 6.8 4.09 11.49
11/7/2021 7:45:00 PM 6.97 44.546 0.076 6.8 4.1 11.5
11/7/2021 8:00:00 PM 6.92 44.456 0.076 6.8 4.11 11.52
11/7/2021 8:15:00 PM 6.88 44.384 0.076 6.81 4.16 11.52
11/7/2021 8:30:00 PM 6.83 44.294 0.076 6.8 4.16 11.54
11/7/2021 8:45:00 PM 6.79 44.222 0.076 6.8 4.12 11.55
11/7/2021 9:00:00 PM 6.75 44.15 0.076 6.8 4.09 11.57
11/7/2021 9:15:00 PM 6.71 44.078 0.076 6.8 4.19 11.58
11/7/2021 9:30:00 PM 6.67 44.006 0.076 6.79 4.15 11.59
11/7/2021 9:45:00 PM 6.63 43.934 0.076 6.79 4.14 11.6
11/7/2021 10:00:00 PM 6.59 43.862 0.076 6.8 4.18 11.61
11/7/2021 10:15:00 PM 6.55 43.79 0.076 6.79 4.19 11.62
11/7/2021 10:30:00 PM 6.51 43.718 0.076 6.78 4.14 11.64
11/7/2021 10:45:00 PM 6.47 43.646 0.076 6.78 4.12 11.65
11/7/2021 11:00:00 PM 6.43 43.574 0.076 6.8 4.12 11.67
11/7/2021 11:15:00 PM 6.39 43.502 0.076 6.8 4.08 11.67
11/7/2021 11:30:00 PM 6.35 43.43 0.076 6.78 4.11 11.68
11/7/2021 11:45:00 PM 6.31 43.358 0.076 6.78 4.11 11.7
11/8/2021 12:00:00 AM 6.27 43.286 0.076 6.74 4.12 11.71
11/8/2021 12:15:00 AM 6.23 43.214 0.076 6.79 4.07 11.72
11/8/2021 12:30:00 AM 6.19 43.142 0.076 6.73 4.08 11.74
11/8/2021 12:45:00 AM 6.16 43.088 0.076 6.79 4.11 11.74
11/8/2021 1:00:00 AM 6.12 43.016 0.076 6.78 4.05 11.76
11/8/2021 1:15:00 AM 6.08 42.944 0.077 6.79 4.07 11.77
11/8/2021 1:30:00 AM 6.05 42.89 0.077 6.79 4.11 11.78
11/8/2021 1:45:00 AM 6.02 42.836 0.077 6.79 4.12 11.79
11/8/2021 2:00:00 AM 5.98 42.764 0.077 6.78 4.16 11.8
11/8/2021 2:15:00 AM 5.96 42.728 0.077 6.79 4.09 11.81
11/8/2021 2:30:00 AM 5.92 42.656 0.077 6.76 4.08 11.82
11/8/2021 2:45:00 AM 5.9 42.62 0.077 6.78 4.08 11.83
11/8/2021 3:00:00 AM 5.86 42.548 0.077 6.77 4.09 11.84
11/8/2021 3:15:00 AM 5.84 42.512 0.077 6.8 4.11 11.84
11/8/2021 3:30:00 AM 5.81 42.458 0.077 6.79 4.11 11.86
11/8/2021 3:45:00 AM 5.78 42.404 0.077 6.79 4.22 11.86
11/8/2021 4:00:00 AM 5.75 42.35 0.077 6.79 4.09 11.87
11/8/2021 4:15:00 AM 5.73 42.314 0.077 6.78 4.03 11.88
11/8/2021 4:30:00 AM 5.7 42.26 0.077 6.79 4.05 11.89
11/8/2021 4:45:00 AM 5.68 42.224 0.077 6.77 4.05 11.89
11/8/2021 5:00:00 AM 5.65 42.17 0.077 6.76 4.06 11.91
11/8/2021 5:15:00 AM 5.63 42.134 0.077 6.8 4.06 11.92
11/8/2021 5:30:00 AM 5.6 42.08 0.077 6.79 4.03 11.92
11/8/2021 5:45:00 AM 5.58 42.044 0.077 6.78 4.06 11.93
11/8/2021 6:00:00 AM 5.55 41.99 0.077 6.78 4.11 11.94
11/8/2021 6:15:00 AM 5.53 41.954 0.077 6.79 4.05 11.95
11/8/2021 6:30:00 AM 5.51 41.918 0.077 6.77 4.06 11.95
11/8/2021 6:45:00 AM 5.48 41.864 0.077 6.79 4.04 11.97
11/8/2021 7:00:00 AM 5.46 41.828 0.077 6.79 4.1 11.97
11/8/2021 7:15:00 AM 5.44 41.792 0.077 6.78 4.1 11.97
11/8/2021 7:30:00 AM 5.42 41.756 0.077 6.74 4.11 11.99
11/8/2021 7:45:00 AM 5.39 41.702 0.077 6.79 4.04 12.01
11/8/2021 8:00:00 AM 5.37 41.666 0.077 6.78 4.09 12.03
11/8/2021 8:15:00 AM 5.36 41.648 0.077 6.8 4.03 12.07
11/8/2021 8:30:00 AM 5.34 41.612 0.077 6.81 4.04 12.1
11/8/2021 8:45:00 AM 5.34 41.612 0.077 6.82 4.17 12.16
11/8/2021 9:00:00 AM 5.33 41.594 0.077 6.82 4.35 12.21
11/8/2021 9:15:00 AM 5.34 41.612 0.077 6.83 4.17 12.24
11/8/2021 9:30:00 AM 5.34 41.612 0.077 6.85 4.15 12.28
11/8/2021 9:45:00 AM 5.36 41.648 0.077 6.86 4.11 12.32
11/8/2021 10:00:00 AM 5.4 41.72 0.076 6.87 4.05 12.34
11/8/2021 10:15:00 AM 5.47 41.846 0.076 6.89 4 12.37
11/8/2021 10:30:00 AM 5.57 42.026 0.076 6.9 4.01 12.39
11/8/2021 10:45:00 AM 5.69 42.242 0.076 6.92 3.97 12.39
11/8/2021 11:00:00 AM 5.83 42.494 0.076 6.94 3.98 12.37
11/8/2021 11:15:00 AM 6 42.8 0.076 6.96 3.94 12.35
11/8/2021 11:30:00 AM 6.18 43.124 0.076 6.98 3.92 12.32
11/8/2021 11:45:00 AM 6.37 43.466 0.076 6.99 3.94 12.27
11/8/2021 12:00:00 PM 6.58 43.844 0.076 6.99 3.96 12.22
11/8/2021 12:15:00 PM 6.8 44.24 0.076 7.01 3.94 12.17
11/8/2021 12:30:00 PM 7.03 44.654 0.076 7.01 4.01 12.11
11/8/2021 12:45:00 PM 7.26 45.068 0.076 7 3.94 12.05
11/8/2021 1:00:00 PM 7.47 45.446 0.076 7.05 3.93 11.99
11/8/2021 1:15:00 PM 7.68 45.824 0.076 7.03 3.85 11.93
11/8/2021 1:30:00 PM 7.86 46.148 0.076 7.04 3.87 11.87
11/8/2021 1:45:00 PM 8.03 46.454 0.076 6.99 3.88 11.81
11/8/2021 2:00:00 PM 8.17 46.706 0.076 7.06 3.88 11.76
11/8/2021 2:15:00 PM 8.3 46.94 0.076 7.06 3.9 11.71
11/8/2021 2:30:00 PM 8.41 47.138 0.076 7.07 3.92 11.66
11/8/2021 2:45:00 PM 8.49 47.282 0.076 7.05 3.95 11.62
11/8/2021 3:00:00 PM 8.53 47.354 0.076 7.05 3.9 11.59
11/8/2021 3:15:00 PM 8.54 47.372 0.076 7.05 3.92 11.56
11/8/2021 3:30:00 PM 8.53 47.354 0.076 7.04 3.91 11.53
11/8/2021 3:45:00 PM 8.49 47.282 0.076 6.96 3.91 11.5
11/8/2021 4:00:00 PM 8.42 47.156 0.076 7 3.92 11.47
11/8/2021 4:15:00 PM 8.36 47.048 0.076 6.98 3.92 11.44
11/8/2021 4:30:00 PM 8.32 46.976 0.076 6.92 3.92 11.43
11/8/2021 4:45:00 PM 8.28 46.904 0.076 6.95 3.92 11.42
11/8/2021 5:00:00 PM 8.25 46.85 0.076 6.95 3.97 11.4
11/8/2021 5:15:00 PM 8.22 46.796 0.076 6.92 3.94 11.39
11/8/2021 5:30:00 PM 8.18 46.724 0.076 6.92 3.96 11.37
11/8/2021 5:45:00 PM 8.15 46.67 0.076 6.9 3.96 11.34
11/8/2021 6:00:00 PM 8.12 46.616 0.076 6.88 3.95 11.3
11/8/2021 6:15:00 PM 8.09 46.562 0.076 6.88 3.98 11.27
11/8/2021 6:30:00 PM 8.06 46.508 0.077 6.85 4.01 11.24
11/8/2021 6:45:00 PM 8.02 46.436 0.077 6.85 4.02 11.24
11/8/2021 7:00:00 PM 7.97 46.346 0.077 6.84 4.08 11.23
11/8/2021 7:15:00 PM 7.92 46.256 0.077 6.79 4.01 11.24
11/8/2021 7:30:00 PM 7.87 46.166 0.077 6.82 4.08 11.25
11/8/2021 7:45:00 PM 7.81 46.058 0.077 6.83 4.09 11.26
11/8/2021 8:00:00 PM 7.76 45.968 0.077 6.82 4.08 11.28
11/8/2021 8:15:00 PM 7.71 45.878 0.077 6.8 4.1 11.28
11/8/2021 8:30:00 PM 7.66 45.788 0.077 6.82 4.08 11.29
11/8/2021 8:45:00 PM 7.61 45.698 0.077 6.82 4.13 11.31
11/8/2021 9:00:00 PM 7.57 45.626 0.077 6.82 4.09 11.32
11/8/2021 9:15:00 PM 7.52 45.536 0.077 6.8 4.13 11.33
11/8/2021 9:30:00 PM 7.47 45.446 0.077 6.81 4.07 11.34
11/8/2021 9:45:00 PM 7.43 45.374 0.077 6.79 4.06 11.36
11/8/2021 10:00:00 PM 7.39 45.302 0.078 6.8 4.05 11.37
11/8/2021 10:15:00 PM 7.34 45.212 0.078 6.81 4.05 11.38
11/8/2021 10:30:00 PM 7.3 45.14 0.078 6.78 4.02 11.39
11/8/2021 10:45:00 PM 7.26 45.068 0.078 6.82 4 11.41
11/8/2021 11:00:00 PM 7.22 44.996 0.078 6.8 4.07 11.42
11/8/2021 11:15:00 PM 7.18 44.924 0.078 6.81 4.01 11.43
11/8/2021 11:30:00 PM 7.14 44.852 0.078 6.81 4.02 11.44
11/8/2021 11:45:00 PM 7.1 44.78 0.078 6.8 4.06 11.45
11/9/2021 12:00:00 AM 7.06 44.708 0.078 6.81 3.99 11.46
11/9/2021 12:15:00 AM 7.02 44.636 0.078 6.8 4.05 11.48
11/9/2021 12:30:00 AM 6.98 44.564 0.078 6.81 4.07 11.49
11/9/2021 12:45:00 AM 6.94 44.492 0.078 6.79 4.08 11.49
11/9/2021 1:00:00 AM 6.9 44.42 0.078 6.79 4.06 11.51
11/9/2021 1:15:00 AM 6.87 44.366 0.078 6.81 4.1 11.52
11/9/2021 1:30:00 AM 6.83 44.294 0.078 6.79 4.05 11.53
11/9/2021 1:45:00 AM 6.79 44.222 0.078 6.8 4.08 11.54
11/9/2021 2:00:00 AM 6.76 44.168 0.078 6.8 4.02 11.55
11/9/2021 2:15:00 AM 6.72 44.096 0.078 6.8 4.03 11.56
11/9/2021 2:30:00 AM 6.68 44.024 0.078 6.8 4.02 11.56
11/9/2021 2:45:00 AM 6.65 43.97 0.078 6.79 4 11.58
11/9/2021 3:00:00 AM 6.61 43.898 0.078 6.79 3.96 11.59
11/9/2021 3:15:00 AM 6.58 43.844 0.078 6.8 4.04 11.6
11/9/2021 3:30:00 AM 6.55 43.79 0.078 6.75 3.99 11.61
11/9/2021 3:45:00 AM 6.52 43.736 0.078 6.79 4.06 11.62
11/9/2021 4:00:00 AM 6.5 43.7 0.078 6.8 4.1 11.62
11/9/2021 4:15:00 AM 6.48 43.664 0.078 6.8 3.99 11.63
11/9/2021 4:30:00 AM 6.46 43.628 0.078 6.81 3.98 11.64
11/9/2021 4:45:00 AM 6.44 43.592 0.078 6.81 3.92 11.65
11/9/2021 5:00:00 AM 6.41 43.538 0.078 6.81 4 11.65
11/9/2021 5:15:00 AM 6.38 43.484 0.078 6.8 3.93 11.66
11/9/2021 5:30:00 AM 6.36 43.448 0.078 6.8 4.02 11.67
11/9/2021 5:45:00 AM 6.33 43.394 0.078 6.79 3.93 11.67
11/9/2021 6:00:00 AM 6.31 43.358 0.078 6.8 3.97 11.68
11/9/2021 6:15:00 AM 6.29 43.322 0.078 6.73 3.99 11.69
11/9/2021 6:30:00 AM 6.26 43.268 0.078 6.77 3.97 11.7
11/9/2021 6:45:00 AM 6.24 43.232 0.078 6.79 3.95 11.7
11/9/2021 7:00:00 AM 6.22 43.196 0.078 6.79 3.94 11.72
11/9/2021 7:15:00 AM 6.2 43.16 0.078 6.8 3.97 11.72
11/9/2021 7:30:00 AM 6.18 43.124 0.078 6.79 3.95 11.73
11/9/2021 7:45:00 AM 6.16 43.088 0.078 6.79 4 11.74
11/9/2021 8:00:00 AM 6.14 43.052 0.078 6.8 3.94 11.76
11/9/2021 8:15:00 AM 6.13 43.034 0.078 6.81 3.98 11.81
11/9/2021 8:30:00 AM 6.13 43.034 0.078 6.82 3.95 11.86
11/9/2021 8:45:00 AM 6.13 43.034 0.078 6.83 3.91 11.91
11/9/2021 9:00:00 AM 6.13 43.034 0.078 6.85 3.9 11.97
11/9/2021 9:15:00 AM 6.13 43.034 0.078 6.87 3.92 12.03
11/9/2021 9:30:00 AM 6.15 43.07 0.078 6.88 3.87 12.07
11/9/2021 9:45:00 AM 6.18 43.124 0.078 6.84 3.92 12.12
11/9/2021 10:00:00 AM 6.22 43.196 0.078 6.92 3.88 12.15
11/9/2021 10:15:00 AM 6.29 43.322 0.078 6.94 3.89 12.18
11/9/2021 10:30:00 AM 6.39 43.502 0.078 6.96 3.9 12.19
11/9/2021 10:45:00 AM 6.51 43.718 0.078 6.97 3.86 12.19
11/9/2021 11:00:00 AM 6.65 43.97 0.077 7 3.84 12.18
11/9/2021 11:15:00 AM 6.81 44.258 0.077 7.02 3.84 12.16
11/9/2021 11:30:00 AM 6.98 44.564 0.077 7.03 3.91 12.14
11/9/2021 11:45:00 AM 7.16 44.888 0.077 7.05 3.87 12.1
11/9/2021 12:00:00 PM 7.37 45.266 0.077 7.07 3.84 12.06
11/9/2021 12:15:00 PM 7.59 45.662 0.077 7.08 3.83 12.03
11/9/2021 12:30:00 PM 7.72 45.896 0.077 7.05 3.87 11.99
11/9/2021 12:45:00 PM 7.84 46.112 0.077 7.11 3.81 11.95
11/9/2021 1:00:00 PM 8.01 46.418 0.077 7.12 3.81 11.9
11/9/2021 1:15:00 PM 8.16 46.688 0.077 7.12 3.83 11.85
11/9/2021 1:30:00 PM 8.37 47.066 0.077 7.13 3.82 11.81
11/9/2021 1:45:00 PM 8.6 47.48 0.077 7.15 3.84 11.77
11/9/2021 2:00:00 PM 8.89 48.002 0.076 7.17 3.83 11.72
11/9/2021 2:15:00 PM 9.07 48.326 0.076 7.18 3.84 11.68
11/9/2021 2:30:00 PM 9.17 48.506 0.076 7.19 3.84 11.64
11/9/2021 2:45:00 PM 9.25 48.65 0.076 7.19 3.85 11.61
11/9/2021 3:00:00 PM 9.32 48.776 0.076 7.2 3.83 11.58
11/9/2021 3:15:00 PM 9.36 48.848 0.076 7.18 3.8 11.54
11/9/2021 3:30:00 PM 9.36 48.848 0.076 7.16 3.85 11.48
11/9/2021 3:45:00 PM 9.36 48.848 0.076 7.16 3.82 11.45
11/9/2021 4:00:00 PM 9.36 48.848 0.076 7.16 3.82 11.44
11/9/2021 4:15:00 PM 9.35 48.83 0.076 7.14 3.88 11.44
11/9/2021 4:30:00 PM 9.33 48.794 0.076 7.13 3.89 11.43
11/9/2021 4:45:00 PM 9.3 48.74 0.076 7.08 3.88 11.4
11/9/2021 5:00:00 PM 9.28 48.704 0.076 7.09 3.93 11.35
11/9/2021 5:15:00 PM 9.25 48.65 0.077 7.06 3.89 11.28
11/9/2021 5:30:00 PM 9.22 48.596 0.077 7.01 3.85 11.18
11/9/2021 5:45:00 PM 9.19 48.542 0.077 6.98 3.9 11.09
11/9/2021 6:00:00 PM 9.15 48.47 0.077 6.95 3.87 11.02
11/9/2021 6:15:00 PM 9.13 48.434 0.077 6.9 3.9 10.98
11/9/2021 6:30:00 PM 9.1 48.38 0.077 6.89 3.93 10.93
11/9/2021 6:45:00 PM 9.08 48.344 0.078 6.87 3.96 10.91
11/9/2021 7:00:00 PM 9.06 48.308 0.078 6.86 4.01 10.91
11/9/2021 7:15:00 PM 9.04 48.272 0.078 6.85 3.99 10.9
11/9/2021 7:30:00 PM 9.02 48.236 0.078 6.83 3.98 10.9
11/9/2021 7:45:00 PM 9 48.2 0.078 6.84 4.08 10.9
11/9/2021 8:00:00 PM 8.98 48.164 0.078 6.83 4 10.9
11/9/2021 8:15:00 PM 8.96 48.128 0.078 6.83 3.95 10.91
11/9/2021 8:30:00 PM 8.94 48.092 0.078 6.82 3.97 10.91
11/9/2021 8:45:00 PM 8.92 48.056 0.078 6.82 3.98 10.91
11/9/2021 9:00:00 PM 8.91 48.038 0.078 6.83 3.97 10.91
11/9/2021 9:15:00 PM 8.9 48.02 0.078 6.81 4 10.92
11/9/2021 9:30:00 PM 8.89 48.002 0.078 6.82 4 10.91
11/9/2021 9:45:00 PM 8.88 47.984 0.079 6.82 4.03 10.92
11/9/2021 10:00:00 PM 8.85 47.93 0.079 6.81 3.94 10.91
11/9/2021 10:15:00 PM 8.83 47.894 0.079 6.82 3.95 10.93
11/9/2021 10:30:00 PM 8.81 47.858 0.079 6.81 3.97 10.92
11/9/2021 10:45:00 PM 8.79 47.822 0.079 6.8 3.97 10.93
11/9/2021 11:00:00 PM 8.76 47.768 0.079 6.82 3.98 10.94
11/9/2021 11:15:00 PM 8.72 47.696 0.079 6.77 4 10.94
11/9/2021 11:30:00 PM 8.67 47.606 0.079 6.81 3.99 10.95
11/9/2021 11:45:00 PM 8.63 47.534 0.079 6.81 3.95 10.96
11/10/2021 12:00:00 AM 8.6 47.48 0.079 6.81 4 10.97
11/10/2021 12:15:00 AM 8.58 47.444 0.079 6.82 3.99 10.98
11/10/2021 12:30:00 AM 8.55 47.39 0.079 6.82 3.98 10.98
11/10/2021 12:45:00 AM 8.52 47.336 0.079 6.82 3.94 10.99
11/10/2021 1:00:00 AM 8.5 47.3 0.079 6.81 3.98 10.99
11/10/2021 1:15:00 AM 8.48 47.264 0.079 6.83 3.97 11
11/10/2021 1:30:00 AM 8.46 47.228 0.079 6.82 3.95 11
11/10/2021 1:45:00 AM 8.44 47.192 0.079 6.83 4 11.01
11/10/2021 2:00:00 AM 8.41 47.138 0.079 6.82 3.99 11.01
11/10/2021 2:15:00 AM 8.4 47.12 0.079 6.81 3.91 11.02
11/10/2021 2:30:00 AM 8.38 47.084 0.079 6.82 4 11.02
11/10/2021 2:45:00 AM 8.35 47.03 0.079 6.82 3.95 11.02
11/10/2021 3:00:00 AM 8.34 47.012 0.079 6.83 3.93 11.04
11/10/2021 3:15:00 AM 8.33 46.994 0.079 6.83 3.98 11.04
11/10/2021 3:30:00 AM 8.33 46.994 0.079 6.82 4.04 11.04
11/10/2021 3:45:00 AM 8.32 46.976 0.079 6.84 4.06 11.04
11/10/2021 4:00:00 AM 8.32 46.976 0.079 6.83 3.95 11.05
11/10/2021 4:15:00 AM 8.32 46.976 0.079 6.84 3.97 11.05
11/10/2021 4:30:00 AM 8.32 46.976 0.079 6.83 3.98 11.05
11/10/2021 4:45:00 AM 8.32 46.976 0.079 6.85 3.92 11.05
11/10/2021 5:00:00 AM 8.32 46.976 0.079 6.84 3.97 11.05
11/10/2021 5:15:00 AM 8.33 46.994 0.079 6.84 3.95 11.05
11/10/2021 5:30:00 AM 8.33 46.994 0.079 6.83 3.96 11.06
11/10/2021 5:45:00 AM 8.34 47.012 0.079 6.85 4 11.06
11/10/2021 6:00:00 AM 8.34 47.012 0.079 6.83 3.92 11.06
11/10/2021 6:15:00 AM 8.35 47.03 0.079 6.84 3.96 11.05
11/10/2021 6:30:00 AM 8.36 47.048 0.079 6.85 3.93 11.06
11/10/2021 6:45:00 AM 8.38 47.084 0.079 6.85 3.93 11.06
11/10/2021 7:00:00 AM 8.39 47.102 0.079 6.86 3.98 11.05
11/10/2021 7:15:00 AM 8.4 47.12 0.079 6.85 4 11.06
11/10/2021 7:30:00 AM 8.41 47.138 0.079 6.88 3.97 11.06
11/10/2021 7:45:00 AM 8.42 47.156 0.079 6.88 3.93 11.06
11/10/2021 8:00:00 AM 8.42 47.156 0.079 6.89 4.01 11.07
11/10/2021 8:15:00 AM 8.42 47.156 0.079 6.9 3.93 11.09
11/10/2021 8:30:00 AM 8.42 47.156 0.079 6.9 3.94 11.15
11/10/2021 8:45:00 AM 8.4 47.12 0.079 6.91 3.9 11.23
11/10/2021 9:00:00 AM 8.4 47.12 0.079 6.93 3.95 11.33
11/10/2021 9:15:00 AM 8.4 47.12 0.079 6.96 3.97 11.41
11/10/2021 9:30:00 AM 8.4 47.12 0.079 6.98 3.9 11.47
11/10/2021 9:45:00 AM 8.39 47.102 0.079 7.01 3.91 11.49
11/10/2021 10:00:00 AM 8.39 47.102 0.079 6.96 3.86 11.53
11/10/2021 10:15:00 AM 8.41 47.138 0.079 7.03 3.86 11.56
11/10/2021 10:30:00 AM 8.45 47.21 0.079 7.04 3.85 11.59
11/10/2021 10:45:00 AM 8.52 47.336 0.079 7.08 3.91 11.62
11/10/2021 11:00:00 AM 8.61 47.498 0.078 7.09 3.89 11.62
11/10/2021 11:15:00 AM 8.72 47.696 0.078 7.1 3.89 11.63
11/10/2021 11:30:00 AM 8.83 47.894 0.078 7.13 3.87 11.62
11/10/2021 11:45:00 AM 8.96 48.128 0.078 7.14 3.86 11.61
11/10/2021 12:00:00 PM 9.09 48.362 0.078 7.16 3.83 11.58
11/10/2021 12:15:00 PM 9.23 48.614 0.078 7.17 3.87 11.56
11/10/2021 12:30:00 PM 9.39 48.902 0.078 7.18 3.85 11.52
11/10/2021 12:45:00 PM 9.52 49.136 0.078 7.18 3.8 11.5
11/10/2021 1:00:00 PM 9.66 49.388 0.078 7.2 3.79 11.46
11/10/2021 1:15:00 PM 9.78 49.604 0.078 7.21 3.8 11.42
11/10/2021 1:30:00 PM 9.87 49.766 0.078 7.2 3.79 11.39
11/10/2021 1:45:00 PM 9.95 49.91 0.078 7.13 3.78 11.36
11/10/2021 2:00:00 PM 10.03 50.054 0.078 7.21 3.81 11.32
11/10/2021 2:15:00 PM 10.08 50.144 0.078 7.2 3.86 11.29
11/10/2021 2:30:00 PM 10.11 50.198 0.078 7.2 3.82 11.28
11/10/2021 2:45:00 PM 10.12 50.216 0.078 7.2 3.79 11.28
11/10/2021 3:00:00 PM 10.11 50.198 0.078 7.18 3.83 11.25
11/10/2021 3:15:00 PM 10.06 50.108 0.078 7.17 3.85 11.23
11/10/2021 3:30:00 PM 9.99 49.982 0.078 7.08 3.85 11.21
11/10/2021 3:45:00 PM 9.9 49.82 0.078 7.14 3.85 11.19
11/10/2021 4:00:00 PM 9.77 49.586 0.078 7.11 3.85 11.16
11/10/2021 4:15:00 PM 9.66 49.388 0.078 7.01 3.87 11.14
11/10/2021 4:30:00 PM 9.55 49.19 0.078 7.07 3.8 11.13
11/10/2021 4:45:00 PM 9.46 49.028 0.078 7.02 3.86 11.12
11/10/2021 5:00:00 PM 9.38 48.884 0.078 7.02 3.9 11.11
11/10/2021 5:15:00 PM 9.29 48.722 0.078 7.01 3.85 11.1
11/10/2021 5:30:00 PM 9.21 48.578 0.079 6.96 3.89 11.09
11/10/2021 5:45:00 PM 9.13 48.434 0.079 6.94 3.9 11.06
11/10/2021 6:00:00 PM 9.06 48.308 0.079 6.97 3.91 11.03
11/10/2021 6:15:00 PM 8.99 48.182 0.079 6.95 3.84 11
11/10/2021 6:30:00 PM 8.93 48.074 0.079 6.93 3.96 10.99
11/10/2021 6:45:00 PM 8.85 47.93 0.079 6.92 3.96 10.98
11/10/2021 7:00:00 PM 8.78 47.804 0.079 6.92 3.92 10.98
11/10/2021 7:15:00 PM 8.7 47.66 0.079 6.9 3.95 11
11/10/2021 7:30:00 PM 8.63 47.534 0.08 6.89 3.94 11.02
11/10/2021 7:45:00 PM 8.56 47.408 0.08 6.9 3.97 11.03
11/10/2021 8:00:00 PM 8.48 47.264 0.08 6.9 3.98 11.05
11/10/2021 8:15:00 PM 8.41 47.138 0.08 6.89 4 11.07
11/10/2021 8:30:00 PM 8.34 47.012 0.08 6.85 3.94 11.09
11/10/2021 8:45:00 PM 8.27 46.886 0.08 6.89 7.96 11.11
11/10/2021 9:00:00 PM 8.2 46.76 0.08 6.89 3.95 11.13
11/10/2021 9:15:00 PM 8.13 46.634 0.08 6.89 3.91 11.15
11/10/2021 9:30:00 PM 8.06 46.508 0.08 6.88 3.88 11.17
11/10/2021 9:45:00 PM 7.99 46.382 0.08 6.88 3.91 11.18
11/10/2021 10:00:00 PM 7.92 46.256 0.08 6.89 3.9 11.21
11/10/2021 10:15:00 PM 7.86 46.148 0.08 6.89 3.92 11.23
11/10/2021 10:30:00 PM 7.8 46.04 0.08 6.81 3.88 11.24
11/10/2021 10:45:00 PM 7.74 45.932 0.08 6.88 3.93 11.26
11/10/2021 11:00:00 PM 7.68 45.824 0.08 6.89 3.88 11.28
11/10/2021 11:15:00 PM 7.62 45.716 0.08 6.88 3.91 11.3
11/10/2021 11:30:00 PM 7.56 45.608 0.08 6.88 3.98 11.32
11/10/2021 11:45:00 PM 7.5 45.5 0.08 6.88 3.91 11.33
11/11/2021 12:00:00 AM 7.45 45.41 0.08 6.88 3.92 11.35
11/11/2021 12:15:00 AM 7.39 45.302 0.08 6.88 3.85 11.36
11/11/2021 12:30:00 AM 7.34 45.212 0.08 6.87 3.88 11.38
11/11/2021 12:45:00 AM 7.28 45.104 0.08 6.87 3.92 11.4
11/11/2021 1:00:00 AM 7.22 44.996 0.08 6.86 3.89 11.41
11/11/2021 1:15:00 AM 7.17 44.906 0.08 6.87 3.86 11.43
11/11/2021 1:30:00 AM 7.11 44.798 0.08 6.87 3.94 11.44
11/11/2021 1:45:00 AM 7.06 44.708 0.08 6.86 3.89 11.46
11/11/2021 2:00:00 AM 7.01 44.618 0.08 6.87 3.89 11.48
11/11/2021 2:15:00 AM 6.96 44.528 0.08 6.87 3.86 11.49
11/11/2021 2:30:00 AM 6.91 44.438 0.08 6.88 3.92 11.5
11/11/2021 2:45:00 AM 6.86 44.348 0.081 6.88 3.91 11.52
11/11/2021 3:00:00 AM 6.82 44.276 0.081 6.86 3.9 11.53
11/11/2021 3:15:00 AM 6.77 44.186 0.081 6.84 3.93 11.54
11/11/2021 3:30:00 AM 6.73 44.114 0.081 6.88 3.92 11.55
11/11/2021 3:45:00 AM 6.69 44.042 0.081 6.88 3.85 11.57
11/11/2021 4:00:00 AM 6.66 43.988 0.081 6.88 3.89 11.58
11/11/2021 4:15:00 AM 6.64 43.952 0.081 6.88 3.97 11.59
11/11/2021 4:30:00 AM 6.62 43.916 0.081 6.88 3.93 11.59
11/11/2021 4:45:00 AM 6.59 43.862 0.081 6.87 3.91 11.6
11/11/2021 5:00:00 AM 6.56 43.808 0.081 6.87 3.89 11.61
11/11/2021 5:15:00 AM 6.55 43.79 0.081 6.87 3.94 11.61
11/11/2021 5:30:00 AM 6.53 43.754 0.081 6.88 3.95 11.62
11/11/2021 5:45:00 AM 6.51 43.718 0.081 6.84 3.99 11.63
11/11/2021 6:00:00 AM 6.47 43.646 0.081 6.88 3.95 11.63
11/11/2021 6:15:00 AM 6.44 43.592 0.081 6.83 4.48 11.64
11/11/2021 6:30:00 AM 6.41 43.538 0.081 6.87 3.92 11.65
11/11/2021 6:45:00 AM 6.38 43.484 0.081 6.87 3.92 11.66
11/11/2021 7:00:00 AM 6.36 43.448 0.081 6.87 3.93 11.67
11/11/2021 7:15:00 AM 6.34 43.412 0.081 6.86 4.22 11.68
11/11/2021 7:30:00 AM 6.32 43.376 0.081 6.87 3.9 11.68
11/11/2021 7:45:00 AM 6.29 43.322 0.081 6.87 3.86 11.69
11/11/2021 8:00:00 AM 6.26 43.268 0.081 6.87 3.89 11.7
11/11/2021 8:15:00 AM 6.25 43.25 0.081 6.87 4.03 11.74
11/11/2021 8:30:00 AM 6.23 43.214 0.081 6.89 3.86 11.79
11/11/2021 8:45:00 AM 6.21 43.178 0.081 6.91 3.84 11.86
11/11/2021 9:00:00 AM 6.21 43.178 0.08 6.92 3.88 11.94
11/11/2021 9:15:00 AM 6.22 43.196 0.08 6.94 3.85 12.05
11/11/2021 9:30:00 AM 6.26 43.268 0.08 6.97 3.81 12.15
11/11/2021 9:45:00 AM 6.29 43.322 0.08 7.01 3.84 12.2
11/11/2021 10:00:00 AM 6.33 43.394 0.08 7.02 3.81 12.24
11/11/2021 10:15:00 AM 6.4 43.52 0.08 7.05 3.8 12.28
11/11/2021 10:30:00 AM 6.48 43.664 0.08 7.07 3.8 12.3
11/11/2021 10:45:00 AM 6.58 43.844 0.079 7.09 3.79 12.31
11/11/2021 11:00:00 AM 6.7 44.06 0.079 7.13 3.77 12.31
11/11/2021 11:15:00 AM 6.81 44.258 0.079 7.08 3.78 12.3
11/11/2021 11:30:00 AM 6.91 44.438 0.079 7.16 3.74 12.28
11/11/2021 11:45:00 AM 7.01 44.618 0.079 7.18 3.83 12.26
11/11/2021 12:00:00 PM 7.11 44.798 0.079 7.18 3.76 12.23
11/11/2021 12:15:00 PM 7.18 44.924 0.079 7.15 3.77 12.2
11/11/2021 12:30:00 PM 7.26 45.068 0.079 7.19 3.78 12.18
11/11/2021 12:45:00 PM 7.36 45.248 0.079 7.21 3.72 12.16
11/11/2021 1:00:00 PM 7.45 45.41 0.079 7.22 3.8 12.14
11/11/2021 1:15:00 PM 7.54 45.572 0.079 7.19 3.74 12.12
11/11/2021 1:30:00 PM 7.65 45.77 0.079 7.25 3.74 12.11
11/11/2021 1:45:00 PM 7.75 45.95 0.079 7.24 3.78 12.07
11/11/2021 2:00:00 PM 7.82 46.076 0.079 7.26 3.73 12.03
11/11/2021 2:15:00 PM 7.89 46.202 0.079 7.26 3.73 12
11/11/2021 2:30:00 PM 7.96 46.328 0.078 7.26 3.75 11.99
11/11/2021 2:45:00 PM 8.03 46.454 0.078 7.26 3.76 11.95
11/11/2021 3:00:00 PM 8.08 46.544 0.078 7.25 3.74 11.92
11/11/2021 3:15:00 PM 8.14 46.652 0.078 7.26 3.72 11.89
11/11/2021 3:30:00 PM 8.2 46.76 0.078 7.25 3.76 11.87
11/11/2021 3:45:00 PM 8.26 46.868 0.078 7.25 3.76 11.86
11/11/2021 4:00:00 PM 8.3 46.94 0.078 7.25 3.77 11.82
11/11/2021 4:15:00 PM 8.31 46.958 0.079 7.23 3.75 11.75
11/11/2021 4:30:00 PM 8.32 46.976 0.079 7.2 3.74 11.7
11/11/2021 4:45:00 PM 8.32 46.976 0.079 7.18 3.76 11.66
11/11/2021 5:00:00 PM 8.33 46.994 0.079 7.16 3.79 11.61
11/11/2021 5:15:00 PM 8.33 46.994 0.079 7.14 3.78 11.54
11/11/2021 5:30:00 PM 8.32 46.976 0.079 7.09 3.77 11.46
11/11/2021 5:45:00 PM 8.3 46.94 0.079 7.07 3.8 11.36
11/11/2021 6:00:00 PM 8.28 46.904 0.079 6.97 3.78 11.28
11/11/2021 6:15:00 PM 8.25 46.85 0.079 7.01 3.79 11.2
11/11/2021 6:30:00 PM 8.23 46.814 0.08 6.99 3.8 11.16
11/11/2021 6:45:00 PM 8.24 46.832 0.08 6.98 3.81 11.14
11/11/2021 7:00:00 PM 8.26 46.868 0.08 6.96 3.86 11.11
11/11/2021 7:15:00 PM 8.28 46.904 0.08 6.93 3.83 11.09
11/11/2021 7:30:00 PM 8.29 46.922 0.08 6.95 3.86 11.08
11/11/2021 7:45:00 PM 8.3 46.94 0.08 6.96 3.83 11.07
11/11/2021 8:00:00 PM 8.32 46.976 0.08 6.93 3.87 11.06
11/11/2021 8:15:00 PM 8.34 47.012 0.08 6.89 4.38 11.05
11/11/2021 8:30:00 PM 8.36 47.048 0.08 6.96 3.92 11.04
11/11/2021 8:45:00 PM 8.38 47.084 0.08 6.94 3.87 11.03
11/11/2021 9:00:00 PM 8.39 47.102 0.08 6.94 3.83 11.02
11/11/2021 9:15:00 PM 8.42 47.156 0.08 6.93 3.87 11.01
11/11/2021 9:30:00 PM 8.43 47.174 0.081 6.9 3.84 11
11/11/2021 9:45:00 PM 8.46 47.228 0.081 6.94 3.82 10.99
11/11/2021 10:00:00 PM 8.48 47.264 0.081 6.94 3.84 10.98
11/11/2021 10:15:00 PM 8.5 47.3 0.081 6.94 3.82 10.98
11/11/2021 10:30:00 PM 8.53 47.354 0.081 6.93 3.82 10.97
11/11/2021 10:45:00 PM 8.55 47.39 0.081 6.94 3.83 10.96
11/11/2021 11:00:00 PM 8.57 47.426 0.081 6.94 3.88 10.95
11/11/2021 11:15:00 PM 8.59 47.462 0.081 6.92 3.87 10.95
11/11/2021 11:30:00 PM 8.6 47.48 0.081 6.94 3.88 10.94
11/11/2021 11:45:00 PM 8.61 47.498 0.081 6.86 3.87 10.93
11/12/2021 12:00:00 AM 8.63 47.534 0.081 6.93 3.86 10.92
11/12/2021 12:15:00 AM 8.65 47.57 0.08 6.94 3.9 10.91
11/12/2021 12:30:00 AM 8.68 47.624 0.08 6.9 3.95 10.9
11/12/2021 12:45:00 AM 8.7 47.66 0.08 6.9 3.9 10.89
11/12/2021 1:00:00 AM 8.73 47.714 0.08 6.94 3.95 10.88
11/12/2021 1:15:00 AM 8.77 47.786 0.08 6.92 3.94 10.87
11/12/2021 1:30:00 AM 8.8 47.84 0.08 6.9 3.97 10.86
11/12/2021 1:45:00 AM 8.83 47.894 0.08 6.9 3.97 10.84
11/12/2021 2:00:00 AM 8.86 47.948 0.08 6.94 3.94 10.83
11/12/2021 2:15:00 AM 8.89 48.002 0.08 6.94 4.04 10.82
11/12/2021 2:30:00 AM 8.93 48.074 0.08 6.92 3.99 10.81
11/12/2021 2:45:00 AM 8.96 48.128 0.08 6.91 3.92 10.8
11/12/2021 3:00:00 AM 9 48.2 0.08 6.93 3.96 10.78
11/12/2021 3:15:00 AM 9.04 48.272 0.08 6.93 3.95 10.78
11/12/2021 3:30:00 AM 9.08 48.344 0.08 6.95 3.99 10.76
11/12/2021 3:45:00 AM 9.11 48.398 0.08 6.94 3.99 10.75
11/12/2021 4:00:00 AM 9.15 48.47 0.08 6.94 4.06 10.74
11/12/2021 4:15:00 AM 9.19 48.542 0.079 6.94 4.26 10.74
11/12/2021 4:30:00 AM 9.22 48.596 0.078 6.94 4.51 10.73
11/12/2021 4:45:00 AM 9.25 48.65 0.078 6.94 4.74 10.72
11/12/2021 5:00:00 AM 9.28 48.704 0.077 6.92 5.04 10.71
11/12/2021 5:15:00 AM 9.29 48.722 0.077 6.92 5.46 10.71
11/12/2021 5:30:00 AM 9.3 48.74 0.076 6.84 6.08 10.7
11/12/2021 5:45:00 AM 9.31 48.758 0.076 6.87 6.7 10.7
11/12/2021 6:00:00 AM 9.31 48.758 0.076 6.88 7.19 10.71
11/12/2021 6:15:00 AM 9.31 48.758 0.075 6.83 7.75 10.71
11/12/2021 6:30:00 AM 9.31 48.758 0.074 6.84 8.51 10.72
11/12/2021 6:45:00 AM 9.31 48.758 0.074 6.78 9.83 10.73
11/12/2021 7:00:00 AM 9.32 48.776 0.074 6.82 12.05 10.73
11/12/2021 7:15:00 AM 9.32 48.776 0.073 6.8 15.56 10.74
11/12/2021 7:30:00 AM 9.33 48.794 0.07 6.79 16.49 10.75
11/12/2021 7:45:00 AM 9.35 48.83 0.069 6.69 18.93 10.76
11/12/2021 8:00:00 AM 9.35 48.83 0.068 6.74 25.57 10.76
11/12/2021 8:15:00 AM 9.35 48.83 0.067 6.72 29.19 10.77
11/12/2021 8:30:00 AM 9.34 48.812 0.068 6.72 27.8 10.79
11/12/2021 8:45:00 AM 9.32 48.776 0.07 6.74 27.54 10.81
11/12/2021 9:00:00 AM 9.3 48.74 0.073 6.78 27.96 10.83
11/12/2021 9:15:00 AM 9.26 48.668 0.078 6.81 28.8 10.85
11/12/2021 9:30:00 AM 9.21 48.578 0.082 6.84 27.34 10.89
11/12/2021 9:45:00 AM 9.18 48.524 0.085 6.86 34.08 10.93
11/12/2021 10:00:00 AM 9.16 48.488 0.086 6.9 24.19 10.96
11/12/2021 10:15:00 AM 9.16 48.488 0.087 6.92 26.13 10.99
11/12/2021 10:30:00 AM 9.17 48.506 0.088 6.95 27.09 11.01
11/12/2021 10:45:00 AM 9.19 48.542 0.089 6.91 27.03 11.03
11/12/2021 11:00:00 AM 9.23 48.614 0.09 6.98 24.13 11.06
11/12/2021 11:15:00 AM 9.25 48.65 0.09 6.97 26.38 11.06
11/12/2021 11:30:00 AM 9.24 48.632 0.089 6.99 25.34 11.05
11/12/2021 11:45:00 AM 9.28 48.704 0.088 7 23.93 11.08
11/12/2021 12:00:00 PM 9.36 48.848 0.088 7.02 23.77 11.09
11/12/2021 12:15:00 PM 9.44 48.992 0.087 7.02 21.44 11.09
11/12/2021 12:30:00 PM 9.5 49.1 0.086 7.03 19.34 11.1
11/12/2021 12:45:00 PM 9.56 49.208 0.086 7.04 18.45 11.09
11/12/2021 1:00:00 PM 9.63 49.334 0.085 7.03 17.93 11.08
11/12/2021 1:15:00 PM 9.69 49.442 0.085 7 16.62 11.08
11/12/2021 1:30:00 PM 9.72 49.496 0.084 7.08 15.79 11.07
11/12/2021 1:45:00 PM 9.76 49.568 0.084 7.05 14.76 11.06
11/12/2021 2:00:00 PM 9.8 49.64 0.084 7.02 13.88 11.06
11/12/2021 2:15:00 PM 9.82 49.676 0.083 7.04 13.4 11.04
11/12/2021 2:30:00 PM 9.8 49.64 0.083 7.07 12.75 11.03
11/12/2021 2:45:00 PM 9.81 49.658 0.083 7.06 11.96 11.03
11/12/2021 3:00:00 PM 9.79 49.622 0.083 7.04 11.18 11
11/12/2021 3:15:00 PM 9.74 49.532 0.082 7.04 10.79 10.98
11/12/2021 3:30:00 PM 9.68 49.424 0.082 7.03 10.37 10.96
11/12/2021 3:45:00 PM 9.59 49.262 0.082 7.01 10.04 10.93
11/12/2021 4:00:00 PM 9.54 49.172 0.082 7 9.52 10.94
11/12/2021 4:15:00 PM 9.5 49.1 0.082 7 9.25 10.96
11/12/2021 4:30:00 PM 9.44 48.992 0.082 6.99 9.13 10.94
11/12/2021 4:45:00 PM 9.38 48.884 0.082 6.98 8.64 10.93
11/12/2021 5:00:00 PM 9.31 48.758 0.081 6.97 8.67 10.91
11/12/2021 5:15:00 PM 9.24 48.632 0.081 6.96 8.36 10.91
11/12/2021 5:30:00 PM 9.17 48.506 0.081 6.95 8.24 10.91
11/12/2021 5:45:00 PM 9.09 48.362 0.081 6.93 7.95 10.91
11/12/2021 6:00:00 PM 9.02 48.236 0.081 6.93 7.88 10.9
11/12/2021 6:15:00 PM 8.96 48.128 0.081 6.91 7.66 10.9
11/12/2021 6:30:00 PM 8.89 48.002 0.081 6.89 7.71 10.9
11/12/2021 6:45:00 PM 8.83 47.894 0.081 6.91 7.31 10.91
11/12/2021 7:00:00 PM 8.77 47.786 0.081 6.9 7.39 10.92
11/12/2021 7:15:00 PM 8.7 47.66 0.081 6.89 7.24 10.94
11/12/2021 7:30:00 PM 8.64 47.552 0.081 6.87 6.98 10.95
11/12/2021 7:45:00 PM 8.57 47.426 0.081 6.89 6.92 10.97
11/12/2021 8:00:00 PM 8.51 47.318 0.081 6.88 6.83 10.98
11/12/2021 8:15:00 PM 8.44 47.192 0.081 6.88 6.6 11
11/12/2021 8:30:00 PM 8.37 47.066 0.081 6.87 6.74 11.02
11/12/2021 8:45:00 PM 8.3 46.94 0.081 6.86 6.64 11.04
11/12/2021 9:00:00 PM 8.24 46.832 0.081 6.87 6.57 11.05
11/12/2021 9:15:00 PM 8.17 46.706 0.081 6.87 6.45 11.07
11/12/2021 9:30:00 PM 8.11 46.598 0.081 6.88 6.53 11.09
11/12/2021 9:45:00 PM 8.05 46.49 0.08 6.86 6.32 11.1
11/12/2021 10:00:00 PM 7.99 46.382 0.08 6.85 6.26 11.11
11/12/2021 10:15:00 PM 7.95 46.31 0.08 6.84 6.15 11.13
11/12/2021 10:30:00 PM 7.91 46.238 0.08 6.87 6.08 11.15
11/12/2021 10:45:00 PM 7.85 46.13 0.08 6.87 5.98 11.16
11/12/2021 11:00:00 PM 7.8 46.04 0.08 6.87 6.03 11.16
11/12/2021 11:15:00 PM 7.74 45.932 0.08 6.86 5.96 11.19
11/12/2021 11:30:00 PM 7.69 45.842 0.08 6.86 5.92 11.2
11/12/2021 11:45:00 PM 7.63 45.734 0.08 6.85 5.91 11.21
11/13/2021 12:00:00 AM 7.58 45.644 0.08 6.86 5.82 11.22
11/13/2021 12:15:00 AM 7.53 45.554 0.08 6.86 5.87 11.24
11/13/2021 12:30:00 AM 7.49 45.482 0.08 6.85 5.72 11.25
11/13/2021 12:45:00 AM 7.44 45.392 0.08 6.85 5.76 11.26
11/13/2021 1:00:00 AM 7.39 45.302 0.08 6.84 5.74 11.27
11/13/2021 1:15:00 AM 7.35 45.23 0.08 6.86 5.58 11.28
11/13/2021 1:30:00 AM 7.31 45.158 0.08 6.85 5.6 11.3
11/13/2021 1:45:00 AM 7.27 45.086 0.08 6.86 5.6 11.3
11/13/2021 2:00:00 AM 7.24 45.032 0.08 6.86 5.52 11.31
11/13/2021 2:15:00 AM 7.21 44.978 0.08 6.85 5.48 11.31
11/13/2021 2:30:00 AM 7.17 44.906 0.08 6.85 5.5 11.32
11/13/2021 2:45:00 AM 7.14 44.852 0.08 6.84 5.47 11.33
11/13/2021 3:00:00 AM 7.13 44.834 0.08 6.81 5.43 11.33
11/13/2021 3:15:00 AM 7.11 44.798 0.08 6.85 5.39 11.34
11/13/2021 3:30:00 AM 7.1 44.78 0.08 6.84 5.42 11.34
11/13/2021 3:45:00 AM 7.09 44.762 0.08 6.85 5.33 11.35
11/13/2021 4:00:00 AM 7.08 44.744 0.08 6.84 5.41 11.35
11/13/2021 4:15:00 AM 7.08 44.744 0.08 6.85 5.38 11.35
11/13/2021 4:30:00 AM 7.07 44.726 0.08 6.86 5.34 11.35
11/13/2021 4:45:00 AM 7.07 44.726 0.08 6.86 5.29 11.35
11/13/2021 5:00:00 AM 7.07 44.726 0.08 6.85 5.25 11.35
11/13/2021 5:15:00 AM 7.06 44.708 0.08 6.86 5.33 11.35
11/13/2021 5:30:00 AM 7.05 44.69 0.08 6.85 5.23 11.35
11/13/2021 5:45:00 AM 7.05 44.69 0.08 6.86 5.15 11.35
11/13/2021 6:00:00 AM 7.05 44.69 0.08 6.86 5.07 11.35
11/13/2021 6:15:00 AM 7.04 44.672 0.08 6.86 5.14 11.35
11/13/2021 6:30:00 AM 7.04 44.672 0.08 6.86 5.11 11.35
11/13/2021 6:45:00 AM 7.04 44.672 0.079 6.86 5.05 11.35
11/13/2021 7:00:00 AM 7.03 44.654 0.079 6.86 5 11.35
11/13/2021 7:15:00 AM 7.03 44.654 0.079 6.86 5.1 11.35
11/13/2021 7:30:00 AM 7.03 44.654 0.079 6.86 4.99 11.35
11/13/2021 7:45:00 AM 7.03 44.654 0.079 6.85 5.12 11.36
11/13/2021 8:00:00 AM 7.04 44.672 0.079 6.85 5.01 11.35
11/13/2021 8:15:00 AM 7.04 44.672 0.079 6.87 4.89 11.35
11/13/2021 8:30:00 AM 7.05 44.69 0.079 6.87 4.89 11.36
11/13/2021 8:45:00 AM 7.07 44.726 0.079 6.84 4.9 11.38
11/13/2021 9:00:00 AM 7.09 44.762 0.079 6.88 4.84 11.42
11/13/2021 9:15:00 AM 7.11 44.798 0.079 6.9 4.81 11.45
11/13/2021 9:30:00 AM 7.13 44.834 0.079 6.91 4.74 11.46
11/13/2021 9:45:00 AM 7.16 44.888 0.079 6.9 4.77 11.46
11/13/2021 10:00:00 AM 7.19 44.942 0.079 6.92 4.61 11.49
11/13/2021 10:15:00 AM 7.22 44.996 0.079 6.92 4.65 11.51
11/13/2021 10:30:00 AM 7.25 45.05 0.079 6.93 4.68 11.5
11/13/2021 10:45:00 AM 7.28 45.104 0.079 6.96 4.69 11.51
11/13/2021 11:00:00 AM 7.33 45.194 0.079 6.96 4.6 11.56
11/13/2021 11:15:00 AM 7.36 45.248 0.078 6.98 4.6 11.57
11/13/2021 11:30:00 AM 7.4 45.32 0.078 6.99 4.65 11.62
11/13/2021 11:45:00 AM 7.42 45.356 0.078 7.01 4.58 11.64
11/13/2021 12:00:00 PM 7.46 45.428 0.078 7.03 4.59 11.67
11/13/2021 12:15:00 PM 7.5 45.5 0.078 7.05 4.55 11.69
11/13/2021 12:30:00 PM 7.53 45.554 0.078 7.06 4.59 11.7
11/13/2021 12:45:00 PM 7.56 45.608 0.078 7.07 4.54 11.69
11/13/2021 1:00:00 PM 7.55 45.59 0.078 7.06 4.5 11.65
11/13/2021 1:15:00 PM 7.57 45.626 0.078 7.01 4.57 11.67
11/13/2021 1:30:00 PM 7.56 45.608 0.078 7.06 4.51 11.62
11/13/2021 1:45:00 PM 7.58 45.644 0.078 7.06 4.52 11.66
11/13/2021 2:00:00 PM 7.62 45.716 0.078 7.06 4.49 11.69
11/13/2021 2:15:00 PM 7.67 45.806 0.077 7.07 4.48 11.71
11/13/2021 2:30:00 PM 7.73 45.914 0.077 7.1 4.47 11.68
11/13/2021 2:45:00 PM 7.79 46.022 0.077 7.09 4.54 11.69
11/13/2021 3:00:00 PM 7.86 46.148 0.077 7.12 4.49 11.67
11/13/2021 3:15:00 PM 7.84 46.112 0.077 7.12 4.43 11.65
11/13/2021 3:30:00 PM 7.76 45.968 0.077 7.09 4.54 11.62
11/13/2021 3:45:00 PM 7.7 45.86 0.077 7.01 4.52 11.61
11/13/2021 4:00:00 PM 7.68 45.824 0.077 7.06 4.48 11.6
11/13/2021 4:15:00 PM 7.65 45.77 0.077 7.02 4.54 11.54
11/13/2021 4:30:00 PM 7.61 45.698 0.077 7 4.49 11.47
11/13/2021 4:45:00 PM 7.57 45.626 0.078 6.98 4.56 11.42
11/13/2021 5:00:00 PM 7.54 45.572 0.078 6.96 4.52 11.39
11/13/2021 5:15:00 PM 7.52 45.536 0.078 6.96 4.51 11.37
11/13/2021 5:30:00 PM 7.49 45.482 0.078 6.94 4.49 11.34
11/13/2021 5:45:00 PM 7.47 45.446 0.078 6.93 4.51 11.32
11/13/2021 6:00:00 PM 7.45 45.41 0.078 6.92 4.54 11.3
11/13/2021 6:15:00 PM 7.43 45.374 0.078 6.91 4.54 11.29
11/13/2021 6:30:00 PM 7.4 45.32 0.078 6.89 4.55 11.28
11/13/2021 6:45:00 PM 7.38 45.284 0.078 6.89 4.54 11.28
11/13/2021 7:00:00 PM 7.35 45.23 0.078 6.89 4.57 11.29
11/13/2021 7:15:00 PM 7.33 45.194 0.078 6.9 4.53 11.29
11/13/2021 7:30:00 PM 7.31 45.158 0.078 6.89 4.65 11.3
11/13/2021 7:45:00 PM 7.29 45.122 0.078 6.85 4.5 11.3
11/13/2021 8:00:00 PM 7.27 45.086 0.078 6.89 4.55 11.3
11/13/2021 8:15:00 PM 7.26 45.068 0.078 6.88 4.58 11.31
11/13/2021 8:30:00 PM 7.24 45.032 0.078 6.88 4.51 11.32
11/13/2021 8:45:00 PM 7.22 44.996 0.078 6.85 4.51 11.32
11/13/2021 9:00:00 PM 7.2 44.96 0.078 6.89 4.65 11.33
11/13/2021 9:15:00 PM 7.18 44.924 0.078 6.87 4.47 11.34
11/13/2021 9:30:00 PM 7.17 44.906 0.078 6.89 4.56 11.34
11/13/2021 9:45:00 PM 7.15 44.87 0.078 6.89 4.57 11.34
11/13/2021 10:00:00 PM 7.13 44.834 0.078 6.87 4.52 11.35
11/13/2021 10:15:00 PM 7.12 44.816 0.078 6.88 4.55 11.35
11/13/2021 10:30:00 PM 7.1 44.78 0.078 6.88 4.53 11.36
11/13/2021 10:45:00 PM 7.09 44.762 0.078 6.88 4.47 11.36
11/13/2021 11:00:00 PM 7.08 44.744 0.078 6.88 4.46 11.37
11/13/2021 11:15:00 PM 7.07 44.726 0.078 6.87 4.54 11.37
11/13/2021 11:30:00 PM 7.06 44.708 0.078 6.87 4.49 11.37
11/13/2021 11:45:00 PM 7.05 44.69 0.078 6.88 4.53 11.37
11/14/2021 12:00:00 AM 7.05 44.69 0.078 6.89 4.48 11.37
11/14/2021 12:15:00 AM 7.04 44.672 0.078 6.85 5.01 11.38
11/14/2021 12:30:00 AM 7.04 44.672 0.078 6.87 4.44 11.38
11/14/2021 12:45:00 AM 7.03 44.654 0.078 6.88 4.5 11.38
11/14/2021 1:00:00 AM 7.02 44.636 0.078 6.83 4.44 11.38
11/14/2021 1:15:00 AM 7.02 44.636 0.078 6.88 4.48 11.39
11/14/2021 1:30:00 AM 7.01 44.618 0.078 6.84 4.45 11.39
11/14/2021 1:45:00 AM 7 44.6 0.078 6.87 4.42 11.4
11/14/2021 2:00:00 AM 7 44.6 0.078 6.85 4.47 11.39
11/14/2021 2:15:00 AM 6.99 44.582 0.078 6.88 4.42 11.4
11/14/2021 2:30:00 AM 6.98 44.564 0.078 6.86 4.44 11.4
11/14/2021 2:45:00 AM 6.98 44.564 0.078 6.88 4.42 11.4
11/14/2021 3:00:00 AM 6.97 44.546 0.078 6.87 4.4 11.4
11/14/2021 3:15:00 AM 6.97 44.546 0.078 6.87 4.55 11.4
11/14/2021 3:30:00 AM 6.96 44.528 0.078 6.87 4.41 11.41
11/14/2021 3:45:00 AM 6.95 44.51 0.077 6.87 4.4 11.42
11/14/2021 4:00:00 AM 6.95 44.51 0.077 6.87 4.39 11.41
11/14/2021 4:15:00 AM 6.94 44.492 0.077 6.87 4.39 11.42
11/14/2021 4:30:00 AM 6.93 44.474 0.077 6.87 4.37 11.42
11/14/2021 4:45:00 AM 6.92 44.456 0.077 6.87 4.4 11.42
11/14/2021 5:00:00 AM 6.92 44.456 0.077 6.87 4.37 11.42
11/14/2021 5:15:00 AM 6.91 44.438 0.077 6.87 4.41 11.42
11/14/2021 5:30:00 AM 6.89 44.402 0.077 6.85 4.41 11.43
11/14/2021 5:45:00 AM 6.88 44.384 0.077 6.87 4.39 11.43
11/14/2021 6:00:00 AM 6.88 44.384 0.077 6.87 4.38 11.43
11/14/2021 6:15:00 AM 6.87 44.366 0.077 6.85 4.36 11.44
11/14/2021 6:30:00 AM 6.86 44.348 0.077 6.87 4.45 11.44
11/14/2021 6:45:00 AM 6.85 44.33 0.077 6.87 4.37 11.45
11/14/2021 7:00:00 AM 6.84 44.312 0.077 6.87 4.38 11.45
11/14/2021 7:15:00 AM 6.82 44.276 0.077 6.87 4.39 11.46
11/14/2021 7:30:00 AM 6.81 44.258 0.077 6.85 4.4 11.46
11/14/2021 7:45:00 AM 6.8 44.24 0.077 6.87 4.4 11.46
11/14/2021 8:00:00 AM 6.79 44.222 0.077 6.87 4.33 11.47
11/14/2021 8:15:00 AM 6.78 44.204 0.077 6.85 4.37 11.48
11/14/2021 8:30:00 AM 6.77 44.186 0.077 6.88 4.31 11.52
11/14/2021 8:45:00 AM 6.76 44.168 0.077 6.89 4.33 11.57
11/14/2021 9:00:00 AM 6.76 44.168 0.077 6.9 4.34 11.64
11/14/2021 9:15:00 AM 6.75 44.15 0.077 6.91 4.35 11.68
11/14/2021 9:30:00 AM 6.75 44.15 0.077 6.93 4.28 11.72
11/14/2021 9:45:00 AM 6.76 44.168 0.077 6.94 4.28 11.74
11/14/2021 10:00:00 AM 6.76 44.168 0.077 6.94 4.29 11.74
11/14/2021 10:15:00 AM 6.75 44.15 0.077 6.94 4.26 11.74
11/14/2021 10:30:00 AM 6.75 44.15 0.077 6.96 4.27 11.76
11/14/2021 10:45:00 AM 6.77 44.186 0.076 6.9 4.21 11.81
11/14/2021 11:00:00 AM 6.78 44.204 0.076 6.99 4.25 11.85
11/14/2021 11:15:00 AM 6.82 44.276 0.076 7.01 4.26 11.91
11/14/2021 11:30:00 AM 6.9 44.42 0.076 7.04 4.23 11.96
11/14/2021 11:45:00 AM 6.97 44.546 0.076 7.06 4.26 11.96
11/14/2021 12:00:00 PM 7.02 44.636 0.076 7.06 4.27 11.96
11/14/2021 12:15:00 PM 7.07 44.726 0.076 7.08 4.2 11.97
11/14/2021 12:30:00 PM 7.12 44.816 0.076 7.1 4.22 11.96
11/14/2021 12:45:00 PM 7.16 44.888 0.076 7.09 4.24 11.93
11/14/2021 1:00:00 PM 7.17 44.906 0.076 7.09 4.24 11.92
11/14/2021 1:15:00 PM 7.21 44.978 0.075 7.11 4.22 11.92
11/14/2021 1:30:00 PM 7.23 45.014 0.075 7.07 4.22 11.9
11/14/2021 1:45:00 PM 7.25 45.05 0.075 7.12 4.21 11.88
11/14/2021 2:00:00 PM 7.24 45.032 0.075 7.09 4.24 11.84
11/14/2021 2:15:00 PM 7.23 45.014 0.075 7.1 4.21 11.83
11/14/2021 2:30:00 PM 7.23 45.014 0.075 7.1 4.2 11.84
11/14/2021 2:45:00 PM 7.24 45.032 0.075 7.1 4.23 11.83
11/14/2021 3:00:00 PM 7.23 45.014 0.075 7.08 4.22 11.79
11/14/2021 3:15:00 PM 7.21 44.978 0.075 7.06 4.28 11.74
11/14/2021 3:30:00 PM 7.19 44.942 0.075 7.05 4.2 11.73
11/14/2021 3:45:00 PM 7.16 44.888 0.075 7.03 4.25 11.71
11/14/2021 4:00:00 PM 7.13 44.834 0.075 7.03 4.22 11.7
11/14/2021 4:15:00 PM 7.1 44.78 0.075 7.01 4.19 11.63
11/14/2021 4:30:00 PM 7.07 44.726 0.075 6.99 4.24 11.57
11/14/2021 4:45:00 PM 7.04 44.672 0.075 6.96 4.21 11.53
11/14/2021 5:00:00 PM 7.02 44.636 0.076 6.95 4.24 11.51
11/14/2021 5:15:00 PM 6.99 44.582 0.076 6.93 4.22 11.48
11/14/2021 5:30:00 PM 6.94 44.492 0.076 6.92 4.25 11.46
11/14/2021 5:45:00 PM 6.88 44.384 0.076 6.89 4.23 11.45
11/14/2021 6:00:00 PM 6.84 44.312 0.076 6.9 4.21 11.44
11/14/2021 6:15:00 PM 6.79 44.222 0.076 6.89 4.32 11.43
11/14/2021 6:30:00 PM 6.73 44.114 0.076 6.88 4.26 11.43
11/14/2021 6:45:00 PM 6.69 44.042 0.076 6.87 4.26 11.44
11/14/2021 7:00:00 PM 6.62 43.916 0.076 6.86 4.3 11.45
11/14/2021 7:15:00 PM 6.56 43.808 0.076 6.82 4.31 11.46
11/14/2021 7:30:00 PM 6.47 43.646 0.075 6.86 4.34 11.48
11/14/2021 7:45:00 PM 6.42 43.556 0.075 6.86 4.36 11.49
11/14/2021 8:00:00 PM 6.37 43.466 0.075 6.84 4.32 11.51
11/14/2021 8:15:00 PM 6.34 43.412 0.075 6.85 4.28 11.52
11/14/2021 8:30:00 PM 6.32 43.376 0.075 6.86 4.35 11.53
11/14/2021 8:45:00 PM 6.29 43.322 0.075 6.86 4.34 11.54
11/14/2021 9:00:00 PM 6.28 43.304 0.075 6.84 4.39 11.55
11/14/2021 9:15:00 PM 6.27 43.286 0.075 6.83 4.38 11.55
11/14/2021 9:30:00 PM 6.27 43.286 0.076 6.86 4.39 11.56
11/14/2021 9:45:00 PM 6.27 43.286 0.076 6.86 4.39 11.56
11/14/2021 10:00:00 PM 6.27 43.286 0.076 6.85 4.4 11.55
11/14/2021 10:15:00 PM 6.27 43.286 0.076 6.86 4.36 11.55
11/14/2021 10:30:00 PM 6.27 43.286 0.076 6.85 4.36 11.55
11/14/2021 10:45:00 PM 6.28 43.304 0.076 6.86 4.37 11.55
11/14/2021 11:00:00 PM 6.28 43.304 0.076 6.86 4.38 11.55
11/14/2021 11:15:00 PM 6.29 43.322 0.076 6.86 4.36 11.55
11/14/2021 11:30:00 PM 6.29 43.322 0.076 6.85 4.41 11.54
11/14/2021 11:45:00 PM 6.29 43.322 0.076 6.86 4.38 11.54
11/15/2021 12:00:00 AM 6.28 43.304 0.076 6.82 4.46 11.55
11/15/2021 12:15:00 AM 6.28 43.304 0.076 6.86 4.51 11.55
11/15/2021 12:30:00 AM 6.27 43.286 0.076 6.85 4.4 11.55
11/15/2021 12:45:00 AM 6.27 43.286 0.076 6.86 4.49 11.55
11/15/2021 1:00:00 AM 6.26 43.268 0.076 6.86 4.5 11.55
11/15/2021 1:15:00 AM 6.26 43.268 0.076 6.86 4.47 11.55
11/15/2021 1:30:00 AM 6.24 43.232 0.076 6.85 4.44 11.55
11/15/2021 1:45:00 AM 6.21 43.178 0.076 6.86 4.48 11.55
11/15/2021 2:00:00 AM 6.2 43.16 0.076 6.86 4.37 11.56
11/15/2021 2:15:00 AM 6.19 43.142 0.076 6.86 4.42 11.57
11/15/2021 2:30:00 AM 6.18 43.124 0.076 6.85 4.42 11.57
11/15/2021 2:45:00 AM 6.18 43.124 0.076 6.85 4.39 11.57
11/15/2021 3:00:00 AM 6.19 43.142 0.076 6.85 4.32 11.57
11/15/2021 3:15:00 AM 6.19 43.142 0.076 6.85 4.34 11.57
11/15/2021 3:30:00 AM 6.19 43.142 0.076 6.86 4.34 11.57
11/15/2021 3:45:00 AM 6.19 43.142 0.076 6.86 4.33 11.57
11/15/2021 4:00:00 AM 6.19 43.142 0.076 6.85 4.35 11.57
11/15/2021 4:15:00 AM 6.2 43.16 0.076 6.85 4.36 11.57
11/15/2021 4:30:00 AM 6.2 43.16 0.076 6.82 4.32 11.56
11/15/2021 4:45:00 AM 6.2 43.16 0.076 6.86 4.31 11.57
11/15/2021 5:00:00 AM 6.2 43.16 0.076 6.87 4.37 11.56
11/15/2021 5:15:00 AM 6.2 43.16 0.076 6.85 4.36 11.57
11/15/2021 5:30:00 AM 6.2 43.16 0.076 6.86 4.36 11.57
11/15/2021 5:45:00 AM 6.19 43.142 0.076 6.86 4.38 11.57
11/15/2021 6:00:00 AM 6.19 43.142 0.076 6.86 4.31 11.57
11/15/2021 6:15:00 AM 6.19 43.142 0.076 6.8 4.38 11.57
11/15/2021 6:30:00 AM 6.19 43.142 0.076 6.87 4.28 11.57
11/15/2021 6:45:00 AM 6.19 43.142 0.076 6.85 4.34 11.58
11/15/2021 7:00:00 AM 6.18 43.124 0.076 6.86 4.3 11.58
11/15/2021 7:15:00 AM 6.17 43.106 0.076 6.85 4.31 11.58
11/15/2021 7:30:00 AM 6.16 43.088 0.076 6.82 4.3 11.59
11/15/2021 7:45:00 AM 6.16 43.088 0.076 6.86 4.25 11.59
11/15/2021 8:00:00 AM 6.15 43.07 0.076 6.85 4.29 11.6
11/15/2021 8:15:00 AM 6.16 43.088 0.076 6.86 4.27 11.61
11/15/2021 8:30:00 AM 6.17 43.106 0.076 6.87 4.34 11.63
11/15/2021 8:45:00 AM 6.17 43.106 0.076 6.87 4.25 11.65
11/15/2021 9:00:00 AM